Provisional Data: Baldwin Creek near Lowman, NY


Please select a monitoring station.
Please select start date.
Please select start date.

Toggle Unit: C/F Toggle Unit: C/F
Sample Time Temperature (C) Temperature (F) Specific Conductivity (mS/cm) pH   Turbidity (NTU+) DO (mg/L)
12/11/2021 12:00:00 AM 3.12 37.616 0.152 7.22 2.8 12.66
12/11/2021 12:15:00 AM 3.1 37.58 0.152 7.22 2.79 12.66
12/11/2021 12:30:00 AM 3.09 37.562 0.152 7.22 2.74 12.66
12/11/2021 12:45:00 AM 3.09 37.562 0.153 7.21 2.74 12.66
12/11/2021 1:00:00 AM 3.1 37.58 0.152 7.22 2.7 12.67
12/11/2021 1:15:00 AM 3.11 37.598 0.152 7.21 2.77 12.67
12/11/2021 1:30:00 AM 3.13 37.634 0.152 7.22 2.67 12.66
12/11/2021 1:45:00 AM 3.14 37.652 0.152 7.22 2.7 12.65
12/11/2021 2:00:00 AM 3.14 37.652 0.152 7.22 2.71 12.65
12/11/2021 2:15:00 AM 3.14 37.652 0.152 7.21 2.63 12.64
12/11/2021 2:30:00 AM 3.14 37.652 0.152 7.21 2.86 12.63
12/11/2021 2:45:00 AM 3.15 37.67 0.152 7.2 2.75 12.63
12/11/2021 3:00:00 AM 3.16 37.688 0.152 7.21 2.83 12.62
12/11/2021 3:15:00 AM 3.18 37.724 0.152 7.2 2.82 12.61
12/11/2021 3:30:00 AM 3.2 37.76 0.152 7.21 2.81 12.6
12/11/2021 3:45:00 AM 3.23 37.814 0.152 7.22 2.78 12.59
12/11/2021 4:00:00 AM 3.25 37.85 0.152 7.22 2.79 12.58
12/11/2021 4:15:00 AM 3.28 37.904 0.152 7.22 2.85 12.57
12/11/2021 4:30:00 AM 3.31 37.958 0.152 7.21 2.77 12.55
12/11/2021 4:45:00 AM 3.33 37.994 0.152 7.21 2.78 12.54
12/11/2021 5:00:00 AM 3.37 38.066 0.152 7.21 2.77 12.54
12/11/2021 5:15:00 AM 3.41 38.138 0.151 7.22 3.03 12.52
12/11/2021 5:30:00 AM 3.44 38.192 0.15 7.22 3.09 12.51
12/11/2021 5:45:00 AM 3.48 38.264 0.15 7.21 3.01 12.5
12/11/2021 6:00:00 AM 3.52 38.336 0.149 7.2 3.08 12.48
12/11/2021 6:15:00 AM 3.55 38.39 0.149 7.22 3.19 12.46
12/11/2021 6:30:00 AM 3.6 38.48 0.149 7.22 3.47 12.44
12/11/2021 6:45:00 AM 3.63 38.534 0.149 7.2 3.38 12.43
12/11/2021 7:00:00 AM 3.67 38.606 0.149 7.21 3.9 12.41
12/11/2021 7:15:00 AM 3.7 38.66 0.148 7.21 4.62 12.39
12/11/2021 7:30:00 AM 3.73 38.714 0.148 7.21 5.66 12.38
12/11/2021 7:45:00 AM 3.76 38.768 0.149 7.19 6.05 12.37
12/11/2021 8:00:00 AM 3.79 38.822 0.151 7.21 5.76 12.36
12/11/2021 8:15:00 AM 3.83 38.894 0.154 7.2 6.4 12.36
12/11/2021 8:30:00 AM 3.86 38.948 0.156 7.23 6.68 12.38
12/11/2021 8:45:00 AM 3.9 39.02 0.156 7.22 6.36 12.42
12/11/2021 9:00:00 AM 3.94 39.092 0.156 7.23 6.17 12.48
12/11/2021 9:15:00 AM 3.99 39.182 0.156 7.26 5.75 12.57
12/11/2021 9:30:00 AM 4.04 39.272 0.157 7.27 5.56 12.68
12/11/2021 9:45:00 AM 4.1 39.38 0.157 7.3 5.86 12.81
12/11/2021 10:00:00 AM 4.16 39.488 0.158 7.34 5.41 12.92
12/11/2021 10:15:00 AM 4.24 39.632 0.158 7.37 5.21 13.02
12/11/2021 10:30:00 AM 4.33 39.794 0.157 7.42 4.97 13.09
12/11/2021 10:45:00 AM 4.41 39.938 0.155 7.44 5.72 13.13
12/11/2021 11:00:00 AM 4.49 40.082 0.133 7.47 6.6 13.14
12/11/2021 11:15:00 AM 4.54 40.172 0.154 7.47 6.83 13.1
12/11/2021 11:30:00 AM 4.58 40.244 0.155 7.46 7.61 13.03
12/11/2021 11:45:00 AM 4.59 40.262 0.157 7.44 8.61 12.92
12/11/2021 12:00:00 PM 4.59 40.262 0.157 7.39 9.52 12.77
12/11/2021 12:15:00 PM 4.61 40.298 0.158 7.37 11.12 12.7
12/11/2021 12:30:00 PM 4.62 40.316 0.159 7.38 14.31 12.69
12/11/2021 12:45:00 PM 4.64 40.352 0.159 7.36 16.39 12.65
12/11/2021 1:00:00 PM 4.68 40.424 0.158 7.34 20.95 12.61
12/11/2021 1:15:00 PM 4.73 40.514 0.153 7.34 21.41 12.64
12/11/2021 1:30:00 PM 4.79 40.622 0.157 7.38 19.69 12.67
12/11/2021 1:45:00 PM 4.85 40.73 0.159 7.38 17.96 12.64
12/11/2021 2:00:00 PM 4.92 40.856 0.16 7.36 22.71 12.57
12/11/2021 2:15:00 PM 5.02 41.036 0.16 7.37 24.41 12.57
12/11/2021 2:30:00 PM 5.11 41.198 0.159 7.37 19.37 12.54
12/11/2021 2:45:00 PM 5.18 41.324 0.158 7.36 34.89 12.48
12/11/2021 3:00:00 PM 5.25 41.45 0.156 7.33 25.93 12.38
12/11/2021 3:15:00 PM 5.32 41.576 0.155 7.33 27.48 12.3
12/11/2021 3:30:00 PM 5.37 41.666 0.154 7.31 29.58 12.24
12/11/2021 3:45:00 PM 5.42 41.756 0.153 7.28 29.8 12.16
12/11/2021 4:00:00 PM 5.46 41.828 0.153 7.27 31.89 12.09
12/11/2021 4:15:00 PM 5.5 41.9 0.152 7.27 26.81 12.04
12/11/2021 4:30:00 PM 5.55 41.99 0.152 7.26 24.21 11.97
12/11/2021 4:45:00 PM 5.59 42.062 0.152 7.25 25.65 11.94
12/11/2021 5:00:00 PM 5.63 42.134 0.152 7.23 22.32 11.89
12/11/2021 5:15:00 PM 5.67 42.206 0.152 7.22 19.18 11.84
12/11/2021 5:30:00 PM 5.71 42.278 0.152 7.2 23.36 11.8
12/11/2021 5:45:00 PM 5.74 42.332 0.151 7.19 21.14 11.78
12/11/2021 6:00:00 PM 5.8 42.44 0.15 7.17 21.2 11.75
12/11/2021 6:15:00 PM 5.85 42.53 0.149 7.19 22.01 11.73
12/11/2021 6:30:00 PM 5.91 42.638 0.148 7.18 16.66 11.71
12/11/2021 6:45:00 PM 5.97 42.746 0.147 7.18 14.68 11.68
12/11/2021 7:00:00 PM 5.96 42.728 0.146 7.18 18.38 11.67
12/11/2021 7:15:00 PM 5.92 42.656 0.14 7.14 14.85 11.66
12/11/2021 7:30:00 PM 5.89 42.602 0.145 7.15 15.38 11.66
12/11/2021 7:45:00 PM 5.85 42.53 0.144 7.14 16 11.66
12/11/2021 8:00:00 PM 5.83 42.494 0.144 7.17 15.83 11.65
12/11/2021 8:15:00 PM 5.81 42.458 0.144 7.15 15.25 11.65
12/11/2021 8:30:00 PM 5.79 42.422 0.143 7.15 13.83 11.65
12/11/2021 8:45:00 PM 5.76 42.368 0.143 7.15 15.52 11.66
12/11/2021 9:00:00 PM 5.72 42.296 0.143 7.13 16.25 11.67
12/11/2021 9:15:00 PM 5.68 42.224 0.143 7.14 15.62 11.68
12/11/2021 9:30:00 PM 5.63 42.134 0.143 7.13 14.78 11.69
12/11/2021 9:45:00 PM 5.57 42.026 0.144 7.12 15.46 11.71
12/11/2021 10:00:00 PM 5.51 41.918 0.144 7.13 15.15 11.73
12/11/2021 10:15:00 PM 5.46 41.828 0.144 7.14 14.04 11.74
12/11/2021 10:30:00 PM 5.43 41.774 0.144 7.13 13.36 11.76
12/11/2021 10:45:00 PM 5.4 41.72 0.144 7.11 14.07 11.77
12/11/2021 11:00:00 PM 5.35 41.63 0.143 7.12 13.28 11.78
12/11/2021 11:15:00 PM 5.31 41.558 0.144 7.11 12.37 11.8
12/11/2021 11:30:00 PM 5.27 41.486 0.144 7.12 13.55 11.81
12/11/2021 11:45:00 PM 5.22 41.396 0.143 7.13 12.89 11.84
12/12/2021 12:00:00 AM 5.18 41.324 0.143 7.11 12.38 11.85
12/12/2021 12:15:00 AM 5.15 41.27 0.143 7.12 12.12 11.87
12/12/2021 12:30:00 AM 5.11 41.198 0.143 7.11 11.72 11.88
12/12/2021 12:45:00 AM 5.08 41.144 0.143 7.12 12.07 11.89
12/12/2021 1:00:00 AM 5.04 41.072 0.143 7.13 10.24 11.91
12/12/2021 1:15:00 AM 5.01 41.018 0.143 7.11 10.8 11.93
12/12/2021 1:30:00 AM 4.97 40.946 0.144 7.12 10.04 11.94
12/12/2021 1:45:00 AM 4.94 40.892 0.144 7.13 10.36 11.95
12/12/2021 2:00:00 AM 4.91 40.838 0.144 7.11 9.4 11.97
12/12/2021 2:15:00 AM 4.87 40.766 0.144 7.13 9.44 11.98
12/12/2021 2:30:00 AM 4.82 40.676 0.144 7.12 8.95 12
12/12/2021 2:45:00 AM 4.77 40.586 0.144 7.12 9.07 12.02
12/12/2021 3:00:00 AM 4.71 40.478 0.144 7.12 8.93 12.03
12/12/2021 3:15:00 AM 4.66 40.388 0.144 7.14 8.54 12.05
12/12/2021 3:30:00 AM 4.61 40.298 0.145 7.13 8.69 12.07
12/12/2021 3:45:00 AM 4.58 40.244 0.145 7.12 8.06 12.09
12/12/2021 4:00:00 AM 4.55 40.19 0.145 7.13 8.27 12.11
12/12/2021 4:15:00 AM 4.51 40.118 0.145 7.11 7.97 12.12
12/12/2021 4:30:00 AM 4.45 40.01 0.145 7.12 8.19 12.15
12/12/2021 4:45:00 AM 4.39 39.902 0.145 7.12 7.36 12.17
12/12/2021 5:00:00 AM 4.34 39.812 0.145 7.13 7.58 12.19
12/12/2021 5:15:00 AM 4.27 39.686 0.145 7.14 7.29 12.21
12/12/2021 5:30:00 AM 4.21 39.578 0.145 7.13 7.17 12.23
12/12/2021 5:45:00 AM 4.16 39.488 0.145 7.12 7.98 12.25
12/12/2021 6:00:00 AM 4.09 39.362 0.145 7.13 6.89 12.27
12/12/2021 6:15:00 AM 4.03 39.254 0.145 7.13 7.57 12.3
12/12/2021 6:30:00 AM 3.97 39.146 0.145 7.14 6.82 12.31
12/12/2021 6:45:00 AM 3.92 39.056 0.145 7.13 7 12.34
12/12/2021 7:00:00 AM 3.88 38.984 0.145 7.13 7.12 12.36
12/12/2021 7:15:00 AM 3.84 38.912 0.145 7.11 7.67 12.37
12/12/2021 7:30:00 AM 3.8 38.84 0.143 7.12 6.54 12.39
12/12/2021 7:45:00 AM 3.75 38.75 0.145 7.13 6.65 12.43
12/12/2021 8:00:00 AM 3.71 38.678 0.145 7.12 6.33 12.49
12/12/2021 8:15:00 AM 3.67 38.606 0.145 7.15 6.36 12.55
12/12/2021 8:30:00 AM 3.63 38.534 0.145 7.16 6.46 12.66
12/12/2021 8:45:00 AM 3.61 38.498 0.145 7.18 6.18 12.76
12/12/2021 9:00:00 AM 3.61 38.498 0.144 7.21 5.76 12.86
12/12/2021 9:15:00 AM 3.61 38.498 0.144 7.22 5.99 12.97
12/12/2021 9:30:00 AM 3.64 38.552 0.144 7.25 5.83 13.08
12/12/2021 9:45:00 AM 3.68 38.624 0.144 7.28 5.91 13.16
12/12/2021 10:00:00 AM 3.73 38.714 0.144 7.31 5.6 13.24
12/12/2021 10:15:00 AM 3.79 38.822 0.144 7.34 5.82 13.3
12/12/2021 10:30:00 AM 3.86 38.948 0.144 7.36 5.58 13.36
12/12/2021 10:45:00 AM 3.92 39.056 0.144 7.39 5.54 13.41
12/12/2021 11:00:00 AM 3.97 39.146 0.143 7.4 5.59 13.43
12/12/2021 11:15:00 AM 4.02 39.236 0.143 7.43 4.95 13.45
12/12/2021 11:30:00 AM 4.06 39.308 0.144 7.43 5.44 13.46
12/12/2021 11:45:00 AM 4.11 39.398 0.143 7.45 5.48 13.47
12/12/2021 12:00:00 PM 4.14 39.452 0.143 7.45 5.27 13.48
12/12/2021 12:15:00 PM 4.16 39.488 0.143 7.44 5.08 13.47
12/12/2021 12:30:00 PM 4.18 39.524 0.143 7.46 5.16 13.46
12/12/2021 12:45:00 PM 4.21 39.578 0.143 7.48 5.17 13.46
12/12/2021 1:00:00 PM 4.24 39.632 0.143 7.47 5.21 13.44
12/12/2021 1:15:00 PM 4.26 39.668 0.143 7.47 5.11 13.43
12/12/2021 1:30:00 PM 4.28 39.704 0.143 7.48 5.22 13.41
12/12/2021 1:45:00 PM 4.3 39.74 0.143 7.47 5.3 13.39
12/12/2021 2:00:00 PM 4.31 39.758 0.143 7.47 5.05 13.36
12/12/2021 2:15:00 PM 4.31 39.758 0.143 7.47 4.99 13.34
12/12/2021 2:30:00 PM 4.31 39.758 0.143 7.46 5.17 13.31
12/12/2021 2:45:00 PM 4.31 39.758 0.143 7.45 5.1 13.28
12/12/2021 3:00:00 PM 4.3 39.74 0.143 7.44 5.2 13.24
12/12/2021 3:15:00 PM 4.28 39.704 0.143 7.42 5.27 13.19
12/12/2021 3:30:00 PM 4.25 39.65 0.143 7.41 5.03 13.15
12/12/2021 3:45:00 PM 4.22 39.596 0.143 7.38 4.99 13.09
12/12/2021 4:00:00 PM 4.18 39.524 0.143 7.36 5.06 13.04
12/12/2021 4:15:00 PM 4.15 39.47 0.143 7.34 5.29 12.99
12/12/2021 4:30:00 PM 4.11 39.398 0.143 7.32 5.15 12.94
12/12/2021 4:45:00 PM 4.06 39.308 0.143 7.3 5.24 12.88
12/12/2021 5:00:00 PM 4 39.2 0.143 7.27 5.4 12.81
12/12/2021 5:15:00 PM 3.95 39.11 0.143 7.26 5.38 12.75
12/12/2021 5:30:00 PM 3.9 39.02 0.143 7.24 5.31 12.71
12/12/2021 5:45:00 PM 3.85 38.93 0.143 7.23 5.71 12.68
12/12/2021 6:00:00 PM 3.8 38.84 0.143 7.21 5.47 12.66
12/12/2021 6:15:00 PM 3.74 38.732 0.143 7.21 5.35 12.65
12/12/2021 6:30:00 PM 3.68 38.624 0.143 7.2 5.36 12.65
12/12/2021 6:45:00 PM 3.63 38.534 0.143 7.2 5.5 12.64
12/12/2021 7:00:00 PM 3.57 38.426 0.143 7.19 5.8 12.65
12/12/2021 7:15:00 PM 3.5 38.3 0.143 7.19 5.72 12.66
12/12/2021 7:30:00 PM 3.44 38.192 0.143 7.18 5.76 12.66
12/12/2021 7:45:00 PM 3.38 38.084 0.143 7.18 5.61 12.67
12/12/2021 8:00:00 PM 3.33 37.994 0.143 7.17 5.72 12.68
12/12/2021 8:15:00 PM 3.28 37.904 0.143 7.17 5.42 12.69
12/12/2021 8:30:00 PM 3.22 37.796 0.132 7.16 5.54 12.7
12/12/2021 8:45:00 PM 3.17 37.706 0.143 7.17 5.66 12.71
12/12/2021 9:00:00 PM 3.12 37.616 0.143 7.17 5.69 12.72
12/12/2021 9:15:00 PM 3.07 37.526 0.143 7.15 5.83 12.74
12/12/2021 9:30:00 PM 3.03 37.454 0.143 7.15 5.85 12.74
12/12/2021 9:45:00 PM 2.98 37.364 0.143 7.15 5.72 12.75
12/12/2021 10:00:00 PM 2.94 37.292 0.143 7.15 5.95 12.77
12/12/2021 10:15:00 PM 2.91 37.238 0.143 7.16 5.96 12.77
12/12/2021 10:30:00 PM 2.87 37.166 0.143 7.13 5.63 12.78
12/12/2021 10:45:00 PM 2.82 37.076 0.143 7.15 6.26 12.8
12/12/2021 11:00:00 PM 2.79 37.022 0.143 7.15 6 12.81
12/12/2021 11:15:00 PM 2.76 36.968 0.143 7.16 6 12.81
12/12/2021 11:30:00 PM 2.72 36.896 0.143 7.16 5.65 12.82
12/12/2021 11:45:00 PM 2.69 36.842 0.143 7.15 5.84 12.83
12/13/2021 12:00:00 AM 2.67 36.806 0.144 7.14 5.97 12.84
12/13/2021 12:15:00 AM 2.64 36.752 0.143 7.14 6 12.85
12/13/2021 12:30:00 AM 2.61 36.698 0.143 7.13 5.75 12.86
12/13/2021 12:45:00 AM 2.58 36.644 0.144 7.15 5.84 12.87
12/13/2021 1:00:00 AM 2.55 36.59 0.144 7.14 5.86 12.88
12/13/2021 1:15:00 AM 2.53 36.554 0.144 7.14 6.32 12.89
12/13/2021 1:30:00 AM 2.51 36.518 0.144 7.14 6.1 12.9
12/13/2021 1:45:00 AM 2.5 36.5 0.144 7.14 6.03 12.91
12/13/2021 2:00:00 AM 2.49 36.482 0.144 7.14 6.06 12.93
12/13/2021 2:15:00 AM 2.48 36.464 0.144 7.14 5.78 12.93
12/13/2021 2:30:00 AM 2.47 36.446 0.144 7.14 6.16 12.94
12/13/2021 2:45:00 AM 2.46 36.428 0.144 7.14 5.8 12.94
12/13/2021 3:00:00 AM 2.45 36.41 0.144 7.14 5.87 12.95
12/13/2021 3:15:00 AM 2.44 36.392 0.144 7.14 6.1 12.96
12/13/2021 3:30:00 AM 2.44 36.392 0.127 7.14 5.46 12.97
12/13/2021 3:45:00 AM 2.44 36.392 0.144 7.14 5.59 12.97
12/13/2021 4:00:00 AM 2.44 36.392 0.138 7.14 5.57 12.98
12/13/2021 4:15:00 AM 2.44 36.392 0.144 7.12 5.38 12.98
12/13/2021 4:30:00 AM 2.44 36.392 0.144 7.13 5.53 12.98
12/13/2021 4:45:00 AM 2.44 36.392 0.144 7.11 5.44 12.99
12/13/2021 5:00:00 AM 2.44 36.392 0.144 7.12 5.51 12.99
12/13/2021 5:15:00 AM 2.44 36.392 0.144 7.13 5.27 12.99
12/13/2021 5:30:00 AM 2.44 36.392 0.144 7.13 5.39 12.99
12/13/2021 5:45:00 AM 2.44 36.392 0.144 7.12 5.23 12.99
12/13/2021 6:00:00 AM 2.44 36.392 0.144 7.13 4.86 13.01
12/13/2021 6:15:00 AM 2.44 36.392 0.144 7.13 5.6 13
12/13/2021 6:30:00 AM 2.44 36.392 0.144 7.13 5.13 13
12/13/2021 6:45:00 AM 2.45 36.41 0.144 7.13 4.98 13.01
12/13/2021 7:00:00 AM 2.45 36.41 0.144 7.13 5.04 13.01
12/13/2021 7:15:00 AM 2.45 36.41 0.144 7.12 5.18 13.01
12/13/2021 7:30:00 AM 2.46 36.428 0.144 7.13 5.07 13.01
12/13/2021 7:45:00 AM 2.46 36.428 0.144 7.12 4.76 13.02
12/13/2021 8:00:00 AM 2.46 36.428 0.144 7.13 5.13 13.03
12/13/2021 8:15:00 AM 2.46 36.428 0.144 7.14 4.99 13.08
12/13/2021 8:30:00 AM 2.47 36.446 0.144 7.16 4.65 13.14
12/13/2021 8:45:00 AM 2.48 36.464 0.144 7.17 5 13.24
12/13/2021 9:00:00 AM 2.51 36.518 0.144 7.21 4.56 13.36
12/13/2021 9:15:00 AM 2.53 36.554 0.144 7.23 5.06 13.53
12/13/2021 9:30:00 AM 2.57 36.626 0.144 7.28 4.85 13.65
12/13/2021 9:45:00 AM 2.62 36.716 0.144 7.31 4.7 13.76
12/13/2021 10:00:00 AM 2.69 36.842 0.144 7.34 4.48 13.84
12/13/2021 10:15:00 AM 2.78 37.004 0.144 7.35 4.48 13.91
12/13/2021 10:30:00 AM 2.87 37.166 0.144 7.37 4.61 13.95
12/13/2021 10:45:00 AM 2.95 37.31 0.144 7.41 5.09 13.97
12/13/2021 11:00:00 AM 3.04 37.472 0.144 7.43 4.33 14
12/13/2021 11:15:00 AM 3.12 37.616 0.143 7.45 4.29 14
12/13/2021 11:30:00 AM 3.18 37.724 0.143 7.46 4.48 14
12/13/2021 11:45:00 AM 3.25 37.85 0.143 7.49 4.35 14
12/13/2021 12:00:00 PM 3.32 37.976 0.143 7.49 4.4 13.98
12/13/2021 12:15:00 PM 3.37 38.066 0.143 7.49 4.31 13.97
12/13/2021 12:30:00 PM 3.43 38.174 0.143 7.51 4.16 13.95
12/13/2021 12:45:00 PM 3.48 38.264 0.143 7.51 4.12 13.93
12/13/2021 1:00:00 PM 3.53 38.354 0.143 7.53 4.11 13.89
12/13/2021 1:15:00 PM 3.57 38.426 0.143 7.53 4.01 13.87
12/13/2021 1:30:00 PM 3.62 38.516 0.143 7.53 3.98 13.84
12/13/2021 1:45:00 PM 3.66 38.588 0.143 7.54 4.1 13.8
12/13/2021 2:00:00 PM 3.69 38.642 0.143 7.52 3.99 13.77
12/13/2021 2:15:00 PM 3.72 38.696 0.143 7.53 3.99 13.74
12/13/2021 2:30:00 PM 3.73 38.714 0.143 7.53 4.02 13.69
12/13/2021 2:45:00 PM 3.74 38.732 0.143 7.52 4.12 13.65
12/13/2021 3:00:00 PM 3.76 38.768 0.143 7.5 4.05 13.61
12/13/2021 3:15:00 PM 3.76 38.768 0.143 7.47 3.94 13.54
12/13/2021 3:30:00 PM 3.76 38.768 0.143 7.45 3.99 13.47
12/13/2021 3:45:00 PM 3.74 38.732 0.143 7.42 3.95 13.41
12/13/2021 4:00:00 PM 3.73 38.714 0.144 7.42 4 13.34
12/13/2021 4:15:00 PM 3.72 38.696 0.144 7.39 3.8 13.27
12/13/2021 4:30:00 PM 3.71 38.678 0.143 7.37 3.96 13.21
12/13/2021 4:45:00 PM 3.69 38.642 0.144 7.34 4.7 13.12
12/13/2021 5:00:00 PM 3.66 38.588 0.144 7.32 3.86 13.05
12/13/2021 5:15:00 PM 3.63 38.534 0.144 7.29 3.92 12.97
12/13/2021 5:30:00 PM 3.59 38.462 0.144 7.27 3.84 12.89
12/13/2021 5:45:00 PM 3.55 38.39 0.144 7.23 3.7 12.84
12/13/2021 6:00:00 PM 3.52 38.336 0.144 7.25 3.82 12.81
12/13/2021 6:15:00 PM 3.49 38.282 0.144 7.22 3.94 12.79
12/13/2021 6:30:00 PM 3.46 38.228 0.145 7.21 3.74 12.77
12/13/2021 6:45:00 PM 3.43 38.174 0.145 7.21 3.78 12.76
12/13/2021 7:00:00 PM 3.4 38.12 0.145 7.19 3.89 12.75
12/13/2021 7:15:00 PM 3.36 38.048 0.145 7.19 3.73 12.75
12/13/2021 7:30:00 PM 3.32 37.976 0.145 7.18 3.76 12.75
12/13/2021 7:45:00 PM 3.26 37.868 0.145 7.17 3.94 12.75
12/13/2021 8:00:00 PM 3.22 37.796 0.145 7.16 3.84 12.76
12/13/2021 8:15:00 PM 3.18 37.724 0.145 7.17 3.55 12.77
12/13/2021 8:30:00 PM 3.14 37.652 0.145 7.16 3.56 12.78
12/13/2021 8:45:00 PM 3.1 37.58 0.145 7.17 3.7 12.78
12/13/2021 9:00:00 PM 3.06 37.508 0.145 7.16 3.6 12.79
12/13/2021 9:15:00 PM 3.01 37.418 0.134 7.16 3.69 12.8
12/13/2021 9:30:00 PM 2.97 37.346 0.145 7.16 3.72 12.81
12/13/2021 9:45:00 PM 2.93 37.274 0.145 7.17 3.65 12.82
12/13/2021 10:00:00 PM 2.88 37.184 0.146 7.14 3.67 12.84
12/13/2021 10:15:00 PM 2.84 37.112 0.146 7.15 3.69 12.85
12/13/2021 10:30:00 PM 2.8 37.04 0.146 7.14 3.66 12.86
12/13/2021 10:45:00 PM 2.76 36.968 0.146 7.14 3.7 12.87
12/13/2021 11:00:00 PM 2.72 36.896 0.146 7.14 3.62 12.88
12/13/2021 11:15:00 PM 2.69 36.842 0.146 7.15 3.72 12.9
12/13/2021 11:30:00 PM 2.65 36.77 0.146 7.15 3.67 12.9
12/13/2021 11:45:00 PM 2.62 36.716 0.146 7.16 3.56 12.91
12/14/2021 12:00:00 AM 2.59 36.662 0.142 7.14 3.67 12.92
12/14/2021 12:15:00 AM 2.56 36.608 0.146 7.18 3.61 12.93
12/14/2021 12:30:00 AM 2.52 36.536 0.146 7.17 3.62 12.95
12/14/2021 12:45:00 AM 2.5 36.5 0.146 7.17 3.58 12.95
12/14/2021 1:00:00 AM 2.47 36.446 0.146 7.17 3.79 12.96
12/14/2021 1:15:00 AM 2.44 36.392 0.134 7.15 3.59 12.97
12/14/2021 1:30:00 AM 2.41 36.338 0.146 7.16 3.53 12.98
12/14/2021 1:45:00 AM 2.39 36.302 0.146 7.16 3.65 12.99
12/14/2021 2:00:00 AM 2.36 36.248 0.146 7.15 3.65 13
12/14/2021 2:15:00 AM 2.33 36.194 0.146 7.16 3.72 13.01
12/14/2021 2:30:00 AM 2.31 36.158 0.147 7.17 3.47 13.02
12/14/2021 2:45:00 AM 2.28 36.104 0.147 7.17 3.56 13.03
12/14/2021 3:00:00 AM 2.25 36.05 0.146 7.17 3.52 13.04
12/14/2021 3:15:00 AM 2.23 36.014 0.146 7.18 3.53 13.06
12/14/2021 3:30:00 AM 2.2 35.96 0.146 7.17 3.63 13.06
12/14/2021 3:45:00 AM 2.17 35.906 0.147 7.15 3.52 13.08
12/14/2021 4:00:00 AM 2.14 35.852 0.147 7.15 3.51 13.09
12/14/2021 4:15:00 AM 2.11 35.798 0.147 7.16 3.47 13.1
12/14/2021 4:30:00 AM 2.09 35.762 0.139 7.16 3.54 13.11
12/14/2021 4:45:00 AM 2.06 35.708 0.147 7.16 3.46 13.13
12/14/2021 5:00:00 AM 2.03 35.654 0.147 7.16 3.37 13.14
12/14/2021 5:15:00 AM 2 35.6 0.147 7.16 3.6 13.15
12/14/2021 5:30:00 AM 1.97 35.546 0.142 7.17 3.39 13.17
12/14/2021 5:45:00 AM 1.94 35.492 0.147 7.17 3.58 13.18
12/14/2021 6:00:00 AM 1.91 35.438 0.147 7.18 3.57 13.19
12/14/2021 6:15:00 AM 1.87 35.366 0.147 7.16 3.56 13.21
12/14/2021 6:30:00 AM 1.84 35.312 0.147 7.15 3.52 13.22
12/14/2021 6:45:00 AM 1.81 35.258 0.14 7.15 3.49 13.24
12/14/2021 7:00:00 AM 1.78 35.204 0.147 7.15 3.54 13.25
12/14/2021 7:15:00 AM 1.75 35.15 0.145 7.16 3.38 13.27
12/14/2021 7:30:00 AM 1.72 35.096 0.148 7.16 3.54 13.29
12/14/2021 7:45:00 AM 1.7 35.06 0.148 7.18 3.42 13.32
12/14/2021 8:00:00 AM 1.7 35.06 0.148 7.17 3.45 13.37
12/14/2021 8:15:00 AM 1.72 35.096 0.148 7.17 3.43 13.45
12/14/2021 8:30:00 AM 1.74 35.132 0.148 7.19 3.36 13.54
12/14/2021 8:45:00 AM 1.77 35.186 0.147 7.24 3.42 13.66
12/14/2021 9:00:00 AM 1.81 35.258 0.147 7.28 3.43 13.82
12/14/2021 9:15:00 AM 1.85 35.33 0.147 7.29 3.32 13.95
12/14/2021 9:30:00 AM 1.89 35.402 0.147 7.32 3.44 14.06
12/14/2021 9:45:00 AM 1.94 35.492 0.147 7.35 3.23 14.14
12/14/2021 10:00:00 AM 2 35.6 0.147 7.37 3.41 14.23
12/14/2021 10:15:00 AM 2.06 35.708 0.147 7.41 3.38 14.3
12/14/2021 10:30:00 AM 2.14 35.852 0.147 7.43 3.35 14.37
12/14/2021 10:45:00 AM 2.26 36.068 0.147 7.46 3.33 14.44
12/14/2021 11:00:00 AM 2.37 36.266 0.147 7.52 3.29 14.5
12/14/2021 11:15:00 AM 2.52 36.536 0.147 7.55 3.22 14.53
12/14/2021 11:30:00 AM 2.65 36.77 0.146 7.58 3.25 14.55
12/14/2021 11:45:00 AM 2.75 36.95 0.146 7.61 3.14 14.54
12/14/2021 12:00:00 PM 2.83 37.094 0.147 7.62 3.1 14.53
12/14/2021 12:15:00 PM 2.88 37.184 0.146 7.63 3.15 14.51
12/14/2021 12:30:00 PM 2.92 37.256 0.146 7.63 3.21 14.48
12/14/2021 12:45:00 PM 2.96 37.328 0.147 7.63 3.25 14.43
12/14/2021 1:00:00 PM 3 37.4 0.147 7.64 3.16 14.4
12/14/2021 1:15:00 PM 3.03 37.454 0.146 7.63 3.14 14.36
12/14/2021 1:30:00 PM 3.06 37.508 0.146 7.63 3.2 14.33
12/14/2021 1:45:00 PM 3.09 37.562 0.137 7.62 3.06 14.29
12/14/2021 2:00:00 PM 3.12 37.616 0.146 7.63 3.26 14.26
12/14/2021 2:15:00 PM 3.14 37.652 0.146 7.59 3.13 14.22
12/14/2021 2:30:00 PM 3.15 37.67 0.147 7.57 3.22 14.19
12/14/2021 2:45:00 PM 3.15 37.67 0.147 7.57 3.13 14.15
12/14/2021 3:00:00 PM 3.15 37.67 0.146 7.55 3.06 14.12
12/14/2021 3:15:00 PM 3.14 37.652 0.146 7.54 3.06 14.05
12/14/2021 3:30:00 PM 3.12 37.616 0.147 7.5 3.03 14
12/14/2021 3:45:00 PM 3.1 37.58 0.147 7.48 3.07 13.92
12/14/2021 4:00:00 PM 3.08 37.544 0.147 7.47 3.13 13.85
12/14/2021 4:15:00 PM 3.06 37.508 0.147 7.44 3.14 13.78
12/14/2021 4:30:00 PM 3.04 37.472 0.132 7.42 3.14 13.69
12/14/2021 4:45:00 PM 3.02 37.436 0.147 7.39 3.18 13.61
12/14/2021 5:00:00 PM 3 37.4 0.147 7.37 3.18 13.51
12/14/2021 5:15:00 PM 2.98 37.364 0.147 7.34 3.24 13.42
12/14/2021 5:30:00 PM 2.94 37.292 0.148 7.31 3.18 13.33
12/14/2021 5:45:00 PM 2.91 37.238 0.148 7.3 3.15 13.27
12/14/2021 6:00:00 PM 2.88 37.184 0.148 7.29 3.09 13.22
12/14/2021 6:15:00 PM 2.85 37.13 0.148 7.26 3.13 13.19
12/14/2021 6:30:00 PM 2.82 37.076 0.148 7.24 3.19 13.16
12/14/2021 6:45:00 PM 2.79 37.022 0.145 7.22 3.11 13.15
12/14/2021 7:00:00 PM 2.75 36.95 0.148 7.23 3.04 13.14
12/14/2021 7:15:00 PM 2.72 36.896 0.148 7.21 3.11 13.13
12/14/2021 7:30:00 PM 2.68 36.824 0.148 7.2 3.21 13.14
12/14/2021 7:45:00 PM 2.64 36.752 0.148 7.21 3.45 13.13
12/14/2021 8:00:00 PM 2.6 36.68 0.148 7.22 3.39 13.14
12/14/2021 8:15:00 PM 2.56 36.608 0.148 7.2 3.2 13.15
12/14/2021 8:30:00 PM 2.53 36.554 0.148 7.2 3.24 13.15
12/14/2021 8:45:00 PM 2.48 36.464 0.148 7.2 3.17 13.16
12/14/2021 9:00:00 PM 2.45 36.41 0.141 7.21 2.94 13.16
12/14/2021 9:15:00 PM 2.41 36.338 0.148 7.17 3.18 13.18
12/14/2021 9:30:00 PM 2.37 36.266 0.133 7.18 3.19 13.19
12/14/2021 9:45:00 PM 2.32 36.176 0.148 7.18 3.23 13.19
12/14/2021 10:00:00 PM 2.28 36.104 0.148 7.16 3.21 13.2
12/14/2021 10:15:00 PM 2.23 36.014 0.148 7.19 2.96 13.22
12/14/2021 10:30:00 PM 2.19 35.942 0.148 7.17 3.13 13.23
12/14/2021 10:45:00 PM 2.14 35.852 0.148 7.16 3.23 13.24
12/14/2021 11:00:00 PM 2.09 35.762 0.148 7.16 3.12 13.26
12/14/2021 11:15:00 PM 2.05 35.69 0.148 7.17 3.2 13.27
12/14/2021 11:30:00 PM 2.01 35.618 0.148 7.17 3.26 13.28
12/14/2021 11:45:00 PM 1.96 35.528 0.148 7.17 3.17 13.3
12/15/2021 12:00:00 AM 1.92 35.456 0.148 7.17 3.16 13.31
12/15/2021 12:15:00 AM 1.89 35.402 0.148 7.17 3.1 13.32
12/15/2021 12:30:00 AM 1.85 35.33 0.148 7.17 3.12 13.34
12/15/2021 12:45:00 AM 1.81 35.258 0.148 7.16 3.03 13.34
12/15/2021 1:00:00 AM 1.78 35.204 0.148 7.18 3.14 13.36
12/15/2021 1:15:00 AM 1.75 35.15 0.148 7.18 3.13 13.36
12/15/2021 1:30:00 AM 1.72 35.096 0.148 7.18 3.07 13.37
12/15/2021 1:45:00 AM 1.69 35.042 0.148 7.18 3.09 13.39
12/15/2021 2:00:00 AM 1.67 35.006 0.148 7.17 3.13 13.39
12/15/2021 2:15:00 AM 1.65 34.97 0.149 7.18 3.07 13.39
12/15/2021 2:30:00 AM 1.63 34.934 0.148 7.18 2.98 13.41
12/15/2021 2:45:00 AM 1.61 34.898 0.149 7.17 3.07 13.41
12/15/2021 3:00:00 AM 1.6 34.88 0.149 7.18 3.04 13.42
12/15/2021 3:15:00 AM 1.58 34.844 0.149 7.18 3.08 13.42
12/15/2021 3:30:00 AM 1.57 34.826 0.149 7.15 2.97 13.43
12/15/2021 3:45:00 AM 1.55 34.79 0.148 7.16 3.14 13.43
12/15/2021 4:00:00 AM 1.53 34.754 0.149 7.18 2.95 13.44
12/15/2021 4:15:00 AM 1.52 34.736 0.149 7.17 2.99 13.44
12/15/2021 4:30:00 AM 1.5 34.7 0.149 7.19 3.09 13.44
12/15/2021 4:45:00 AM 1.48 34.664 0.149 7.17 3.04 13.45
12/15/2021 5:00:00 AM 1.47 34.646 0.149 7.19 3.19 13.46
12/15/2021 5:15:00 AM 1.45 34.61 0.149 7.2 3.1 13.47
12/15/2021 5:30:00 AM 1.43 34.574 0.149 7.19 3.13 13.47
12/15/2021 5:45:00 AM 1.41 34.538 0.149 7.18 3.15 13.48
12/15/2021 6:00:00 AM 1.39 34.502 0.149 7.16 3.06 13.48
12/15/2021 6:15:00 AM 1.38 34.484 0.149 7.17 3.09 13.49
12/15/2021 6:30:00 AM 1.37 34.466 0.149 7.15 3.17 13.49
12/15/2021 6:45:00 AM 1.37 34.466 0.149 7.17 3.08 13.5
12/15/2021 7:00:00 AM 1.35 34.43 0.149 7.14 3.06 13.51
12/15/2021 7:15:00 AM 1.34 34.412 0.149 7.14 3.15 13.51
12/15/2021 7:30:00 AM 1.33 34.394 0.149 7.14 3.25 13.52
12/15/2021 7:45:00 AM 1.33 34.394 0.149 7.15 3.22 13.53
12/15/2021 8:00:00 AM 1.33 34.394 0.149 7.16 3.27 13.58
12/15/2021 8:15:00 AM 1.33 34.394 0.149 7.17 3.04 13.66
12/15/2021 8:30:00 AM 1.34 34.412 0.149 7.19 3.15 13.76
12/15/2021 8:45:00 AM 1.36 34.448 0.149 7.24 3.05 13.91
12/15/2021 9:00:00 AM 1.39 34.502 0.149 7.27 3.15 14.05
12/15/2021 9:15:00 AM 1.43 34.574 0.129 7.32 2.96 14.2
12/15/2021 9:30:00 AM 1.47 34.646 0.149 7.34 3.02 14.33
12/15/2021 9:45:00 AM 1.53 34.754 0.149 7.39 3.01 14.44
12/15/2021 10:00:00 AM 1.59 34.862 0.148 7.4 3.08 14.51
12/15/2021 10:15:00 AM 1.67 35.006 0.148 7.45 2.91 14.58
12/15/2021 10:30:00 AM 1.76 35.168 0.141 7.48 2.91 14.63
12/15/2021 10:45:00 AM 1.84 35.312 0.148 7.5 2.98 14.67
12/15/2021 11:00:00 AM 1.91 35.438 0.148 7.55 2.99 14.68
12/15/2021 11:15:00 AM 1.98 35.564 0.148 7.55 2.9 14.66
12/15/2021 11:30:00 AM 2.04 35.672 0.148 7.56 3.11 14.63
12/15/2021 11:45:00 AM 2.09 35.762 0.129 7.55 2.89 14.59
12/15/2021 12:00:00 PM 2.14 35.852 0.148 7.56 3.05 14.55
12/15/2021 12:15:00 PM 2.18 35.924 0.148 7.57 2.97 14.48
12/15/2021 12:30:00 PM 2.23 36.014 0.136 7.55 2.86 14.41
12/15/2021 12:45:00 PM 2.27 36.086 0.148 7.55 2.99 14.37
12/15/2021 1:00:00 PM 2.3 36.14 0.148 7.55 3 14.35
12/15/2021 1:15:00 PM 2.33 36.194 0.148 7.52 3.01 14.29
12/15/2021 1:30:00 PM 2.35 36.23 0.148 7.5 2.92 14.2
12/15/2021 1:45:00 PM 2.37 36.266 0.147 7.47 2.98 14.11
12/15/2021 2:00:00 PM 2.39 36.302 0.147 7.46 3.03 14.02
12/15/2021 2:15:00 PM 2.41 36.338 0.147 7.44 2.96 13.96
12/15/2021 2:30:00 PM 2.43 36.374 0.146 7.43 3.1 13.89
12/15/2021 2:45:00 PM 2.46 36.428 0.144 7.39 3.01 13.82
12/15/2021 3:00:00 PM 2.48 36.464 0.146 7.38 3.23 13.77
12/15/2021 3:15:00 PM 2.51 36.518 0.146 7.39 3.38 13.73
12/15/2021 3:30:00 PM 2.54 36.572 0.146 7.37 3.45 13.7
12/15/2021 3:45:00 PM 2.56 36.608 0.145 7.37 3.79 13.67
12/15/2021 4:00:00 PM 2.58 36.644 0.146 7.34 4.24 13.62
12/15/2021 4:15:00 PM 2.61 36.698 0.146 7.32 4.79 13.55
12/15/2021 4:30:00 PM 2.63 36.734 0.146 7.32 5.25 13.47
12/15/2021 4:45:00 PM 2.66 36.788 0.146 7.3 4.82 13.39
12/15/2021 5:00:00 PM 2.68 36.824 0.147 7.29 4.59 13.32
12/15/2021 5:15:00 PM 2.71 36.878 0.148 7.27 4.47 13.26
12/15/2021 5:30:00 PM 2.75 36.95 0.148 7.26 4.73 13.2
12/15/2021 5:45:00 PM 2.78 37.004 0.148 7.24 4.7 13.16
12/15/2021 6:00:00 PM 2.8 37.04 0.148 7.23 4.36 13.13
12/15/2021 6:15:00 PM 2.83 37.094 0.148 7.23 4.38 13.09
12/15/2021 6:30:00 PM 2.85 37.13 0.148 7.23 4.32 13.07
12/15/2021 6:45:00 PM 2.87 37.166 0.148 7.23 4.63 13.04
12/15/2021 7:00:00 PM 2.89 37.202 0.149 7.22 4.78 13.02
12/15/2021 7:15:00 PM 2.91 37.238 0.148 7.2 4.47 13
12/15/2021 7:30:00 PM 2.94 37.292 0.134 7.2 4.65 12.98
12/15/2021 7:45:00 PM 2.95 37.31 0.148 7.19 5.06 12.97
12/15/2021 8:00:00 PM 2.96 37.328 0.148 7.2 5 12.96
12/15/2021 8:15:00 PM 2.98 37.364 0.148 7.2 5.09 12.95
12/15/2021 8:30:00 PM 3.01 37.418 0.149 7.21 5.26 12.94
12/15/2021 8:45:00 PM 3.05 37.49 0.15 7.19 5.9 12.92
12/15/2021 9:00:00 PM 3.08 37.544 0.15 7.2 6.49 12.9
12/15/2021 9:15:00 PM 3.11 37.598 0.15 7.19 6.69 12.89
12/15/2021 9:30:00 PM 3.14 37.652 0.149 7.19 7.21 12.88
12/15/2021 9:45:00 PM 3.15 37.67 0.149 7.19 7.34 12.87
12/15/2021 10:00:00 PM 3.16 37.688 0.149 7.17 7.88 12.85
12/15/2021 10:15:00 PM 3.18 37.724 0.149 7.17 8.23 12.84
12/15/2021 10:30:00 PM 3.19 37.742 0.15 7.19 8.81 12.83
12/15/2021 10:45:00 PM 3.2 37.76 0.15 7.19 9.43 12.81
12/15/2021 11:00:00 PM 3.22 37.796 0.15 7.18 9.8 12.8
12/15/2021 11:15:00 PM 3.24 37.832 0.149 7.18 11.09 12.79
12/15/2021 11:30:00 PM 3.25 37.85 0.149 7.17 11.77 12.78
12/15/2021 11:45:00 PM 3.26 37.868 0.148 7.16 13.41 12.77
12/16/2021 12:00:00 AM 3.28 37.904 0.147 7.17 12.64 12.76
12/16/2021 12:15:00 AM 3.29 37.922 0.147 7.15 13.27 12.75
12/16/2021 12:30:00 AM 3.29 37.922 0.146 7.17 13.9 12.74
12/16/2021 12:45:00 AM 3.31 37.958 0.146 7.16 15.42 12.73
12/16/2021 1:00:00 AM 3.31 37.958 0.146 7.16 14.35 12.72
12/16/2021 1:15:00 AM 3.31 37.958 0.145 7.14 14.2 12.72
12/16/2021 1:30:00 AM 3.31 37.958 0.145 7.14 13.95 12.71
12/16/2021 1:45:00 AM 3.3 37.94 0.145 7.15 13.97 12.71
12/16/2021 2:00:00 AM 3.3 37.94 0.144 7.14 13.88 12.71
12/16/2021 2:15:00 AM 3.3 37.94 0.144 7.14 13.2 12.7
12/16/2021 2:30:00 AM 3.31 37.958 0.143 7.14 12.84 12.7
12/16/2021 2:45:00 AM 3.31 37.958 0.142 7.14 12.44 12.7
12/16/2021 3:00:00 AM 3.32 37.976 0.142 7.14 11.61 12.7
12/16/2021 3:15:00 AM 3.34 38.012 0.141 7.13 12.67 12.69
12/16/2021 3:30:00 AM 3.35 38.03 0.14 7.14 12.2 12.68
12/16/2021 3:45:00 AM 3.36 38.048 0.14 7.14 13.06 12.68
12/16/2021 4:00:00 AM 3.38 38.084 0.139 7.12 11.87 12.67
12/16/2021 4:15:00 AM 3.39 38.102 0.138 7.12 13 12.67
12/16/2021 4:30:00 AM 3.4 38.12 0.138 7.11 11.01 12.66
12/16/2021 4:45:00 AM 3.42 38.156 0.138 7.1 12.45 12.65
12/16/2021 5:00:00 AM 3.43 38.174 0.137 7.12 12.23 12.65
12/16/2021 5:15:00 AM 3.45 38.21 0.137 7.1 11.71 12.64
12/16/2021 5:30:00 AM 3.46 38.228 0.137 7.11 11.98 12.64
12/16/2021 5:45:00 AM 3.47 38.246 0.137 7.1 11.39 12.63
12/16/2021 6:00:00 AM 3.48 38.264 0.137 7.09 11.26 12.62
12/16/2021 6:15:00 AM 3.49 38.282 0.137 7.11 11.16 12.61
12/16/2021 6:30:00 AM 3.5 38.3 0.137 7.1 11.76 12.61
12/16/2021 6:45:00 AM 3.51 38.318 0.137 7.11 10.63 12.6
12/16/2021 7:00:00 AM 3.51 38.318 0.13 7.1 10.53 12.6
12/16/2021 7:15:00 AM 3.52 38.336 0.137 7.07 10.29 12.6
12/16/2021 7:30:00 AM 3.53 38.354 0.137 7.08 9.86 12.59
12/16/2021 7:45:00 AM 3.53 38.354 0.136 7.06 10.61 12.59
12/16/2021 8:00:00 AM 3.53 38.354 0.137 7.11 9.48 12.61
12/16/2021 8:15:00 AM 3.54 38.372 0.137 7.11 8.94 12.65
12/16/2021 8:30:00 AM 3.55 38.39 0.137 7.13 8.7 12.71
12/16/2021 8:45:00 AM 3.57 38.426 0.137 7.14 8.64 12.8
12/16/2021 9:00:00 AM 3.58 38.444 0.137 7.17 8.51 12.89
12/16/2021 9:15:00 AM 3.61 38.498 0.137 7.19 8.22 12.98
12/16/2021 9:30:00 AM 3.67 38.606 0.137 7.23 8.03 13.09
12/16/2021 9:45:00 AM 3.74 38.732 0.137 7.29 7.8 13.2
12/16/2021 10:00:00 AM 3.83 38.894 0.137 7.29 7.87 13.29
12/16/2021 10:15:00 AM 3.93 39.074 0.137 7.33 7.14 13.36
12/16/2021 10:30:00 AM 4.03 39.254 0.137 7.35 7.48 13.41
12/16/2021 10:45:00 AM 4.13 39.434 0.137 7.39 6.94 13.44
12/16/2021 11:00:00 AM 4.24 39.632 0.137 7.42 6.92 13.46
12/16/2021 11:15:00 AM 4.33 39.794 0.137 7.42 7.33 13.47
12/16/2021 11:30:00 AM 4.43 39.974 0.137 7.46 6.47 13.46
12/16/2021 11:45:00 AM 4.55 40.19 0.137 7.48 6.46 13.47
12/16/2021 12:00:00 PM 4.69 40.442 0.137 7.49 6.5 13.45
12/16/2021 12:15:00 PM 4.84 40.712 0.138 7.53 6.09 13.44
12/16/2021 12:30:00 PM 4.98 40.964 0.138 7.55 6.23 13.45
12/16/2021 12:45:00 PM 5.11 41.198 0.138 7.57 6.01 13.44
12/16/2021 1:00:00 PM 5.23 41.414 0.138 7.6 6.47 13.41
12/16/2021 1:15:00 PM 5.34 41.612 0.138 7.6 5.75 13.39
12/16/2021 1:30:00 PM 5.46 41.828 0.138 7.62 5.8 13.35
12/16/2021 1:45:00 PM 5.54 41.972 0.138 7.63 6.05 13.3
12/16/2021 2:00:00 PM 5.62 42.116 0.138 7.61 5.81 13.22
12/16/2021 2:15:00 PM 5.69 42.242 0.138 7.6 6.03 13.17
12/16/2021 2:30:00 PM 5.76 42.368 0.138 7.59 5.74 13.12
12/16/2021 2:45:00 PM 5.81 42.458 0.138 7.6 5.61 13.07
12/16/2021 3:00:00 PM 5.85 42.53 0.138 7.58 6.06 13
12/16/2021 3:15:00 PM 5.88 42.584 0.138 7.57 7.11 12.95
12/16/2021 3:30:00 PM 5.91 42.638 0.138 7.54 8.14 12.88
12/16/2021 3:45:00 PM 5.92 42.656 0.138 7.5 7.49 12.79
12/16/2021 4:00:00 PM 5.92 42.656 0.138 7.45 7.19 12.69
12/16/2021 4:15:00 PM 5.91 42.638 0.138 7.42 6.54 12.58
12/16/2021 4:30:00 PM 5.9 42.62 0.139 7.38 6.87 12.45
12/16/2021 4:45:00 PM 5.89 42.602 0.139 7.32 9.73 12.32
12/16/2021 5:00:00 PM 5.88 42.584 0.139 7.28 7.17 12.2
12/16/2021 5:15:00 PM 5.85 42.53 0.139 7.24 6.69 12.11
12/16/2021 5:30:00 PM 5.84 42.512 0.139 7.22 6.07 12.05
12/16/2021 5:45:00 PM 5.85 42.53 0.139 7.22 5.69 12
12/16/2021 6:00:00 PM 5.86 42.548 0.139 7.21 5.47 11.95
12/16/2021 6:15:00 PM 5.88 42.584 0.139 7.19 5.36 11.91
12/16/2021 6:30:00 PM 5.91 42.638 0.139 7.17 5.15 11.88
12/16/2021 6:45:00 PM 5.93 42.674 0.139 7.17 5 11.85
12/16/2021 7:00:00 PM 5.95 42.71 0.137 7.17 5.2 11.81
12/16/2021 7:15:00 PM 5.96 42.728 0.139 7.16 5.51 11.79
12/16/2021 7:30:00 PM 5.97 42.746 0.139 7.15 6.21 11.77
12/16/2021 7:45:00 PM 5.98 42.764 0.139 7.14 6.15 11.75
12/16/2021 8:00:00 PM 5.99 42.782 0.139 7.15 6.1 11.73
12/16/2021 8:15:00 PM 6.02 42.836 0.14 7.15 5.43 11.71
12/16/2021 8:30:00 PM 6.06 42.908 0.14 7.15 5.18 11.69
12/16/2021 8:45:00 PM 6.1 42.98 0.138 7.13 5.25 11.67
12/16/2021 9:00:00 PM 6.17 43.106 0.139 7.13 5.19 11.64
12/16/2021 9:15:00 PM 6.25 43.25 0.139 7.14 4.71 11.62
12/16/2021 9:30:00 PM 6.35 43.43 0.139 7.13 5.06 11.59
12/16/2021 9:45:00 PM 6.45 43.61 0.139 7.15 4.98 11.56
12/16/2021 10:00:00 PM 6.53 43.754 0.139 7.13 4.88 11.54
12/16/2021 10:15:00 PM 6.6 43.88 0.139 7.13 5.15 11.51
12/16/2021 10:30:00 PM 6.65 43.97 0.139 7.13 4.87 11.49
12/16/2021 10:45:00 PM 6.7 44.06 0.139 7.13 4.89 11.47
12/16/2021 11:00:00 PM 6.73 44.114 0.139 7.12 4.82 11.46
12/16/2021 11:15:00 PM 6.77 44.186 0.139 7.13 4.78 11.44
12/16/2021 11:30:00 PM 6.79 44.222 0.139 7.13 4.76 11.43
12/16/2021 11:45:00 PM 6.81 44.258 0.139 7.12 4.87 11.42
12/17/2021 12:00:00 AM 6.82 44.276 0.139 7.13 4.44 11.41
12/17/2021 12:15:00 AM 6.81 44.258 0.139 7.13 4.7 11.4
12/17/2021 12:30:00 AM 6.8 44.24 0.139 7.13 4.64 11.4
12/17/2021 12:45:00 AM 6.78 44.204 0.139 7.13 4.74 11.39
12/17/2021 1:00:00 AM 6.77 44.186 0.139 7.13 4.87 11.38
12/17/2021 1:15:00 AM 6.74 44.132 0.139 7.13 4.73 11.39
12/17/2021 1:30:00 AM 6.71 44.078 0.139 7.14 4.79 11.39
12/17/2021 1:45:00 AM 6.68 44.024 0.139 7.12 4.71 11.39
12/17/2021 2:00:00 AM 6.63 43.934 0.139 7.12 4.87 11.41
12/17/2021 2:15:00 AM 6.59 43.862 0.139 7.13 4.73 11.42
12/17/2021 2:30:00 AM 6.54 43.772 0.139 7.12 4.79 11.43
12/17/2021 2:45:00 AM 6.49 43.682 0.139 7.13 4.66 11.45
12/17/2021 3:00:00 AM 6.43 43.574 0.139 7.13 4.68 11.46
12/17/2021 3:15:00 AM 6.38 43.484 0.139 7.12 4.76 11.48
12/17/2021 3:30:00 AM 6.31 43.358 0.139 7.12 4.66 11.5
12/17/2021 3:45:00 AM 6.25 43.25 0.139 7.12 4.65 11.52
12/17/2021 4:00:00 AM 6.18 43.124 0.14 7.12 4.97 11.53
12/17/2021 4:15:00 AM 6.12 43.016 0.139 7.13 5.32 11.56
12/17/2021 4:30:00 AM 6.06 42.908 0.139 7.13 5.05 11.57
12/17/2021 4:45:00 AM 5.99 42.782 0.14 7.14 5.03 11.59
12/17/2021 5:00:00 AM 5.92 42.656 0.14 7.14 4.98 11.62
12/17/2021 5:15:00 AM 5.85 42.53 0.139 7.13 4.94 11.64
12/17/2021 5:30:00 AM 5.79 42.422 0.139 7.11 4.87 11.67
12/17/2021 5:45:00 AM 5.72 42.296 0.139 7.12 4.77 11.69
12/17/2021 6:00:00 AM 5.66 42.188 0.135 7.12 5.05 11.7
12/17/2021 6:15:00 AM 5.59 42.062 0.139 7.12 5.02 11.73
12/17/2021 6:30:00 AM 5.53 41.954 0.139 7.12 4.87 11.75
12/17/2021 6:45:00 AM 5.47 41.846 0.14 7.14 5.05 11.77
12/17/2021 7:00:00 AM 5.41 41.738 0.139 7.13 4.99 11.8
12/17/2021 7:15:00 AM 5.35 41.63 0.139 7.11 4.93 11.82
12/17/2021 7:30:00 AM 5.3 41.54 0.14 7.14 4.75 11.84
12/17/2021 7:45:00 AM 5.24 41.432 0.14 7.14 4.98 11.87
12/17/2021 8:00:00 AM 5.19 41.342 0.14 7.16 4.7 11.92
12/17/2021 8:15:00 AM 5.15 41.27 0.139 7.16 4.68 12.02
12/17/2021 8:30:00 AM 5.11 41.198 0.139 7.2 4.85 12.13
12/17/2021 8:45:00 AM 5.09 41.162 0.139 7.22 4.83 12.26
12/17/2021 9:00:00 AM 5.08 41.144 0.139 7.25 4.78 12.4
12/17/2021 9:15:00 AM 5.08 41.144 0.139 7.29 10.03 12.52
12/17/2021 9:30:00 AM 5.1 41.18 0.139 7.31 4.8 12.67
12/17/2021 9:45:00 AM 5.13 41.234 0.139 7.36 4.38 12.8
12/17/2021 10:00:00 AM 5.16 41.288 0.139 7.37 4.54 12.91
12/17/2021 10:15:00 AM 5.2 41.36 0.139 7.44 4.66 13
12/17/2021 10:30:00 AM 5.25 41.45 0.138 7.47 4.38 13.07
12/17/2021 10:45:00 AM 5.29 41.522 0.138 7.49 4.54 13.12
12/17/2021 11:00:00 AM 5.33 41.594 0.138 7.51 4.65 13.17
12/17/2021 11:15:00 AM 5.37 41.666 0.138 7.54 4.52 13.2
12/17/2021 11:30:00 AM 5.41 41.738 0.138 7.56 4.35 13.22
12/17/2021 11:45:00 AM 5.45 41.81 0.138 7.57 4.44 13.23
12/17/2021 12:00:00 PM 5.48 41.864 0.138 7.58 4.35 13.24
12/17/2021 12:15:00 PM 5.52 41.936 0.138 7.59 4.4 13.23
12/17/2021 12:30:00 PM 5.54 41.972 0.138 7.61 4.21 13.23
12/17/2021 12:45:00 PM 5.56 42.008 0.139 7.62 4.27 13.22
12/17/2021 1:00:00 PM 5.58 42.044 0.138 7.62 4.45 13.2
12/17/2021 1:15:00 PM 5.6 42.08 0.138 7.61 4.28 13.19
12/17/2021 1:30:00 PM 5.62 42.116 0.138 7.61 4.38 13.16
12/17/2021 1:45:00 PM 5.63 42.134 0.138 7.58 4.13 13.14
12/17/2021 2:00:00 PM 5.62 42.116 0.138 7.58 4.26 13.12
12/17/2021 2:15:00 PM 5.62 42.116 0.138 7.58 4.36 13.09
12/17/2021 2:30:00 PM 5.62 42.116 0.138 7.57 4.19 13.06
12/17/2021 2:45:00 PM 5.61 42.098 0.138 7.57 4.46 13.03
12/17/2021 3:00:00 PM 5.61 42.098 0.138 7.55 4.11 13
12/17/2021 3:15:00 PM 5.62 42.116 0.138 7.56 4.25 12.99
12/17/2021 3:30:00 PM 5.62 42.116 0.138 7.55 4.02 12.99
12/17/2021 3:45:00 PM 5.62 42.116 0.138 7.54 4.12 12.97
12/17/2021 4:00:00 PM 5.6 42.08 0.138 7.52 4.09 12.92
12/17/2021 4:15:00 PM 5.57 42.026 0.138 7.47 4.23 12.82
12/17/2021 4:30:00 PM 5.53 41.954 0.138 7.42 4.37 12.71
12/17/2021 4:45:00 PM 5.48 41.864 0.138 7.38 4.23 12.59
12/17/2021 5:00:00 PM 5.43 41.774 0.138 7.33 4.19 12.48
12/17/2021 5:15:00 PM 5.38 41.684 0.139 7.27 4.04 12.39
12/17/2021 5:30:00 PM 5.32 41.576 0.139 7.26 4.44 12.32
12/17/2021 5:45:00 PM 5.25 41.45 0.139 7.25 4.2 12.27
12/17/2021 6:00:00 PM 5.19 41.342 0.139 7.23 4.12 12.24
12/17/2021 6:15:00 PM 5.13 41.234 0.139 7.2 4.12 12.22
12/17/2021 6:30:00 PM 5.07 41.126 0.139 7.2 4.01 12.21
12/17/2021 6:45:00 PM 5 41 0.139 7.18 4.19 12.2
12/17/2021 7:00:00 PM 4.93 40.874 0.139 7.17 3.87 12.2
12/17/2021 7:15:00 PM 4.86 40.748 0.139 7.17 4.05 12.2
12/17/2021 7:30:00 PM 4.8 40.64 0.139 7.17 3.99 12.21
12/17/2021 7:45:00 PM 4.74 40.532 0.139 7.16 3.85 12.22
12/17/2021 8:00:00 PM 4.67 40.406 0.139 7.14 3.8 12.23
12/17/2021 8:15:00 PM 4.61 40.298 0.139 7.16 3.92 12.23
12/17/2021 8:30:00 PM 4.55 40.19 0.139 7.15 3.77 12.24
12/17/2021 8:45:00 PM 4.5 40.1 0.139 7.14 3.99 12.25
12/17/2021 9:00:00 PM 4.45 40.01 0.139 7.14 3.94 12.26
12/17/2021 9:15:00 PM 4.41 39.938 0.139 7.15 3.96 12.27
12/17/2021 9:30:00 PM 4.37 39.866 0.139 7.13 3.95 12.28
12/17/2021 9:45:00 PM 4.33 39.794 0.139 7.15 4.15 12.29
12/17/2021 10:00:00 PM 4.3 39.74 0.139 7.14 4.09 12.29
12/17/2021 10:15:00 PM 4.27 39.686 0.14 7.12 3.97 12.3
12/17/2021 10:30:00 PM 4.24 39.632 0.14 7.15 4.09 12.31
12/17/2021 10:45:00 PM 4.22 39.596 0.14 7.14 4.12 12.32
12/17/2021 11:00:00 PM 4.21 39.578 0.139 7.13 4.27 12.32
12/17/2021 11:15:00 PM 4.19 39.542 0.139 7.13 4.12 12.33
12/17/2021 11:30:00 PM 4.18 39.524 0.139 7.14 4.16 12.33
12/17/2021 11:45:00 PM 4.16 39.488 0.14 7.13 4.03 12.33
12/18/2021 12:00:00 AM 4.15 39.47 0.14 7.11 3.94 12.34
12/18/2021 12:15:00 AM 4.13 39.434 0.14 7.11 4.01 12.34
12/18/2021 12:30:00 AM 4.12 39.416 0.14 7.11 3.88 12.34
12/18/2021 12:45:00 AM 4.11 39.398 0.14 7.13 3.78 12.35
12/18/2021 1:00:00 AM 4.1 39.38 0.14 7.13 3.88 12.35
12/18/2021 1:15:00 AM 4.08 39.344 0.14 7.12 4.06 12.35
12/18/2021 1:30:00 AM 4.08 39.344 0.14 7.13 3.72 12.36
12/18/2021 1:45:00 AM 4.06 39.308 0.14 7.12 4.17 12.36
12/18/2021 2:00:00 AM 4.06 39.308 0.14 7.11 4.26 12.36
12/18/2021 2:15:00 AM 4.05 39.29 0.14 7.11 4.21 12.36
12/18/2021 2:30:00 AM 4.04 39.272 0.14 7.11 4.1 12.37
12/18/2021 2:45:00 AM 4.03 39.254 0.14 7.12 3.96 12.37
12/18/2021 3:00:00 AM 4.03 39.254 0.14 7.12 3.83 12.37
12/18/2021 3:15:00 AM 4.03 39.254 0.14 7.13 3.84 12.38
12/18/2021 3:30:00 AM 4.02 39.236 0.14 7.12 3.81 12.38
12/18/2021 3:45:00 AM 4.02 39.236 0.14 7.13 3.72 12.38
12/18/2021 4:00:00 AM 4.02 39.236 0.14 7.12 3.72 12.38
12/18/2021 4:15:00 AM 4.02 39.236 0.14 7.1 3.86 12.38
12/18/2021 4:30:00 AM 4.02 39.236 0.14 7.1 3.7 12.38
12/18/2021 4:45:00 AM 4.02 39.236 0.141 7.11 3.61 12.38
12/18/2021 5:00:00 AM 4.02 39.236 0.14 7.12 3.57 12.38
12/18/2021 5:15:00 AM 4.01 39.218 0.14 7.11 3.7 12.39
12/18/2021 5:30:00 AM 4.01 39.218 0.14 7.11 3.52 12.39
12/18/2021 5:45:00 AM 4 39.2 0.141 7.13 3.63 12.39
12/18/2021 6:00:00 AM 3.99 39.182 0.141 7.13 3.62 12.39
12/18/2021 6:15:00 AM 3.99 39.182 0.141 7.12 3.63 12.39
12/18/2021 6:30:00 AM 3.97 39.146 0.141 7.1 3.56 12.4
12/18/2021 6:45:00 AM 3.96 39.128 0.141 7.12 3.58 12.4
12/18/2021 7:00:00 AM 3.95 39.11 0.141 7.12 3.69 12.41
12/18/2021 7:15:00 AM 3.94 39.092 0.135 7.12 3.52 12.41
12/18/2021 7:30:00 AM 3.93 39.074 0.141 7.11 3.56 12.42
12/18/2021 7:45:00 AM 3.91 39.038 0.141 7.11 3.52 12.43
12/18/2021 8:00:00 AM 3.9 39.02 0.141 7.14 3.54 12.45
12/18/2021 8:15:00 AM 3.9 39.02 0.141 7.15 3.52 12.49
12/18/2021 8:30:00 AM 3.89 39.002 0.141 7.16 3.54 12.57
12/18/2021 8:45:00 AM 3.89 39.002 0.141 7.18 3.6 12.65
12/18/2021 9:00:00 AM 3.88 38.984 0.141 7.19 3.72 12.76
12/18/2021 9:15:00 AM 3.88 38.984 0.141 7.21 3.37 12.84
12/18/2021 9:30:00 AM 3.87 38.966 0.14 7.25 3.6 12.89
12/18/2021 9:45:00 AM 3.87 38.966 0.14 7.26 3.49 12.93
12/18/2021 10:00:00 AM 3.86 38.948 0.14 7.28 3.58 12.99
12/18/2021 10:15:00 AM 3.85 38.93 0.14 7.3 3.5 13.03
12/18/2021 10:30:00 AM 3.85 38.93 0.14 7.3 3.46 13.07
12/18/2021 10:45:00 AM 3.85 38.93 0.14 7.32 3.64 13.11
12/18/2021 11:00:00 AM 3.85 38.93 0.14 7.33 3.61 13.15
12/18/2021 11:15:00 AM 3.85 38.93 0.14 7.33 3.72 13.18
12/18/2021 11:30:00 AM 3.86 38.948 0.14 7.36 3.81 13.23
12/18/2021 11:45:00 AM 3.86 38.948 0.14 7.36 3.68 13.27
12/18/2021 12:00:00 PM 3.87 38.966 0.121 7.4 3.71 13.3
12/18/2021 12:15:00 PM 3.89 39.002 0.14 7.41 3.88 13.33
12/18/2021 12:30:00 PM 3.9 39.02 0.139 7.43 3.88 13.37
12/18/2021 12:45:00 PM 3.91 39.038 0.14 7.44 3.73 13.39
12/18/2021 1:00:00 PM 3.92 39.056 0.139 7.44 3.78 13.37
12/18/2021 1:15:00 PM 3.93 39.074 0.14 7.42 3.81 13.31
12/18/2021 1:30:00 PM 3.93 39.074 0.14 7.41 3.92 13.25
12/18/2021 1:45:00 PM 3.94 39.092 0.14 7.39 3.91 13.19
12/18/2021 2:00:00 PM 3.95 39.11 0.14 7.4 3.82 13.16
12/18/2021 2:15:00 PM 3.96 39.128 0.14 7.39 4.06 13.13
12/18/2021 2:30:00 PM 3.98 39.164 0.14 7.39 4.07 13.12
12/18/2021 2:45:00 PM 3.99 39.182 0.14 7.38 4.22 13.08
12/18/2021 3:00:00 PM 4.01 39.218 0.14 7.35 4.26 13.02
12/18/2021 3:15:00 PM 4.01 39.218 0.14 7.34 4.19 12.94
12/18/2021 3:30:00 PM 4.02 39.236 0.14 7.31 4.26 12.87
12/18/2021 3:45:00 PM 4.03 39.254 0.14 7.29 4.2 12.81
12/18/2021 4:00:00 PM 4.04 39.272 0.14 7.27 4.35 12.75
12/18/2021 4:15:00 PM 4.04 39.272 0.141 7.27 4.43 12.69
12/18/2021 4:30:00 PM 4.05 39.29 0.14 7.24 4.57 12.63
12/18/2021 4:45:00 PM 4.05 39.29 0.142 7.23 5.03 12.58
12/18/2021 5:00:00 PM 4.05 39.29 0.142 7.21 4.82 12.54
12/18/2021 5:15:00 PM 4.05 39.29 0.142 7.19 4.95 12.51
12/18/2021 5:30:00 PM 4.06 39.308 0.142 7.2 5.33 12.48
12/18/2021 5:45:00 PM 4.06 39.308 0.142 7.2 5.72 12.45
12/18/2021 6:00:00 PM 4.07 39.326 0.142 7.18 5.64 12.44
12/18/2021 6:15:00 PM 4.07 39.326 0.143 7.2 5.83 12.42
12/18/2021 6:30:00 PM 4.08 39.344 0.143 7.17 5.98 12.4
12/18/2021 6:45:00 PM 4.09 39.362 0.144 7.16 6.4 12.39
12/18/2021 7:00:00 PM 4.1 39.38 0.144 7.18 6.74 12.38
12/18/2021 7:15:00 PM 4.12 39.416 0.144 7.17 7.45 12.37
12/18/2021 7:30:00 PM 4.12 39.416 0.145 7.16 7.39 12.36
12/18/2021 7:45:00 PM 4.13 39.434 0.144 7.18 8.05 12.35
12/18/2021 8:00:00 PM 4.14 39.452 0.144 7.16 7.48 12.34
12/18/2021 8:15:00 PM 4.15 39.47 0.144 7.16 7.33 12.33
12/18/2021 8:30:00 PM 4.16 39.488 0.143 7.14 8.03 12.33
12/18/2021 8:45:00 PM 4.16 39.488 0.143 7.16 8.34 12.32
12/18/2021 9:00:00 PM 4.17 39.506 0.142 7.17 8.58 12.32
12/18/2021 9:15:00 PM 4.18 39.524 0.141 7.16 8.76 12.31
12/18/2021 9:30:00 PM 4.18 39.524 0.141 7.14 9.53 12.31
12/18/2021 9:45:00 PM 4.19 39.542 0.14 7.13 9.21 12.31
12/18/2021 10:00:00 PM 4.19 39.542 0.14 7.13 9.62 12.3
12/18/2021 10:15:00 PM 4.2 39.56 0.139 7.14 9.39 12.3
12/18/2021 10:30:00 PM 4.2 39.56 0.139 7.12 9.42 12.3
12/18/2021 10:45:00 PM 4.21 39.578 0.138 7.12 10.12 12.29
12/18/2021 11:00:00 PM 4.21 39.578 0.138 7.12 10.15 12.29
12/18/2021 11:15:00 PM 4.2 39.56 0.137 7.11 9.25 12.3
12/18/2021 11:30:00 PM 4.2 39.56 0.136 7.13 9.09 12.3
12/18/2021 11:45:00 PM 4.19 39.542 0.136 7.13 9.6 12.3
12/19/2021 12:00:00 AM 4.18 39.524 0.136 7.12 9.28 12.3
12/19/2021 12:15:00 AM 4.16 39.488 0.135 7.12 9.66 12.3
12/19/2021 12:30:00 AM 4.14 39.452 0.135 7.12 9.27 12.31
12/19/2021 12:45:00 AM 4.12 39.416 0.134 7.13 8.91 12.32
12/19/2021 1:00:00 AM 4.1 39.38 0.134 7.1 9.36 12.33
12/19/2021 1:15:00 AM 4.08 39.344 0.133 7.09 9.88 12.33
12/19/2021 1:30:00 AM 4.06 39.308 0.133 7.09 9.66 12.34
12/19/2021 1:45:00 AM 4.04 39.272 0.133 7.09 10.62 12.35
12/19/2021 2:00:00 AM 4.02 39.236 0.133 7.09 10.88 12.36
12/19/2021 2:15:00 AM 4 39.2 0.133 7.08 10.68 12.37
12/19/2021 2:30:00 AM 3.98 39.164 0.132 7.1 10.72 12.38
12/19/2021 2:45:00 AM 3.94 39.092 0.132 7.08 10.51 12.39
12/19/2021 3:00:00 AM 3.91 39.038 0.132 7.08 12.35 12.4
12/19/2021 3:15:00 AM 3.87 38.966 0.133 7.09 11.58 12.42
12/19/2021 3:30:00 AM 3.84 38.912 0.133 7.11 11.33 12.43
12/19/2021 3:45:00 AM 3.82 38.876 0.133 7.11 11.43 12.45
12/19/2021 4:00:00 AM 3.8 38.84 0.132 7.11 11.53 12.46
12/19/2021 4:15:00 AM 3.78 38.804 0.132 7.09 11.97 12.47
12/19/2021 4:30:00 AM 3.75 38.75 0.133 7.09 11.74 12.48
12/19/2021 4:45:00 AM 3.72 38.696 0.133 7.07 11.36 12.49
12/19/2021 5:00:00 AM 3.69 38.642 0.132 7.11 11.61 12.5
12/19/2021 5:15:00 AM 3.65 38.57 0.132 7.11 11.31 12.51
12/19/2021 5:30:00 AM 3.63 38.534 0.132 7.13 11.29 12.53
12/19/2021 5:45:00 AM 3.6 38.48 0.132 7.11 11.33 12.54
12/19/2021 6:00:00 AM 3.56 38.408 0.132 7.11 11.05 12.55
12/19/2021 6:15:00 AM 3.53 38.354 0.132 7.12 11.01 12.57
12/19/2021 6:30:00 AM 3.49 38.282 0.132 7.13 11.66 12.58
12/19/2021 6:45:00 AM 3.45 38.21 0.132 7.13 10.79 12.59
12/19/2021 7:00:00 AM 3.41 38.138 0.132 7.13 10.92 12.61
12/19/2021 7:15:00 AM 3.38 38.084 0.132 7.12 10.5 12.63
12/19/2021 7:30:00 AM 3.34 38.012 0.131 7.13 10.25 12.65
12/19/2021 7:45:00 AM 3.3 37.94 0.131 7.1 9.92 12.66
12/19/2021 8:00:00 AM 3.27 37.886 0.131 7.11 10.04 12.68
12/19/2021 8:15:00 AM 3.24 37.832 0.131 7.11 9.92 12.72
12/19/2021 8:30:00 AM 3.2 37.76 0.131 7.14 9.2 12.76
12/19/2021 8:45:00 AM 3.17 37.706 0.131 7.14 10.48 12.81
12/19/2021 9:00:00 AM 3.15 37.67 0.116 7.15 9.37 12.88
12/19/2021 9:15:00 AM 3.13 37.634 0.13 7.16 9.62 12.99
12/19/2021 9:30:00 AM 3.11 37.598 0.13 7.17 9.05 13.1
12/19/2021 9:45:00 AM 3.09 37.562 0.13 7.2 9.27 13.16
12/19/2021 10:00:00 AM 3.07 37.526 0.13 7.22 9.25 13.2
12/19/2021 10:15:00 AM 3.05 37.49 0.129 7.22 8.64 13.25
12/19/2021 10:30:00 AM 3.05 37.49 0.129 7.23 8.5 13.32
12/19/2021 10:45:00 AM 3.07 37.526 0.129 7.27 8.92 13.41
12/19/2021 11:00:00 AM 3.07 37.526 0.129 7.29 8.38 13.48
12/19/2021 11:15:00 AM 3.08 37.544 0.129 7.31 8.12 13.53
12/19/2021 11:30:00 AM 3.1 37.58 0.127 7.32 7.86 13.59
12/19/2021 11:45:00 AM 3.13 37.634 0.129 7.36 7.81 13.64
12/19/2021 12:00:00 PM 3.16 37.688 0.129 7.36 7.46 13.68
12/19/2021 12:15:00 PM 3.19 37.742 0.12 7.39 7.56 13.71
12/19/2021 12:30:00 PM 3.22 37.796 0.129 7.42 7.46 13.74
12/19/2021 12:45:00 PM 3.24 37.832 0.121 7.43 7.31 13.75
12/19/2021 1:00:00 PM 3.26 37.868 0.128 7.44 7.67 13.76
12/19/2021 1:15:00 PM 3.27 37.886 0.129 7.44 7.43 13.77
12/19/2021 1:30:00 PM 3.29 37.922 0.128 7.44 6.87 13.77
12/19/2021 1:45:00 PM 3.31 37.958 0.128 7.43 6.88 13.77
12/19/2021 2:00:00 PM 3.33 37.994 0.129 7.45 7.04 13.78
12/19/2021 2:15:00 PM 3.34 38.012 0.128 7.46 7.21 13.77
12/19/2021 2:30:00 PM 3.34 38.012 0.128 7.45 6.83 13.76
12/19/2021 2:45:00 PM 3.33 37.994 0.129 7.43 6.84 13.73
12/19/2021 3:00:00 PM 3.33 37.994 0.128 7.43 6.73 13.69
12/19/2021 3:15:00 PM 3.32 37.976 0.129 7.42 7.09 13.65
12/19/2021 3:30:00 PM 3.31 37.958 0.129 7.41 6.51 13.6
12/19/2021 3:45:00 PM 3.29 37.922 0.129 7.37 6.39 13.54
12/19/2021 4:00:00 PM 3.26 37.868 0.128 7.36 6.5 13.49
12/19/2021 4:15:00 PM 3.22 37.796 0.129 7.33 6.3 13.43
12/19/2021 4:30:00 PM 3.18 37.724 0.129 7.31 6.33 13.35
12/19/2021 4:45:00 PM 3.15 37.67 0.129 7.28 6.54 13.27
12/19/2021 5:00:00 PM 3.1 37.58 0.129 7.26 6.6 13.2
12/19/2021 5:15:00 PM 3.05 37.49 0.129 7.24 6.65 13.15
12/19/2021 5:30:00 PM 2.98 37.364 0.129 7.21 6.19 13.1
12/19/2021 5:45:00 PM 2.91 37.238 0.129 7.2 6.29 13.08
12/19/2021 6:00:00 PM 2.84 37.112 0.129 7.18 6.42 13.07
12/19/2021 6:15:00 PM 2.79 37.022 0.129 7.17 6.33 13.05
12/19/2021 6:30:00 PM 2.74 36.932 0.129 7.15 6.26 13.05
12/19/2021 6:45:00 PM 2.7 36.86 0.129 7.14 6.57 13.05
12/19/2021 7:00:00 PM 2.67 36.806 0.122 7.16 6.09 13.05
12/19/2021 7:15:00 PM 2.64 36.752 0.129 7.14 6.05 13.04
12/19/2021 7:30:00 PM 2.61 36.698 0.129 7.15 6.31 13.04
12/19/2021 7:45:00 PM 2.58 36.644 0.129 7.14 6.33 13.04
12/19/2021 8:00:00 PM 2.54 36.572 0.122 7.14 5.92 13.05
12/19/2021 8:15:00 PM 2.5 36.5 0.121 7.13 6.16 13.05
12/19/2021 8:30:00 PM 2.46 36.428 0.121 7.13 5.94 13.06
12/19/2021 8:45:00 PM 2.43 36.374 0.129 7.13 6.06 13.07
12/19/2021 9:00:00 PM 2.4 36.32 0.129 7.12 6.03 13.08
12/19/2021 9:15:00 PM 2.38 36.284 0.121 7.11 5.69 13.08
12/19/2021 9:30:00 PM 2.36 36.248 0.121 7.12 5.78 13.09
12/19/2021 9:45:00 PM 2.33 36.194 0.129 7.12 6.08 13.1
12/19/2021 10:00:00 PM 2.31 36.158 0.122 7.1 6.26 13.1
12/19/2021 10:15:00 PM 2.27 36.086 0.121 7.1 5.89 13.11
12/19/2021 10:30:00 PM 2.23 36.014 0.121 7.11 5.71 13.13
12/19/2021 10:45:00 PM 2.19 35.942 0.121 7.11 6.23 13.14
12/19/2021 11:00:00 PM 2.15 35.87 0.121 7.1 5.66 13.15
12/19/2021 11:15:00 PM 2.11 35.798 0.122 7.1 5.91 13.16
12/19/2021 11:30:00 PM 2.08 35.744 0.123 7.11 5.48 13.17
12/19/2021 11:45:00 PM 2.05 35.69 0.122 7.1 5.78 13.18
12/20/2021 12:00:00 AM 2.01 35.618 0.122 7.1 5.59 13.2
12/20/2021 12:15:00 AM 1.97 35.546 0.122 7.1 5.91 13.21
12/20/2021 12:30:00 AM 1.93 35.474 0.122 7.11 5.7 13.23
12/20/2021 12:45:00 AM 1.89 35.402 0.122 7.1 5.69 13.24
12/20/2021 1:00:00 AM 1.84 35.312 0.122 7.08 5.33 13.25
12/20/2021 1:15:00 AM 1.79 35.222 0.131 7.09 5.56 13.27
12/20/2021 1:30:00 AM 1.73 35.114 0.122 7.1 5.29 13.28
12/20/2021 1:45:00 AM 1.68 35.024 0.122 7.1 5.3 13.3
12/20/2021 2:00:00 AM 1.62 34.916 0.122 7.09 5.4 13.32
12/20/2021 2:15:00 AM 1.57 34.826 0.121 7.1 5.49 13.34
12/20/2021 2:30:00 AM 1.52 34.736 0.122 7.08 5.39 13.35
12/20/2021 2:45:00 AM 1.48 34.664 0.123 7.09 5.34 13.37
12/20/2021 3:00:00 AM 1.43 34.574 0.122 7.09 5.12 13.39
12/20/2021 3:15:00 AM 1.38 34.484 0.123 7.1 5.45 13.4
12/20/2021 3:30:00 AM 1.33 34.394 0.123 7.1 5.12 13.42
12/20/2021 3:45:00 AM 1.28 34.304 0.123 7.1 5.21 13.44
12/20/2021 4:00:00 AM 1.23 34.214 0.123 7.09 5.16 13.46
12/20/2021 4:15:00 AM 1.18 34.124 0.123 7.09 5.05 13.48
12/20/2021 4:30:00 AM 1.13 34.034 0.123 7.09 5.06 13.5
12/20/2021 4:45:00 AM 1.09 33.962 0.123 7.09 4.84 13.52
12/20/2021 5:00:00 AM 1.04 33.872 0.123 7.09 5.18 13.53
12/20/2021 5:15:00 AM 0.99 33.782 0.124 7.09 5.11 13.56
12/20/2021 5:30:00 AM 0.94 33.692 0.124 7.09 5.21 13.57
12/20/2021 5:45:00 AM 0.9 33.62 0.124 7.08 4.73 13.59
12/20/2021 6:00:00 AM 0.85 33.53 0.124 7.08 4.98 13.61
12/20/2021 6:15:00 AM 0.81 33.458 0.124 7.08 5.04 13.63
12/20/2021 6:30:00 AM 0.76 33.368 0.124 7.08 4.96 13.65
12/20/2021 6:45:00 AM 0.72 33.296 0.124 7.07 4.8 13.66
12/20/2021 7:00:00 AM 0.68 33.224 0.124 7.07 4.73 13.69
12/20/2021 7:15:00 AM 0.64 33.152 0.124 7.07 4.69 13.7
12/20/2021 7:30:00 AM 0.6 33.08 0.125 7.08 4.75 13.72
12/20/2021 7:45:00 AM 0.55 32.99 0.124 7.07 4.94 13.76
12/20/2021 8:00:00 AM 0.52 32.936 0.124 7.07 4.65 13.81
12/20/2021 8:15:00 AM 0.5 32.9 0.124 7.11 4.74 13.9
12/20/2021 8:30:00 AM 0.51 32.918 0.124 7.12 4.84 14.01
12/20/2021 8:45:00 AM 0.51 32.918 0.124 7.15 4.74 14.13
12/20/2021 9:00:00 AM 0.51 32.918 0.124 7.18 4.65 14.24
12/20/2021 9:15:00 AM 0.51 32.918 0.124 7.2 4.61 14.31
12/20/2021 9:30:00 AM 0.53 32.954 0.124 7.23 4.5 14.39
12/20/2021 9:45:00 AM 0.56 33.008 0.124 7.23 4.49 14.47
12/20/2021 10:00:00 AM 0.57 33.026 0.124 7.26 4.42 14.55
12/20/2021 10:15:00 AM 0.62 33.116 0.124 7.28 4.41 14.61
12/20/2021 10:30:00 AM 0.69 33.242 0.124 7.3 4.44 14.65
12/20/2021 10:45:00 AM 0.74 33.332 0.124 7.31 4.51 14.7
12/20/2021 11:00:00 AM 0.83 33.494 0.124 7.33 4.38 14.73
12/20/2021 11:15:00 AM 0.95 33.71 0.124 7.35 4.44 14.75
12/20/2021 11:30:00 AM 1.03 33.854 0.124 7.37 4.64 14.77
12/20/2021 11:45:00 AM 1.09 33.962 0.124 7.38 4.52 14.75
12/20/2021 12:00:00 PM 1.16 34.088 0.124 7.38 4.35 14.73
12/20/2021 12:15:00 PM 1.2 34.16 0.124 7.36 4.29 14.7
12/20/2021 12:30:00 PM 1.24 34.232 0.124 7.38 4.32 14.68
12/20/2021 12:45:00 PM 1.29 34.322 0.124 7.39 4.3 14.66
12/20/2021 1:00:00 PM 1.34 34.412 0.124 7.4 4.31 14.63
12/20/2021 1:15:00 PM 1.38 34.484 0.124 7.4 4.18 14.6
12/20/2021 1:30:00 PM 1.42 34.556 0.124 7.4 4.46 14.57
12/20/2021 1:45:00 PM 1.49 34.682 0.124 7.39 4.28 14.54
12/20/2021 2:00:00 PM 1.56 34.808 0.124 7.39 4.28 14.53
12/20/2021 2:15:00 PM 1.64 34.952 0.132 7.41 4.42 14.53
12/20/2021 2:30:00 PM 1.69 35.042 0.124 7.42 4.17 14.53
12/20/2021 2:45:00 PM 1.73 35.114 0.124 7.43 4.11 14.49
12/20/2021 3:00:00 PM 1.75 35.15 0.125 7.42 4.07 14.43
12/20/2021 3:15:00 PM 1.76 35.168 0.124 7.4 4.12 14.34
12/20/2021 3:30:00 PM 1.76 35.168 0.124 7.39 4.14 14.26
12/20/2021 3:45:00 PM 1.74 35.132 0.133 7.36 4.06 14.17
12/20/2021 4:00:00 PM 1.73 35.114 0.124 7.34 4.09 14.09
12/20/2021 4:15:00 PM 1.71 35.078 0.132 7.33 4.29 14.03
12/20/2021 4:30:00 PM 1.69 35.042 0.133 7.3 4.27 13.98
12/20/2021 4:45:00 PM 1.65 34.97 0.125 7.28 4.3 13.91
12/20/2021 5:00:00 PM 1.62 34.916 0.124 7.26 4.13 13.83
12/20/2021 5:15:00 PM 1.59 34.862 0.125 7.23 4.23 13.75
12/20/2021 5:30:00 PM 1.56 34.808 0.133 7.21 4.2 13.69
12/20/2021 5:45:00 PM 1.52 34.736 0.125 7.19 4.08 13.64
12/20/2021 6:00:00 PM 1.49 34.682 0.125 7.19 4.23 13.6
12/20/2021 6:15:00 PM 1.45 34.61 0.125 7.16 4.22 13.58
12/20/2021 6:30:00 PM 1.42 34.556 0.125 7.16 4.16 13.56
12/20/2021 6:45:00 PM 1.38 34.484 0.126 7.15 4.01 13.55
12/20/2021 7:00:00 PM 1.34 34.412 0.126 7.15 4.02 13.54
12/20/2021 7:15:00 PM 1.31 34.358 0.126 7.14 4.02 13.54
12/20/2021 7:30:00 PM 1.27 34.286 0.126 7.13 4.17 13.53
12/20/2021 7:45:00 PM 1.25 34.25 0.125 7.14 4.2 13.53
12/20/2021 8:00:00 PM 1.22 34.196 0.135 7.14 4.13 13.53
12/20/2021 8:15:00 PM 1.19 34.142 0.126 7.13 4.14 13.52
12/20/2021 8:30:00 PM 1.16 34.088 0.126 7.13 4.23 13.52
12/20/2021 8:45:00 PM 1.14 34.052 0.126 7.12 4.31 13.52
12/20/2021 9:00:00 PM 1.11 33.998 0.126 7.13 4.3 13.53
12/20/2021 9:15:00 PM 1.08 33.944 0.127 7.12 4.08 13.52
12/20/2021 9:30:00 PM 1.06 33.908 0.127 7.12 4.22 13.53
12/20/2021 9:45:00 PM 1.04 33.872 0.127 7.12 4.1 13.53
12/20/2021 10:00:00 PM 1.02 33.836 0.127 7.13 4.08 13.53
12/20/2021 10:15:00 PM 1 33.8 0.127 7.12 4.17 13.53
12/20/2021 10:30:00 PM 0.98 33.764 0.127 7.11 4.32 13.53
12/20/2021 10:45:00 PM 0.96 33.728 0.127 7.12 4.19 13.54
12/20/2021 11:00:00 PM 0.94 33.692 0.127 7.12 4.16 13.54
12/20/2021 11:15:00 PM 0.92 33.656 0.127 7.11 4.32 13.54
12/20/2021 11:30:00 PM 0.9 33.62 0.135 7.11 4.11 13.54
12/20/2021 11:45:00 PM 0.88 33.584 0.135 7.1 4.04 13.55
12/21/2021 12:00:00 AM 0.86 33.548 0.129 7.11 4.1 13.55
12/21/2021 12:15:00 AM 0.83 33.494 0.127 7.11 4.24 13.56
12/21/2021 12:30:00 AM 0.81 33.458 0.136 7.08 4.04 13.57
12/21/2021 12:45:00 AM 0.78 33.404 0.127 7.1 4.18 13.57
12/21/2021 1:00:00 AM 0.75 33.35 0.127 7.1 4.25 13.58
12/21/2021 1:15:00 AM 0.72 33.296 0.127 7.09 4.34 13.59
12/21/2021 1:30:00 AM 0.69 33.242 0.128 7.1 4.33 13.6
12/21/2021 1:45:00 AM 0.66 33.188 0.128 7.09 4.16 13.61
12/21/2021 2:00:00 AM 0.63 33.134 0.136 7.12 4.44 13.62
12/21/2021 2:15:00 AM 0.6 33.08 0.128 7.12 4.58 13.64
12/21/2021 2:30:00 AM 0.57 33.026 0.128 7.09 4.16 13.65
12/21/2021 2:45:00 AM 0.55 32.99 0.128 7.11 4.06 13.66
12/21/2021 3:00:00 AM 0.53 32.954 0.127 7.1 4.12 13.67
12/21/2021 3:15:00 AM 0.51 32.918 0.128 7.09 4.11 13.68
12/21/2021 3:30:00 AM 0.48 32.864 0.128 7.11 4.13 13.7
12/21/2021 3:45:00 AM 0.46 32.828 0.129 7.1 4.1 13.7
12/21/2021 4:00:00 AM 0.44 32.792 0.128 7.08 4.19 13.71
12/21/2021 4:15:00 AM 0.44 32.792 0.128 7.1 4.25 13.72
12/21/2021 4:30:00 AM 0.44 32.792 0.137 7.08 4.14 13.73
12/21/2021 4:45:00 AM 0.45 32.81 0.129 7.11 4.14 13.73
12/21/2021 5:00:00 AM 0.45 32.81 0.128 7.1 4.16 13.74
12/21/2021 5:15:00 AM 0.46 32.828 0.128 7.1 4.18 13.74
12/21/2021 5:30:00 AM 0.47 32.846 0.128 7.12 4.25 13.74
12/21/2021 5:45:00 AM 0.47 32.846 0.128 7.11 4.28 13.74
12/21/2021 6:00:00 AM 0.48 32.864 0.137 7.12 4.37 13.74
12/21/2021 6:15:00 AM 0.49 32.882 0.137 7.12 4.25 13.74
12/21/2021 6:30:00 AM 0.49 32.882 0.128 7.11 4.13 13.74
12/21/2021 6:45:00 AM 0.5 32.9 0.128 7.12 4.18 13.75
12/21/2021 7:00:00 AM 0.51 32.918 0.128 7.12 3.98 13.75
12/21/2021 7:15:00 AM 0.52 32.936 0.128 7.11 4.13 13.74
12/21/2021 7:30:00 AM 0.52 32.936 0.137 7.12 4.09 13.74
12/21/2021 7:45:00 AM 0.53 32.954 0.128 7.11 4.18 13.75
12/21/2021 8:00:00 AM 0.54 32.972 0.129 7.13 4.04 13.77
12/21/2021 8:15:00 AM 0.55 32.99 0.128 7.13 3.86 13.84
12/21/2021 8:30:00 AM 0.56 33.008 0.128 7.15 3.93 13.96
12/21/2021 8:45:00 AM 0.59 33.062 0.137 7.17 3.89 14.09
12/21/2021 9:00:00 AM 0.63 33.134 0.128 7.21 3.93 14.23
12/21/2021 9:15:00 AM 0.68 33.224 0.128 7.25 4.03 14.37
12/21/2021 9:30:00 AM 0.73 33.314 0.128 7.28 3.99 14.47
12/21/2021 9:45:00 AM 0.77 33.386 0.127 7.3 3.96 14.54
12/21/2021 10:00:00 AM 0.82 33.476 0.128 7.33 3.88 14.59
12/21/2021 10:15:00 AM 0.88 33.584 0.136 7.34 3.89 14.62
12/21/2021 10:30:00 AM 0.91 33.638 0.137 7.36 3.66 14.65
12/21/2021 10:45:00 AM 0.95 33.71 0.136 7.36 3.82 14.66
12/21/2021 11:00:00 AM 1 33.8 0.136 7.39 3.89 14.66
12/21/2021 11:15:00 AM 1.06 33.908 0.127 7.4 3.87 14.68
12/21/2021 11:30:00 AM 1.13 34.034 0.136 7.43 3.86 14.7
12/21/2021 11:45:00 AM 1.21 34.178 0.135 7.44 3.63 14.7
12/21/2021 12:00:00 PM 1.3 34.34 0.136 7.45 3.71 14.71
12/21/2021 12:15:00 PM 1.38 34.484 0.136 7.47 3.74 14.7
12/21/2021 12:30:00 PM 1.44 34.592 0.127 7.47 3.92 14.67
12/21/2021 12:45:00 PM 1.49 34.682 0.136 7.47 3.67 14.64
12/21/2021 1:00:00 PM 1.53 34.754 0.127 7.48 3.74 14.59
12/21/2021 1:15:00 PM 1.57 34.826 0.136 7.48 3.76 14.55
12/21/2021 1:30:00 PM 1.62 34.916 0.136 7.48 3.61 14.51
12/21/2021 1:45:00 PM 1.66 34.988 0.136 7.46 3.69 14.48
12/21/2021 2:00:00 PM 1.7 35.06 0.136 7.48 3.91 14.44
12/21/2021 2:15:00 PM 1.74 35.132 0.136 7.47 3.63 14.39
12/21/2021 2:30:00 PM 1.77 35.186 0.136 7.47 3.84 14.36
12/21/2021 2:45:00 PM 1.79 35.222 0.136 7.48 3.74 14.32
12/21/2021 3:00:00 PM 1.8 35.24 0.136 7.45 3.66 14.27
12/21/2021 3:15:00 PM 1.81 35.258 0.136 7.44 3.75 14.21
12/21/2021 3:30:00 PM 1.8 35.24 0.136 7.42 3.88 14.14
12/21/2021 3:45:00 PM 1.79 35.222 0.136 7.41 3.66 14.08
12/21/2021 4:00:00 PM 1.79 35.222 0.136 7.39 3.71 14.01
12/21/2021 4:15:00 PM 1.79 35.222 0.136 7.38 3.67 13.95
12/21/2021 4:30:00 PM 1.79 35.222 0.136 7.36 3.75 13.87
12/21/2021 4:45:00 PM 1.77 35.186 0.136 7.34 3.8 13.79
12/21/2021 5:00:00 PM 1.75 35.15 0.136 7.32 3.78 13.7
12/21/2021 5:15:00 PM 1.73 35.114 0.137 7.28 4.1 13.6
12/21/2021 5:30:00 PM 1.71 35.078 0.137 7.26 3.81 13.53
12/21/2021 5:45:00 PM 1.69 35.042 0.136 7.24 3.7 13.49
12/21/2021 6:00:00 PM 1.66 34.988 0.136 7.23 3.95 13.43
12/21/2021 6:15:00 PM 1.63 34.934 0.137 7.21 3.77 13.4
12/21/2021 6:30:00 PM 1.6 34.88 0.137 7.2 3.72 13.38
12/21/2021 6:45:00 PM 1.56 34.808 0.137 7.19 3.74 13.36
12/21/2021 7:00:00 PM 1.52 34.736 0.137 7.18 4.42 13.35
12/21/2021 7:15:00 PM 1.48 34.664 0.137 7.2 3.81 13.35
12/21/2021 7:30:00 PM 1.45 34.61 0.137 7.17 3.72 13.35
12/21/2021 7:45:00 PM 1.41 34.538 0.137 7.19 3.81 13.34
12/21/2021 8:00:00 PM 1.38 34.484 0.137 7.16 3.74 13.34
12/21/2021 8:15:00 PM 1.35 34.43 0.137 7.16 3.98 13.34
12/21/2021 8:30:00 PM 1.33 34.394 0.137 7.17 3.89 13.34
12/21/2021 8:45:00 PM 1.3 34.34 0.137 7.17 3.79 13.33
12/21/2021 9:00:00 PM 1.28 34.304 0.137 7.17 3.66 13.33
12/21/2021 9:15:00 PM 1.26 34.268 0.137 7.16 3.71 13.33
12/21/2021 9:30:00 PM 1.24 34.232 0.129 7.16 3.77 13.33
12/21/2021 9:45:00 PM 1.22 34.196 0.137 7.15 3.71 13.33
12/21/2021 10:00:00 PM 1.2 34.16 0.128 7.14 3.99 13.33
12/21/2021 10:15:00 PM 1.18 34.124 0.137 7.14 3.86 13.33
12/21/2021 10:30:00 PM 1.16 34.088 0.137 7.14 3.96 13.33
12/21/2021 10:45:00 PM 1.14 34.052 0.137 7.14 3.8 13.33
12/21/2021 11:00:00 PM 1.12 34.016 0.137 7.14 3.87 13.33
12/21/2021 11:15:00 PM 1.11 33.998 0.137 7.14 3.87 13.33
12/21/2021 11:30:00 PM 1.1 33.98 0.132 7.15 3.66 13.33
12/21/2021 11:45:00 PM 1.09 33.962 0.137 7.15 3.79 13.33
12/22/2021 12:00:00 AM 1.07 33.926 0.128 7.16 3.75 13.33
12/22/2021 12:15:00 AM 1.06 33.908 0.128 7.14 3.96 13.33
12/22/2021 12:30:00 AM 1.05 33.89 0.137 7.14 3.96 13.33
12/22/2021 12:45:00 AM 1.03 33.854 0.128 7.15 3.9 13.33
12/22/2021 1:00:00 AM 1.02 33.836 0.137 7.16 3.76 13.33
12/22/2021 1:15:00 AM 1 33.8 0.137 7.14 3.88 13.33
12/22/2021 1:30:00 AM 0.98 33.764 0.137 7.14 3.79 13.33
12/22/2021 1:45:00 AM 0.96 33.728 0.128 7.15 3.87 13.34
12/22/2021 2:00:00 AM 0.93 33.674 0.137 7.14 3.88 13.34
12/22/2021 2:15:00 AM 0.9 33.62 0.128 7.13 3.66 13.35
12/22/2021 2:30:00 AM 0.88 33.584 0.128 7.14 3.76 13.36
12/22/2021 2:45:00 AM 0.84 33.512 0.137 7.13 3.99 13.37
12/22/2021 3:00:00 AM 0.8 33.44 0.128 7.13 3.92 13.38
12/22/2021 3:15:00 AM 0.77 33.386 0.128 7.13 3.84 13.39
12/22/2021 3:30:00 AM 0.73 33.314 0.13 7.13 3.86 13.41
12/22/2021 3:45:00 AM 0.7 33.26 0.137 7.14 3.87 13.42
12/22/2021 4:00:00 AM 0.67 33.206 0.129 7.13 3.98 13.43
12/22/2021 4:15:00 AM 0.64 33.152 0.128 7.13 3.99 13.44
12/22/2021 4:30:00 AM 0.61 33.098 0.128 7.14 3.8 13.45
12/22/2021 4:45:00 AM 0.6 33.08 0.137 7.14 3.91 13.46
12/22/2021 5:00:00 AM 0.59 33.062 0.128 7.14 4.09 13.47
12/22/2021 5:15:00 AM 0.6 33.08 0.128 7.14 3.95 13.47
12/22/2021 5:30:00 AM 0.6 33.08 0.128 7.13 4.03 13.48
12/22/2021 5:45:00 AM 0.61 33.098 0.128 7.13 4.02 13.48
12/22/2021 6:00:00 AM 0.6 33.08 0.129 7.13 3.97 13.49
12/22/2021 6:15:00 AM 0.6 33.08 0.128 7.13 3.92 13.49
12/22/2021 6:30:00 AM 0.6 33.08 0.129 7.13 3.88 13.49
12/22/2021 6:45:00 AM 0.6 33.08 0.127 7.14 4.07 13.49
12/22/2021 7:00:00 AM 0.61 33.098 0.128 7.14 4.13 13.49
12/22/2021 7:15:00 AM 0.62 33.116 0.137 7.14 4.05 13.49
12/22/2021 7:30:00 AM 0.63 33.134 0.128 7.12 4.14 13.5
12/22/2021 7:45:00 AM 0.63 33.134 0.137 7.11 3.96 13.5
12/22/2021 8:00:00 AM 0.64 33.152 0.137 7.13 4.01 13.51
12/22/2021 8:15:00 AM 0.65 33.17 0.128 7.13 3.78 13.54
12/22/2021 8:30:00 AM 0.66 33.188 0.128 7.15 3.78 13.57
12/22/2021 8:45:00 AM 0.68 33.224 0.128 7.15 3.77 13.59
12/22/2021 9:00:00 AM 0.69 33.242 0.128 7.16 3.76 13.62
12/22/2021 9:15:00 AM 0.72 33.296 0.128 7.17 3.69 13.67
12/22/2021 9:30:00 AM 0.75 33.35 0.136 7.18 3.84 13.75
12/22/2021 9:45:00 AM 0.79 33.422 0.127 7.21 3.8 13.88
12/22/2021 10:00:00 AM 0.85 33.53 0.127 7.25 3.57 14.02
12/22/2021 10:15:00 AM 0.9 33.62 0.127 7.29 3.65 14.15
12/22/2021 10:30:00 AM 0.95 33.71 0.136 7.31 3.67 14.22
12/22/2021 10:45:00 AM 0.98 33.764 0.126 7.31 3.66 14.23
12/22/2021 11:00:00 AM 1 33.8 0.127 7.31 3.54 14.2
12/22/2021 11:15:00 AM 1.04 33.872 0.127 7.33 3.6 14.18
12/22/2021 11:30:00 AM 1.14 34.052 0.127 7.35 3.54 14.24
12/22/2021 11:45:00 AM 1.19 34.142 0.136 7.38 3.63 14.31
12/22/2021 12:00:00 PM 1.22 34.196 0.135 7.41 3.45 14.32
12/22/2021 12:15:00 PM 1.24 34.232 0.135 7.4 3.56 14.32
12/22/2021 12:30:00 PM 1.26 34.268 0.127 7.41 3.59 14.32
12/22/2021 12:45:00 PM 1.27 34.286 0.136 7.41 3.61 14.3
12/22/2021 1:00:00 PM 1.29 34.322 0.135 7.42 3.63 14.32
12/22/2021 1:15:00 PM 1.31 34.358 0.126 7.43 3.56 14.35
12/22/2021 1:30:00 PM 1.32 34.376 0.135 7.49 3.39 14.38
12/22/2021 1:45:00 PM 1.34 34.412 0.126 7.48 3.39 14.39
12/22/2021 2:00:00 PM 1.35 34.43 0.126 7.48 3.69 14.39
12/22/2021 2:15:00 PM 1.35 34.43 0.135 7.49 3.49 14.37
12/22/2021 2:30:00 PM 1.33 34.394 0.127 7.5 3.5 14.36
12/22/2021 2:45:00 PM 1.32 34.376 0.127 7.47 3.32 14.34
12/22/2021 3:00:00 PM 1.31 34.358 0.135 7.46 3.56 14.32
12/22/2021 3:15:00 PM 1.3 34.34 0.135 7.45 3.57 14.28
12/22/2021 3:30:00 PM 1.28 34.304 0.135 7.45 3.53 14.23
12/22/2021 3:45:00 PM 1.27 34.286 0.126 7.41 3.57 14.18
12/22/2021 4:00:00 PM 1.25 34.25 0.127 7.39 3.57 14.1
12/22/2021 4:15:00 PM 1.23 34.214 0.126 7.37 3.69 14.02
12/22/2021 4:30:00 PM 1.21 34.178 0.135 7.34 3.48 13.96
12/22/2021 4:45:00 PM 1.19 34.142 0.126 7.33 3.54 13.88
12/22/2021 5:00:00 PM 1.17 34.106 0.127 7.31 3.54 13.81
12/22/2021 5:15:00 PM 1.14 34.052 0.136 7.3 3.69 13.74
12/22/2021 5:30:00 PM 1.12 34.016 0.127 7.26 3.51 13.67
12/22/2021 5:45:00 PM 1.1 33.98 0.136 7.24 3.51 13.62
12/22/2021 6:00:00 PM 1.09 33.962 0.126 7.24 3.59 13.59
12/22/2021 6:15:00 PM 1.08 33.944 0.126 7.24 3.54 13.57
12/22/2021 6:30:00 PM 1.06 33.908 0.126 7.22 3.48 13.55
12/22/2021 6:45:00 PM 1.05 33.89 0.136 7.21 3.59 13.53
12/22/2021 7:00:00 PM 1.04 33.872 0.127 7.2 3.69 13.52
12/22/2021 7:15:00 PM 1.03 33.854 0.136 7.2 3.58 13.52
12/22/2021 7:30:00 PM 1.03 33.854 0.136 7.2 3.67 13.51
12/22/2021 7:45:00 PM 1.01 33.818 0.127 7.19 3.79 13.5
12/22/2021 8:00:00 PM 1 33.8 0.126 7.18 3.6 13.5
12/22/2021 8:15:00 PM 0.98 33.764 0.127 7.18 3.54 13.5
12/22/2021 8:30:00 PM 0.98 33.764 0.127 7.18 3.6 13.49
12/22/2021 8:45:00 PM 0.96 33.728 0.127 7.18 3.62 13.5
12/22/2021 9:00:00 PM 0.94 33.692 0.136 7.17 4.23 13.49
12/22/2021 9:15:00 PM 0.93 33.674 0.127 7.18 3.71 13.5
12/22/2021 9:30:00 PM 0.92 33.656 0.127 7.18 3.68 13.5
12/22/2021 9:45:00 PM 0.91 33.638 0.136 7.17 3.75 13.5
12/22/2021 10:00:00 PM 0.89 33.602 0.131 7.16 3.71 13.5
12/22/2021 10:15:00 PM 0.87 33.566 0.127 7.17 3.75 13.51
12/22/2021 10:30:00 PM 0.84 33.512 0.127 7.16 3.79 13.51
12/22/2021 10:45:00 PM 0.81 33.458 0.127 7.16 3.7 13.52
12/22/2021 11:00:00 PM 0.78 33.404 0.127 7.16 3.7 13.53
12/22/2021 11:15:00 PM 0.76 33.368 0.127 7.16 3.82 13.54
12/22/2021 11:30:00 PM 0.74 33.332 0.136 7.15 3.52 13.54
12/22/2021 11:45:00 PM 0.72 33.296 0.128 7.16 3.73 13.55
12/23/2021 12:00:00 AM 0.7 33.26 0.127 7.15 3.5 13.56
12/23/2021 12:15:00 AM 0.68 33.224 0.127 7.14 3.56 13.56
12/23/2021 12:30:00 AM 0.65 33.17 0.127 7.14 3.64 13.58
12/23/2021 12:45:00 AM 0.63 33.134 0.128 7.15 3.65 13.58
12/23/2021 1:00:00 AM 0.61 33.098 0.127 7.16 3.75 13.59
12/23/2021 1:15:00 AM 0.59 33.062 0.128 7.15 3.65 13.6
12/23/2021 1:30:00 AM 0.57 33.026 0.127 7.14 3.62 13.61
12/23/2021 1:45:00 AM 0.54 32.972 0.127 7.14 3.66 13.62
12/23/2021 2:00:00 AM 0.51 32.918 0.128 7.15 3.95 13.63
12/23/2021 2:15:00 AM 0.49 32.882 0.128 7.14 3.94 13.64
12/23/2021 2:30:00 AM 0.48 32.864 0.128 7.14 3.85 13.65
12/23/2021 2:45:00 AM 0.47 32.846 0.128 7.14 3.87 13.66
12/23/2021 3:00:00 AM 0.45 32.81 0.127 7.14 3.86 13.67
12/23/2021 3:15:00 AM 0.43 32.774 0.128 7.14 3.69 13.68
12/23/2021 3:30:00 AM 0.4 32.72 0.127 7.15 3.61 13.69
12/23/2021 3:45:00 AM 0.37 32.666 0.128 7.15 3.47 13.71
12/23/2021 4:00:00 AM 0.33 32.594 0.128 7.14 3.54 13.72
12/23/2021 4:15:00 AM 0.3 32.54 0.128 7.15 3.59 13.73
12/23/2021 4:30:00 AM 0.26 32.468 0.128 7.14 3.6 13.75
12/23/2021 4:45:00 AM 0.23 32.414 0.128 7.14 3.63 13.76
12/23/2021 5:00:00 AM 0.2 32.36 0.128 7.15 3.72 13.77
12/23/2021 5:15:00 AM 0.17 32.306 0.128 7.14 3.82 13.78
12/23/2021 5:30:00 AM 0.14 32.252 0.128 7.15 3.63 13.8
12/23/2021 5:45:00 AM 0.1 32.18 0.128 7.14 3.65 13.81
12/23/2021 6:00:00 AM 0.07 32.126 0.128 7.15 3.63 13.83
12/23/2021 6:15:00 AM 0.04 32.072 0.128 7.14 3.61 13.84
12/23/2021 6:30:00 AM 0.01 32.018 0.128 7.14 3.68 13.85
12/23/2021 6:45:00 AM -0.02 31.964 0.128 7.14 3.47 13.87
12/23/2021 7:00:00 AM -0.05 31.91 0.128 7.14 3.51 13.88
12/23/2021 7:15:00 AM -0.08 31.856 0.128 7.13 3.5 13.9
12/23/2021 7:30:00 AM -0.09 31.838 0.129 7.14 3.62 13.91
12/23/2021 7:45:00 AM -0.11 31.802 0.128 7.14 3.57 13.93
12/23/2021 8:00:00 AM -0.12 31.784 0.128 7.15 3.43 13.99
12/23/2021 8:15:00 AM -0.11 31.802 0.128 7.17 3.42 14.06
12/23/2021 8:30:00 AM -0.11 31.802 0.128 7.18 3.68 14.17
12/23/2021 8:45:00 AM -0.1 31.82 0.128 7.2 3.46 14.28
12/23/2021 9:00:00 AM -0.09 31.838 0.128 7.23 3.52 14.4
12/23/2021 9:15:00 AM -0.08 31.856 0.129 7.25 3.47 14.51
12/23/2021 9:30:00 AM -0.07 31.874 0.128 7.28 3.47 14.63
12/23/2021 9:45:00 AM -0.05 31.91 0.128 7.3 3.63 14.73
12/23/2021 10:00:00 AM -0.01 31.982 0.128 7.33 3.64 14.81
12/23/2021 10:15:00 AM 0.08 32.144 0.128 7.35 3.44 14.9
12/23/2021 10:30:00 AM 0.18 32.324 0.128 7.37 3.45 14.96
12/23/2021 10:45:00 AM 0.27 32.486 0.129 7.41 3.44 15
12/23/2021 11:00:00 AM 0.36 32.648 0.137 7.39 3.51 15.03
12/23/2021 11:15:00 AM 0.47 32.846 0.137 7.44 3.51 15.04
12/23/2021 11:30:00 AM 0.55 32.99 0.129 7.46 3.38 15.04
12/23/2021 11:45:00 AM 0.61 33.098 0.138 7.48 3.43 15.04
12/23/2021 12:00:00 PM 0.67 33.206 0.138 7.48 3.29 15.03
12/23/2021 12:15:00 PM 0.72 33.296 0.138 7.49 3.21 15.01
12/23/2021 12:30:00 PM 0.76 33.368 0.129 7.5 3.36 14.99
12/23/2021 12:45:00 PM 0.78 33.404 0.129 7.5 3.28 14.96
12/23/2021 1:00:00 PM 0.82 33.476 0.138 7.5 3.34 14.92
12/23/2021 1:15:00 PM 0.89 33.602 0.128 7.54 3.29 14.92
12/23/2021 1:30:00 PM 1.02 33.836 0.137 7.55 3.53 14.93
12/23/2021 1:45:00 PM 1.07 33.926 0.137 7.56 3.44 14.94
12/23/2021 2:00:00 PM 1.09 33.962 0.137 7.57 3.38 14.94
12/23/2021 2:15:00 PM 1.08 33.944 0.136 7.57 3.48 14.91
12/23/2021 2:30:00 PM 1.08 33.944 0.136 7.55 3.5 14.87
12/23/2021 2:45:00 PM 1.05 33.89 0.127 7.55 3.55 14.84
12/23/2021 3:00:00 PM 1.02 33.836 0.136 7.52 3.42 14.81
12/23/2021 3:15:00 PM 1 33.8 0.136 7.51 3.46 14.77
12/23/2021 3:30:00 PM 0.99 33.782 0.127 7.52 3.37 14.74
12/23/2021 3:45:00 PM 0.97 33.746 0.127 7.49 3.45 14.69
12/23/2021 4:00:00 PM 0.95 33.71 0.127 7.47 3.48 14.62
12/23/2021 4:15:00 PM 0.93 33.674 0.126 7.45 3.44 14.55
12/23/2021 4:30:00 PM 0.9 33.62 0.126 7.41 3.43 14.47
12/23/2021 4:45:00 PM 0.87 33.566 0.135 7.38 3.49 14.37
12/23/2021 5:00:00 PM 0.84 33.512 0.126 7.35 3.49 14.25
12/23/2021 5:15:00 PM 0.82 33.476 0.126 7.31 3.49 14.15
12/23/2021 5:30:00 PM 0.81 33.458 0.127 7.29 3.52 14.05
12/23/2021 5:45:00 PM 0.81 33.458 0.127 7.25 3.41 13.98
12/23/2021 6:00:00 PM 0.81 33.458 0.127 7.24 3.42 13.92
12/23/2021 6:15:00 PM 0.81 33.458 0.128 7.23 3.64 13.88
12/23/2021 6:30:00 PM 0.8 33.44 0.137 7.24 3.64 13.84
12/23/2021 6:45:00 PM 0.8 33.44 0.127 7.21 3.39 13.81
12/23/2021 7:00:00 PM 0.8 33.44 0.127 7.2 3.37 13.78
12/23/2021 7:15:00 PM 0.79 33.422 0.127 7.19 3.48 13.76
12/23/2021 7:30:00 PM 0.79 33.422 0.128 7.17 3.43 13.74
12/23/2021 7:45:00 PM 0.79 33.422 0.137 7.18 3.35 13.72
12/23/2021 8:00:00 PM 0.79 33.422 0.129 7.17 3.5 13.71
12/23/2021 8:15:00 PM 0.78 33.404 0.138 7.18 3.49 13.69
12/23/2021 8:30:00 PM 0.77 33.386 0.138 7.19 3.5 13.68
12/23/2021 8:45:00 PM 0.76 33.368 0.129 7.18 3.51 13.68
12/23/2021 9:00:00 PM 0.75 33.35 0.138 7.17 3.54 13.67
12/23/2021 9:15:00 PM 0.74 33.332 0.129 7.18 3.53 13.67
12/23/2021 9:30:00 PM 0.74 33.332 0.139 7.16 3.79 13.66
12/23/2021 9:45:00 PM 0.74 33.332 0.13 7.17 3.56 13.65
12/23/2021 10:00:00 PM 0.73 33.314 0.129 7.17 3.46 13.65
12/23/2021 10:15:00 PM 0.73 33.314 0.139 7.17 3.56 13.64
12/23/2021 10:30:00 PM 0.73 33.314 0.138 7.16 3.53 13.64
12/23/2021 10:45:00 PM 0.72 33.296 0.138 7.17 3.52 13.63
12/23/2021 11:00:00 PM 0.72 33.296 0.129 7.16 3.64 13.63
12/23/2021 11:15:00 PM 0.72 33.296 0.139 7.16 3.6 13.62
12/23/2021 11:30:00 PM 0.71 33.278 0.13 7.16 3.49 13.62
12/23/2021 11:45:00 PM 0.72 33.296 0.129 7.16 3.56 13.62
12/24/2021 12:00:00 AM 0.72 33.296 0.129 7.17 3.73 13.62
12/24/2021 12:15:00 AM 0.69 33.242 0.138 7.14 3.55 13.61
12/24/2021 12:30:00 AM 0.68 33.224 0.13 7.15 3.56 13.61
12/24/2021 12:45:00 AM 0.66 33.188 0.129 7.16 3.76 13.61
12/24/2021 1:00:00 AM 0.66 33.188 0.138 7.15 3.83 13.6
12/24/2021 1:15:00 AM 0.66 33.188 0.131 7.16 3.44 13.6
12/24/2021 1:30:00 AM 0.66 33.188 0.129 7.14 3.54 13.6
12/24/2021 1:45:00 AM 0.66 33.188 0.138 7.14 3.58 13.6
12/24/2021 2:00:00 AM 0.65 33.17 0.138 7.13 3.47 13.6
12/24/2021 2:15:00 AM 0.65 33.17 0.138 7.14 3.56 13.59
12/24/2021 2:30:00 AM 0.66 33.188 0.129 7.16 3.6 13.59
12/24/2021 2:45:00 AM 0.67 33.206 0.138 7.15 3.63 13.59
12/24/2021 3:00:00 AM 0.68 33.224 0.138 7.14 3.53 13.59
12/24/2021 3:15:00 AM 0.69 33.242 0.129 7.14 3.69 13.58
12/24/2021 3:30:00 AM 0.7 33.26 0.129 7.15 3.46 13.58
12/24/2021 3:45:00 AM 0.71 33.278 0.128 7.15 3.56 13.58
12/24/2021 4:00:00 AM 0.72 33.296 0.128 7.15 3.53 13.57
12/24/2021 4:15:00 AM 0.73 33.314 0.128 7.15 3.42 13.57
12/24/2021 4:30:00 AM 0.74 33.332 0.129 7.14 3.49 13.57
12/24/2021 4:45:00 AM 0.75 33.35 0.138 7.14 3.33 13.56
12/24/2021 5:00:00 AM 0.76 33.368 0.138 7.14 3.44 13.56
12/24/2021 5:15:00 AM 0.77 33.386 0.138 7.14 3.61 13.56
12/24/2021 5:30:00 AM 0.78 33.404 0.138 7.13 3.44 13.56
12/24/2021 5:45:00 AM 0.79 33.422 0.129 7.14 3.54 13.55
12/24/2021 6:00:00 AM 0.79 33.422 0.13 7.14 3.39 13.55
12/24/2021 6:15:00 AM 0.8 33.44 0.138 7.12 3.61 13.55
12/24/2021 6:30:00 AM 0.81 33.458 0.138 7.12 3.48 13.55
12/24/2021 6:45:00 AM 0.82 33.476 0.138 7.12 3.32 13.54
12/24/2021 7:00:00 AM 0.83 33.494 0.138 7.12 3.44 13.54
12/24/2021 7:15:00 AM 0.84 33.512 0.13 7.13 3.33 13.54
12/24/2021 7:30:00 AM 0.85 33.53 0.139 7.14 3.4 13.53
12/24/2021 7:45:00 AM 0.86 33.548 0.139 7.14 3.51 13.54
12/24/2021 8:00:00 AM 0.86 33.548 0.139 7.14 3.53 13.55
12/24/2021 8:15:00 AM 0.87 33.566 0.139 7.15 3.6 13.57
12/24/2021 8:30:00 AM 0.89 33.602 0.139 7.15 3.34 13.61
12/24/2021 8:45:00 AM 0.9 33.62 0.139 7.17 3.25 13.68
12/24/2021 9:00:00 AM 0.92 33.656 0.139 7.19 3.41 13.76
12/24/2021 9:15:00 AM 0.95 33.71 0.139 7.21 3.44 13.86
12/24/2021 9:30:00 AM 0.98 33.764 0.139 7.22 3.54 13.95
12/24/2021 9:45:00 AM 1.01 33.818 0.139 7.25 3.3 14.05
12/24/2021 10:00:00 AM 1.04 33.872 0.126 7.28 3.37 14.13
12/24/2021 10:15:00 AM 1.07 33.926 0.129 7.28 3.43 14.21
12/24/2021 10:30:00 AM 1.1 33.98 0.138 7.3 3.36 14.26
12/24/2021 10:45:00 AM 1.13 34.034 0.138 7.34 3.25 14.3
12/24/2021 11:00:00 AM 1.16 34.088 0.138 7.35 3.28 14.35
12/24/2021 11:15:00 AM 1.2 34.16 0.138 7.36 3.26 14.39
12/24/2021 11:30:00 AM 1.24 34.232 0.138 7.39 3.25 14.45
12/24/2021 11:45:00 AM 1.29 34.322 0.138 7.41 3.44 14.5
12/24/2021 12:00:00 PM 1.34 34.412 0.127 7.44 3.15 14.54
12/24/2021 12:15:00 PM 1.39 34.502 0.138 7.46 3.25 14.57
12/24/2021 12:30:00 PM 1.45 34.61 0.138 7.48 3.15 14.6
12/24/2021 12:45:00 PM 1.54 34.772 0.138 7.51 3.18 14.62
12/24/2021 1:00:00 PM 1.63 34.934 0.138 7.55 3.28 14.65
12/24/2021 1:15:00 PM 1.71 35.078 0.138 7.57 3.28 14.68
12/24/2021 1:30:00 PM 1.74 35.132 0.138 7.6 3.29 14.66
12/24/2021 1:45:00 PM 1.76 35.168 0.138 7.58 3.28 14.64
12/24/2021 2:00:00 PM 1.77 35.186 0.138 7.59 3.17 14.6
12/24/2021 2:15:00 PM 1.8 35.24 0.138 7.58 3.27 14.57
12/24/2021 2:30:00 PM 1.81 35.258 0.138 7.58 3.38 14.56
12/24/2021 2:45:00 PM 1.82 35.276 0.138 7.59 3.42 14.52
12/24/2021 3:00:00 PM 1.82 35.276 0.138 7.58 3.34 14.49
12/24/2021 3:15:00 PM 1.83 35.294 0.138 7.57 3.24 14.44
12/24/2021 3:30:00 PM 1.85 35.33 0.138 7.56 3.47 14.41
12/24/2021 3:45:00 PM 1.86 35.348 0.138 7.55 3.24 14.38
12/24/2021 4:00:00 PM 1.87 35.366 0.138 7.55 3.29 14.33
12/24/2021 4:15:00 PM 1.86 35.348 0.13 7.51 3.23 14.25
12/24/2021 4:30:00 PM 1.86 35.348 0.138 7.47 3.45 14.13
12/24/2021 4:45:00 PM 1.86 35.348 0.138 7.43 3.45 14
12/24/2021 5:00:00 PM 1.85 35.33 0.138 7.37 3.42 13.84
12/24/2021 5:15:00 PM 1.85 35.33 0.139 7.35 3.56 13.73
12/24/2021 5:30:00 PM 1.85 35.33 0.139 7.32 3.42 13.62
12/24/2021 5:45:00 PM 1.84 35.312 0.139 7.29 3.35 13.52
12/24/2021 6:00:00 PM 1.84 35.312 0.139 7.26 3.35 13.45
12/24/2021 6:15:00 PM 1.85 35.33 0.139 7.24 3.37 13.39
12/24/2021 6:30:00 PM 1.86 35.348 0.139 7.23 3.45 13.35
12/24/2021 6:45:00 PM 1.87 35.366 0.139 7.21 3.47 13.31
12/24/2021 7:00:00 PM 1.88 35.384 0.139 7.22 3.44 13.27
12/24/2021 7:15:00 PM 1.89 35.402 0.139 7.21 3.6 13.25
12/24/2021 7:30:00 PM 1.89 35.402 0.129 7.2 3.49 13.23
12/24/2021 7:45:00 PM 1.89 35.402 0.139 7.19 3.63 13.21
12/24/2021 8:00:00 PM 1.9 35.42 0.139 7.19 3.51 13.2
12/24/2021 8:15:00 PM 1.9 35.42 0.139 7.18 3.43 13.19
12/24/2021 8:30:00 PM 1.9 35.42 0.139 7.17 3.63 13.17
12/24/2021 8:45:00 PM 1.9 35.42 0.139 7.18 3.54 13.16
12/24/2021 9:00:00 PM 1.91 35.438 0.139 7.17 3.53 13.15
12/24/2021 9:15:00 PM 1.91 35.438 0.139 7.17 3.56 13.14
12/24/2021 9:30:00 PM 1.91 35.438 0.139 7.16 3.59 13.13
12/24/2021 9:45:00 PM 1.91 35.438 0.14 7.17 3.71 13.12
12/24/2021 10:00:00 PM 1.91 35.438 0.14 7.16 3.58 13.11
12/24/2021 10:15:00 PM 1.9 35.42 0.14 7.16 3.48 13.11
12/24/2021 10:30:00 PM 1.91 35.438 0.139 7.15 3.42 13.1
12/24/2021 10:45:00 PM 1.92 35.456 0.139 7.16 3.45 13.09
12/24/2021 11:00:00 PM 1.93 35.474 0.139 7.14 3.44 13.09
12/24/2021 11:15:00 PM 1.94 35.492 0.139 7.15 3.68 13.08
12/24/2021 11:30:00 PM 1.94 35.492 0.139 7.15 3.51 13.07
12/24/2021 11:45:00 PM 1.95 35.51 0.139 7.16 4.01 13.06
12/25/2021 12:00:00 AM 1.96 35.528 0.139 7.13 3.44 13.06
12/25/2021 12:15:00 AM 1.97 35.546 0.139 7.14 3.64 13.05
12/25/2021 12:30:00 AM 1.99 35.582 0.139 7.13 3.57 13.04
12/25/2021 12:45:00 AM 2.01 35.618 0.139 7.15 3.71 13.03
12/25/2021 1:00:00 AM 2.03 35.654 0.139 7.15 3.71 13.02
12/25/2021 1:15:00 AM 2.04 35.672 0.139 7.14 3.56 13
12/25/2021 1:30:00 AM 2.06 35.708 0.139 7.14 3.49 12.99
12/25/2021 1:45:00 AM 2.07 35.726 0.137 7.14 3.68 12.98
12/25/2021 2:00:00 AM 2.09 35.762 0.139 7.15 3.62 12.97
12/25/2021 2:15:00 AM 2.1 35.78 0.139 7.14 3.67 12.96
12/25/2021 2:30:00 AM 2.12 35.816 0.139 7.15 3.69 12.94
12/25/2021 2:45:00 AM 2.13 35.834 0.139 7.13 5.6 12.94
12/25/2021 3:00:00 AM 2.15 35.87 0.139 7.14 3.78 12.93
12/25/2021 3:15:00 AM 2.16 35.888 0.139 7.14 3.75 12.91
12/25/2021 3:30:00 AM 2.18 35.924 0.139 7.13 3.72 12.91
12/25/2021 3:45:00 AM 2.19 35.942 0.138 7.13 3.55 12.9
12/25/2021 4:00:00 AM 2.2 35.96 0.138 7.13 3.74 12.89
12/25/2021 4:15:00 AM 2.21 35.978 0.139 7.13 3.8 12.88
12/25/2021 4:30:00 AM 2.22 35.996 0.139 7.13 3.79 12.87
12/25/2021 4:45:00 AM 2.23 36.014 0.139 7.12 3.72 12.86
12/25/2021 5:00:00 AM 2.24 36.032 0.139 7.13 3.65 12.86
12/25/2021 5:15:00 AM 2.25 36.05 0.131 7.13 3.73 12.85
12/25/2021 5:30:00 AM 2.26 36.068 0.139 7.14 3.81 12.84
12/25/2021 5:45:00 AM 2.27 36.086 0.138 7.13 3.83 12.84
12/25/2021 6:00:00 AM 2.28 36.104 0.138 7.13 3.88 12.83
12/25/2021 6:15:00 AM 2.29 36.122 0.138 7.14 4.05 12.83
12/25/2021 6:30:00 AM 2.3 36.14 0.137 7.13 4.24 12.82
12/25/2021 6:45:00 AM 2.31 36.158 0.137 7.12 4.34 12.81
12/25/2021 7:00:00 AM 2.33 36.194 0.137 7.14 4.55 12.81
12/25/2021 7:15:00 AM 2.34 36.212 0.137 7.13 4.5 12.81
12/25/2021 7:30:00 AM 2.35 36.23 0.137 7.14 5.22 12.79
12/25/2021 7:45:00 AM 2.36 36.248 0.131 7.13 5.22 12.79
12/25/2021 8:00:00 AM 2.37 36.266 0.139 7.13 5.67 12.79
12/25/2021 8:15:00 AM 2.38 36.284 0.14 7.13 5.92 12.8
12/25/2021 8:30:00 AM 2.39 36.302 0.14 7.14 6.05 12.82
12/25/2021 8:45:00 AM 2.41 36.338 0.141 7.14 6 12.85
12/25/2021 9:00:00 AM 2.42 36.356 0.141 7.15 5.87 12.89
12/25/2021 9:15:00 AM 2.44 36.392 0.141 7.15 6.1 12.93
12/25/2021 9:30:00 AM 2.45 36.41 0.141 7.17 6.12 12.97
12/25/2021 9:45:00 AM 2.47 36.446 0.14 7.19 6.43 13.01
12/25/2021 10:00:00 AM 2.48 36.464 0.139 7.19 6.25 13.03
12/25/2021 10:15:00 AM 2.49 36.482 0.139 7.19 6.85 13.05
12/25/2021 10:30:00 AM 2.51 36.518 0.139 7.21 8.13 13.13
12/25/2021 10:45:00 AM 2.54 36.572 0.139 7.24 8.26 13.24
12/25/2021 11:00:00 AM 2.58 36.644 0.139 7.26 9.21 13.32
12/25/2021 11:15:00 AM 2.62 36.716 0.141 7.28 10.07 13.38
12/25/2021 11:30:00 AM 2.64 36.752 0.141 7.27 11.27 13.37
12/25/2021 11:45:00 AM 2.64 36.752 0.141 7.26 12.9 13.3
12/25/2021 12:00:00 PM 2.63 36.734 0.141 7.25 14.49 13.26
12/25/2021 12:15:00 PM 2.64 36.752 0.141 7.25 15.82 13.25
12/25/2021 12:30:00 PM 2.64 36.752 0.141 7.23 18.74 13.21
12/25/2021 12:45:00 PM 2.65 36.77 0.142 7.21 20.47 13.15
12/25/2021 1:00:00 PM 2.66 36.788 0.142 7.21 26.89 13.11
12/25/2021 1:15:00 PM 2.66 36.788 0.141 7.2 30 13.06
12/25/2021 1:30:00 PM 2.67 36.806 0.14 7.17 42.66 13.03
12/25/2021 1:45:00 PM 2.7 36.86 0.138 7.18 36.35 13.03
12/25/2021 2:00:00 PM 2.72 36.896 0.138 7.18 49.73 13.01
12/25/2021 2:15:00 PM 2.74 36.932 0.138 7.16 46.43 12.96
12/25/2021 2:30:00 PM 2.76 36.968 0.138 7.16 42.19 12.94
12/25/2021 2:45:00 PM 2.79 37.022 0.131 7.15 49.89 12.91
12/25/2021 3:00:00 PM 2.81 37.058 0.136 7.14 51.63 12.88
12/25/2021 3:15:00 PM 2.84 37.112 0.135 7.14 52.14 12.86
12/25/2021 3:30:00 PM 2.86 37.148 0.133 7.14 66.88 12.85
12/25/2021 3:45:00 PM 2.89 37.202 0.132 7.13 53.28 12.84
12/25/2021 4:00:00 PM 2.91 37.238 0.131 7.11 39.25 12.81
12/25/2021 4:15:00 PM 2.92 37.256 0.122 7.09 77.39 12.78
12/25/2021 4:30:00 PM 2.93 37.274 0.129 7.1 70.26 12.75
12/25/2021 4:45:00 PM 2.95 37.31 0.128 7.08 50.16 12.73
12/25/2021 5:00:00 PM 2.96 37.328 0.128 7.09 42.61 12.71
12/25/2021 5:15:00 PM 2.97 37.346 0.12 7.08 44.21 12.7
12/25/2021 5:30:00 PM 2.98 37.364 0.118 7.05 41.88 12.68
12/25/2021 5:45:00 PM 2.99 37.382 0.118 7.06 38.9 12.67
12/25/2021 6:00:00 PM 3 37.4 0.117 7.06 39.97 12.66
12/25/2021 6:15:00 PM 3.01 37.418 0.117 7.05 36.07 12.65
12/25/2021 6:30:00 PM 3.02 37.436 0.116 7.04 36.22 12.65
12/25/2021 6:45:00 PM 3.03 37.454 0.116 7.03 32.82 12.64
12/25/2021 7:00:00 PM 3.03 37.454 0.121 7.04 33.4 12.63
12/25/2021 7:15:00 PM 3.04 37.472 0.114 7.03 33.99 12.63
12/25/2021 7:30:00 PM 3.04 37.472 0.115 7.04 29.3 12.63
12/25/2021 7:45:00 PM 3.05 37.49 0.116 7.02 29.54 12.62
12/25/2021 8:00:00 PM 3.06 37.508 0.116 7.01 28.14 12.62
12/25/2021 8:15:00 PM 3.07 37.526 0.116 7.02 29.86 12.62
12/25/2021 8:30:00 PM 3.08 37.544 0.116 7.01 26.59 12.61
12/25/2021 8:45:00 PM 3.1 37.58 0.117 7.03 24.26 12.6
12/25/2021 9:00:00 PM 3.11 37.598 0.125 7.01 23.56 12.6
12/25/2021 9:15:00 PM 3.12 37.616 0.117 7.04 24.26 12.6
12/25/2021 9:30:00 PM 3.12 37.616 0.117 7.01 24.01 12.6
12/25/2021 9:45:00 PM 3.13 37.634 0.117 7.01 23.15 12.59
12/25/2021 10:00:00 PM 3.13 37.634 0.118 7.03 23.26 12.59
12/25/2021 10:15:00 PM 3.14 37.652 0.118 7.04 21.1 12.59
12/25/2021 10:30:00 PM 3.16 37.688 0.126 7.04 18.15 12.59
12/25/2021 10:45:00 PM 3.18 37.724 0.118 7.04 17.95 12.58
12/25/2021 11:00:00 PM 3.2 37.76 0.126 7.03 19.62 12.58
12/25/2021 11:15:00 PM 3.21 37.778 0.118 7.04 17.67 12.58
12/25/2021 11:30:00 PM 3.22 37.796 0.118 7.04 17.01 12.57
12/25/2021 11:45:00 PM 3.23 37.814 0.118 7.05 16.15 12.57
12/26/2021 12:00:00 AM 3.24 37.832 0.118 7.03 19.58 12.57
12/26/2021 12:15:00 AM 3.25 37.85 0.119 7.03 16.9 12.56
12/26/2021 12:30:00 AM 3.26 37.868 0.127 7.02 16.48 12.56
12/26/2021 12:45:00 AM 3.27 37.886 0.119 7.04 17.24 12.56
12/26/2021 1:00:00 AM 3.27 37.886 0.118 7.04 15.32 12.56
12/26/2021 1:15:00 AM 3.28 37.904 0.118 7.02 14.99 12.55
12/26/2021 1:30:00 AM 3.28 37.904 0.118 7.04 17.79 12.55
12/26/2021 1:45:00 AM 3.28 37.904 0.12 7.06 16.53 12.55
12/26/2021 2:00:00 AM 3.28 37.904 0.127 7.06 15.46 12.55
12/26/2021 2:15:00 AM 3.27 37.886 0.119 7.04 14.05 12.56
12/26/2021 2:30:00 AM 3.26 37.868 0.127 7.04 16.55 12.56
12/26/2021 2:45:00 AM 3.24 37.832 0.127 7.03 13.98 12.56
12/26/2021 3:00:00 AM 3.23 37.814 0.127 7.04 14.48 12.57
12/26/2021 3:15:00 AM 3.23 37.814 0.118 7.05 14.89 12.57
12/26/2021 3:30:00 AM 3.22 37.796 0.126 7.05 13.99 12.58
12/26/2021 3:45:00 AM 3.22 37.796 0.119 7.05 13.59 12.58
12/26/2021 4:00:00 AM 3.21 37.778 0.119 7.06 14.07 12.58
12/26/2021 4:15:00 AM 3.2 37.76 0.126 7.05 15.14 12.59
12/26/2021 4:30:00 AM 3.19 37.742 0.126 7.04 14.44 12.59
12/26/2021 4:45:00 AM 3.19 37.742 0.118 7.05 13.35 12.6
12/26/2021 5:00:00 AM 3.18 37.724 0.126 7.05 13.8 12.6
12/26/2021 5:15:00 AM 3.18 37.724 0.118 7.06 14.21 12.6
12/26/2021 5:30:00 AM 3.17 37.706 0.118 7.05 13.66 12.61
12/26/2021 5:45:00 AM 3.17 37.706 0.118 7.06 13.45 12.61
12/26/2021 6:00:00 AM 3.16 37.688 0.118 7.03 13.3 12.62
12/26/2021 6:15:00 AM 3.15 37.67 0.118 7.03 13.59 12.62
12/26/2021 6:30:00 AM 3.15 37.67 0.118 7.05 13.85 12.62
12/26/2021 6:45:00 AM 3.14 37.652 0.118 7.05 13.97 12.63
12/26/2021 7:00:00 AM 3.14 37.652 0.118 7.07 13.71 12.63
12/26/2021 7:15:00 AM 3.13 37.634 0.118 7.06 13.93 12.63
12/26/2021 7:30:00 AM 3.12 37.616 0.117 7.05 13.59 12.64
12/26/2021 7:45:00 AM 3.12 37.616 0.117 7.05 14.13 12.65
12/26/2021 8:00:00 AM 3.12 37.616 0.125 7.05 13.36 12.66
12/26/2021 8:15:00 AM 3.12 37.616 0.117 7.06 13.26 12.69
12/26/2021 8:30:00 AM 3.12 37.616 0.117 7.07 13.12 12.73
12/26/2021 8:45:00 AM 3.12 37.616 0.117 7.06 13.55 12.78
12/26/2021 9:00:00 AM 3.12 37.616 0.117 7.08 14.3 12.86
12/26/2021 9:15:00 AM 3.13 37.634 0.117 7.11 12.81 12.97
12/26/2021 9:30:00 AM 3.16 37.688 0.116 7.08 13.2 13.06
12/26/2021 9:45:00 AM 3.19 37.742 0.117 7.16 13.29 13.15
12/26/2021 10:00:00 AM 3.23 37.814 0.117 7.15 12.5 13.21
12/26/2021 10:15:00 AM 3.24 37.832 0.117 7.18 13.87 13.22
12/26/2021 10:30:00 AM 3.24 37.832 0.116 7.18 13.31 13.19
12/26/2021 10:45:00 AM 3.25 37.85 0.117 7.18 12.76 13.19
12/26/2021 11:00:00 AM 3.26 37.868 0.116 7.14 12.56 13.19
12/26/2021 11:15:00 AM 3.27 37.886 0.116 7.19 12.64 13.22
12/26/2021 11:30:00 AM 3.3 37.94 0.117 7.2 12.32 13.27
12/26/2021 11:45:00 AM 3.34 38.012 0.117 7.23 12.09 13.31
12/26/2021 12:00:00 PM 3.38 38.084 0.116 7.25 12.23 13.36
12/26/2021 12:15:00 PM 3.43 38.174 0.116 7.28 11.96 13.4
12/26/2021 12:30:00 PM 3.47 38.246 0.116 7.28 11.17 13.42
12/26/2021 12:45:00 PM 3.5 38.3 0.116 7.28 11.58 13.42
12/26/2021 1:00:00 PM 3.53 38.354 0.116 7.28 12.22 13.4
12/26/2021 1:15:00 PM 3.55 38.39 0.117 7.29 11.06 13.4
12/26/2021 1:30:00 PM 3.59 38.462 0.116 7.3 11.42 13.4
12/26/2021 1:45:00 PM 3.63 38.534 0.124 7.31 11.87 13.42
12/26/2021 2:00:00 PM 3.67 38.606 0.116 7.32 11.02 13.43
12/26/2021 2:15:00 PM 3.7 38.66 0.124 7.23 11.27 13.42
12/26/2021 2:30:00 PM 3.71 38.678 0.124 7.33 10.7 13.4
12/26/2021 2:45:00 PM 3.71 38.678 0.116 7.33 11.09 13.37
12/26/2021 3:00:00 PM 3.68 38.624 0.124 7.28 10.5 13.3
12/26/2021 3:15:00 PM 3.64 38.552 0.116 7.22 10.67 13.23
12/26/2021 3:30:00 PM 3.62 38.516 0.124 7.29 10.21 13.21
12/26/2021 3:45:00 PM 3.61 38.498 0.117 7.28 10.53 13.2
12/26/2021 4:00:00 PM 3.59 38.462 0.116 7.26 10.33 13.18
12/26/2021 4:15:00 PM 3.57 38.426 0.124 7.25 9.91 13.13
12/26/2021 4:30:00 PM 3.56 38.408 0.117 7.22 9.87 13.07
12/26/2021 4:45:00 PM 3.54 38.372 0.125 7.19 10.4 12.98
12/26/2021 5:00:00 PM 3.53 38.354 0.125 7.19 10.32 12.9
12/26/2021 5:15:00 PM 3.52 38.336 0.117 7.16 9.49 12.85
12/26/2021 5:30:00 PM 3.5 38.3 0.117 7.14 10.86 12.8
12/26/2021 5:45:00 PM 3.48 38.264 0.117 7.13 9.79 12.77
12/26/2021 6:00:00 PM 3.47 38.246 0.117 7.09 9.96 12.75
12/26/2021 6:15:00 PM 3.45 38.21 0.117 7.1 9.49 12.73
12/26/2021 6:30:00 PM 3.43 38.174 0.117 7.11 9.78 12.72
12/26/2021 6:45:00 PM 3.41 38.138 0.117 7.07 9.24 12.71
12/26/2021 7:00:00 PM 3.39 38.102 0.117 7.07 9.24 12.7
12/26/2021 7:15:00 PM 3.38 38.084 0.125 7.09 9.22 12.69
12/26/2021 7:30:00 PM 3.36 38.048 0.117 7.07 8.72 12.69
12/26/2021 7:45:00 PM 3.33 37.994 0.118 7.08 8.56 12.68
12/26/2021 8:00:00 PM 3.3 37.94 0.118 7.08 8.49 12.68
12/26/2021 8:15:00 PM 3.29 37.922 0.118 7.07 8.73 12.68
12/26/2021 8:30:00 PM 3.27 37.886 0.117 7.07 8.92 12.68
12/26/2021 8:45:00 PM 3.25 37.85 0.126 7.07 8.73 12.68
12/26/2021 9:00:00 PM 3.24 37.832 0.117 7.06 8.58 12.69
12/26/2021 9:15:00 PM 3.22 37.796 0.118 7.05 8.11 12.69
12/26/2021 9:30:00 PM 3.21 37.778 0.126 7.04 7.96 12.69
12/26/2021 9:45:00 PM 3.19 37.742 0.118 7.03 7.99 12.7
12/26/2021 10:00:00 PM 3.17 37.706 0.117 7.05 8.25 12.7
12/26/2021 10:15:00 PM 3.15 37.67 0.118 6.99 7.92 12.7
12/26/2021 10:30:00 PM 3.14 37.652 0.118 7.03 8.1 12.71
12/26/2021 10:45:00 PM 3.13 37.634 0.119 7.07 7.51 12.71
12/26/2021 11:00:00 PM 3.11 37.598 0.118 7.04 7.78 12.72
12/26/2021 11:15:00 PM 3.1 37.58 0.127 7.04 8.08 12.72
12/26/2021 11:30:00 PM 3.08 37.544 0.119 7.04 8.08 12.72
12/26/2021 11:45:00 PM 3.06 37.508 0.127 7.05 7.41 12.73
12/27/2021 12:00:00 AM 3.05 37.49 0.119 7.05 8.01 12.73
12/27/2021 12:15:00 AM 3.04 37.472 0.118 7.06 7.36 12.74
12/27/2021 12:30:00 AM 3.02 37.436 0.127 7.02 7.69 12.75
12/27/2021 12:45:00 AM 3 37.4 0.127 7.02 7.66 12.75
12/27/2021 1:00:00 AM 2.98 37.364 0.119 7.03 7.49 12.76
12/27/2021 1:15:00 AM 2.95 37.31 0.127 7.01 7.39 12.77
12/27/2021 1:30:00 AM 2.93 37.274 0.12 7.06 7.23 12.77
12/27/2021 1:45:00 AM 2.9 37.22 0.127 7 7.11 12.78
12/27/2021 2:00:00 AM 2.88 37.184 0.127 7.06 7.54 12.79
12/27/2021 2:15:00 AM 2.86 37.148 0.119 7.06 7.07 12.79
12/27/2021 2:30:00 AM 2.83 37.094 0.12 7.05 7.09 12.8
12/27/2021 2:45:00 AM 2.81 37.058 0.12 7.05 6.77 12.81
12/27/2021 3:00:00 AM 2.79 37.022 0.119 7.06 7.07 12.82
12/27/2021 3:15:00 AM 2.77 36.986 0.128 7.05 7.21 12.82
12/27/2021 3:30:00 AM 2.74 36.932 0.12 7.06 6.57 12.83
12/27/2021 3:45:00 AM 2.72 36.896 0.12 7.07 6.72 12.84
12/27/2021 4:00:00 AM 2.7 36.86 0.12 7.05 6.88 12.85
12/27/2021 4:15:00 AM 2.68 36.824 0.12 7.07 7.17 12.85
12/27/2021 4:30:00 AM 2.66 36.788 0.12 7.03 6.7 12.86
12/27/2021 4:45:00 AM 2.63 36.734 0.12 7.06 6.89 12.87
12/27/2021 5:00:00 AM 2.61 36.698 0.12 7.06 6.76 12.87
12/27/2021 5:15:00 AM 2.58 36.644 0.12 7.05 6.72 12.88
12/27/2021 5:30:00 AM 2.55 36.59 0.121 7.08 6.52 12.89
12/27/2021 5:45:00 AM 2.53 36.554 0.129 7.07 6.64 12.9
12/27/2021 6:00:00 AM 2.51 36.518 0.121 7.06 6.5 12.9
12/27/2021 6:15:00 AM 2.49 36.482 0.121 7.07 6.58 12.91
12/27/2021 6:30:00 AM 2.48 36.464 0.129 7.04 6.42 12.91
12/27/2021 6:45:00 AM 2.46 36.428 0.121 7.07 6.56 12.92
12/27/2021 7:00:00 AM 2.45 36.41 0.121 7.07 6.42 12.93
12/27/2021 7:15:00 AM 2.43 36.374 0.122 7.06 6.05 12.93
12/27/2021 7:30:00 AM 2.42 36.356 0.121 7.07 6.24 12.94
12/27/2021 7:45:00 AM 2.4 36.32 0.121 7.07 6.16 12.95
12/27/2021 8:00:00 AM 2.39 36.302 0.121 7.08 6.09 12.96
12/27/2021 8:15:00 AM 2.37 36.266 0.129 7.08 6.07 12.98
12/27/2021 8:30:00 AM 2.36 36.248 0.13 7.08 6.05 13
12/27/2021 8:45:00 AM 2.35 36.23 0.122 7.08 6.22 13.03
12/27/2021 9:00:00 AM 2.34 36.212 0.122 7.1 6.11 13.06
12/27/2021 9:15:00 AM 2.33 36.194 0.122 7.08 6.05 13.09
12/27/2021 9:30:00 AM 2.32 36.176 0.122 7.09 5.86 13.12
12/27/2021 9:45:00 AM 2.31 36.158 0.13 7.12 5.7 13.19
12/27/2021 10:00:00 AM 2.31 36.158 0.13 7.14 5.53 13.29
12/27/2021 10:15:00 AM 2.31 36.158 0.13 7.16 5.68 13.37
12/27/2021 10:30:00 AM 2.32 36.176 0.125 7.18 5.75 13.46
12/27/2021 10:45:00 AM 2.34 36.212 0.13 7.19 5.8 13.55
12/27/2021 11:00:00 AM 2.38 36.284 0.13 7.21 5.53 13.64
12/27/2021 11:15:00 AM 2.41 36.338 0.13 7.27 5.48 13.72
12/27/2021 11:30:00 AM 2.41 36.338 0.13 7.25 5.51 13.74
12/27/2021 11:45:00 AM 2.4 36.32 0.13 7.25 5.73 13.71
12/27/2021 12:00:00 PM 2.38 36.284 0.13 7.28 5.52 13.68
12/27/2021 12:15:00 PM 2.37 36.266 0.13 7.26 5.53 13.66
12/27/2021 12:30:00 PM 2.34 36.212 0.13 7.23 5.42 13.66
12/27/2021 12:45:00 PM 2.29 36.122 0.122 7.25 5.61 13.68
12/27/2021 1:00:00 PM 2.22 35.996 0.13 7.28 5.34 13.71
12/27/2021 1:15:00 PM 2.16 35.888 0.13 7.3 5.47 13.74
12/27/2021 1:30:00 PM 2.15 35.87 0.13 7.31 5.52 13.74
12/27/2021 1:45:00 PM 2.17 35.906 0.121 7.3 5.55 13.75
12/27/2021 2:00:00 PM 2.21 35.978 0.13 7.29 5.61 13.76
12/27/2021 2:15:00 PM 2.23 36.014 0.122 7.3 5.56 13.76
12/27/2021 2:30:00 PM 2.25 36.05 0.123 7.3 5.35 13.74
12/27/2021 2:45:00 PM 2.27 36.086 0.13 7.3 5.38 13.7
12/27/2021 3:00:00 PM 2.27 36.086 0.131 7.26 5.27 13.64
12/27/2021 3:15:00 PM 2.27 36.086 0.122 7.26 5.28 13.58
12/27/2021 3:30:00 PM 2.27 36.086 0.131 7.25 5.39 13.54
12/27/2021 3:45:00 PM 2.27 36.086 0.131 7.23 5.21 13.5
12/27/2021 4:00:00 PM 2.26 36.068 0.131 7.23 4.99 13.45
12/27/2021 4:15:00 PM 2.24 36.032 0.131 7.22 5.02 13.38
12/27/2021 4:30:00 PM 2.23 36.014 0.123 7.19 5.19 13.32
12/27/2021 4:45:00 PM 2.21 35.978 0.122 7.17 5.19 13.26
12/27/2021 5:00:00 PM 2.2 35.96 0.131 7.15 5.03 13.21
12/27/2021 5:15:00 PM 2.19 35.942 0.123 7.16 5.39 13.17
12/27/2021 5:30:00 PM 2.19 35.942 0.131 7.15 5.03 13.14
12/27/2021 5:45:00 PM 2.19 35.942 0.132 7.13 4.98 13.12
12/27/2021 6:00:00 PM 2.19 35.942 0.123 7.12 5.17 13.1
12/27/2021 6:15:00 PM 2.2 35.96 0.131 7.11 5.02 13.08
12/27/2021 6:30:00 PM 2.2 35.96 0.131 7.12 5 13.06
12/27/2021 6:45:00 PM 2.2 35.96 0.132 7.12 5.23 13.04
12/27/2021 7:00:00 PM 2.2 35.96 0.123 7.09 5.51 13.03
12/27/2021 7:15:00 PM 2.18 35.924 0.131 7.1 5.03 13.02
12/27/2021 7:30:00 PM 2.18 35.924 0.131 7.12 5.1 13.02
12/27/2021 7:45:00 PM 2.18 35.924 0.131 7.12 5.02 13.01
12/27/2021 8:00:00 PM 2.19 35.942 0.132 7.1 4.89 13
12/27/2021 8:15:00 PM 2.19 35.942 0.127 7.11 5.15 12.99
12/27/2021 8:30:00 PM 2.2 35.96 0.123 7.11 5.22 12.98
12/27/2021 8:45:00 PM 2.2 35.96 0.132 7.09 5.36 12.97
12/27/2021 9:00:00 PM 2.21 35.978 0.132 7.1 5.4 12.96
12/27/2021 9:15:00 PM 2.22 35.996 0.133 7.09 5.5 12.96
12/27/2021 9:30:00 PM 2.22 35.996 0.132 7.07 5.1 12.95
12/27/2021 9:45:00 PM 2.22 35.996 0.133 7.07 5.24 12.95
12/27/2021 10:00:00 PM 2.23 36.014 0.133 7.1 5.04 12.94
12/27/2021 10:15:00 PM 2.23 36.014 0.133 7.09 4.96 12.94
12/27/2021 10:30:00 PM 2.23 36.014 0.124 7.08 5.44 12.94
12/27/2021 10:45:00 PM 2.23 36.014 0.133 7.08 5.07 12.93
12/27/2021 11:00:00 PM 2.24 36.032 0.133 7.08 5.09 12.93
12/27/2021 11:15:00 PM 2.24 36.032 0.125 7.07 5.02 12.92
12/27/2021 11:30:00 PM 2.25 36.05 0.134 7.06 4.76 12.93
12/27/2021 11:45:00 PM 2.25 36.05 0.134 7.06 4.6 12.92
12/28/2021 12:00:00 AM 2.25 36.05 0.134 7.09 4.77 12.92
12/28/2021 12:15:00 AM 2.26 36.068 0.13 7.09 4.82 12.91
12/28/2021 12:30:00 AM 2.27 36.086 0.133 7.08 5.15 12.91
12/28/2021 12:45:00 AM 2.27 36.086 0.133 7.09 5.12 12.91
12/28/2021 1:00:00 AM 2.28 36.104 0.134 7.06 4.94 12.9
12/28/2021 1:15:00 AM 2.28 36.104 0.134 7.09 4.91 12.9
12/28/2021 1:30:00 AM 2.29 36.122 0.134 7.08 4.86 12.9
12/28/2021 1:45:00 AM 2.3 36.14 0.134 7.09 4.86 12.9
12/28/2021 2:00:00 AM 2.3 36.14 0.134 7.08 4.79 12.9
12/28/2021 2:15:00 AM 2.31 36.158 0.134 7.08 4.82 12.9
12/28/2021 2:30:00 AM 2.32 36.176 0.134 7.09 5.63 12.89
12/28/2021 2:45:00 AM 2.33 36.194 0.134 7.09 5.05 12.89
12/28/2021 3:00:00 AM 2.34 36.212 0.134 7.09 5.05 12.89
12/28/2021 3:15:00 AM 2.35 36.23 0.134 7.1 5.22 12.88
12/28/2021 3:30:00 AM 2.35 36.23 0.134 7.08 5.28 12.88
12/28/2021 3:45:00 AM 2.35 36.23 0.134 7.06 5.08 12.88
12/28/2021 4:00:00 AM 2.35 36.23 0.134 7.07 4.87 12.88
12/28/2021 4:15:00 AM 2.34 36.212 0.135 7.09 5.02 12.89
12/28/2021 4:30:00 AM 2.32 36.176 0.135 7.09 5.02 12.89
12/28/2021 4:45:00 AM 2.29 36.122 0.135 7.08 5.3 12.88
12/28/2021 5:00:00 AM 2.27 36.086 0.135 7.06 43.4 12.9
12/28/2021 5:15:00 AM 2.24 36.032 0.135 7.07 5.09 12.9
12/28/2021 5:30:00 AM 2.21 35.978 0.135 7.09 5.1 12.91
12/28/2021 5:45:00 AM 2.18 35.924 0.135 7.07 5.24 12.92
12/28/2021 6:00:00 AM 2.16 35.888 0.135 7.08 5.07 12.93
12/28/2021 6:15:00 AM 2.13 35.834 0.136 7.08 4.83 12.94
12/28/2021 6:30:00 AM 2.1 35.78 0.135 7.08 5.37 12.95
12/28/2021 6:45:00 AM 2.07 35.726 0.135 7.06 5.02 12.96
12/28/2021 7:00:00 AM 2.04 35.672 0.135 7.03 5.16 12.97
12/28/2021 7:15:00 AM 2.01 35.618 0.135 7.07 5.17 12.98
12/28/2021 7:30:00 AM 1.98 35.564 0.136 7.07 4.99 13
12/28/2021 7:45:00 AM 1.95 35.51 0.135 7.08 5.02 13.02
12/28/2021 8:00:00 AM 1.92 35.456 0.136 7.07 5.16 13.06
12/28/2021 8:15:00 AM 1.9 35.42 0.135 7.08 5.34 13.13
12/28/2021 8:30:00 AM 1.88 35.384 0.136 7.1 5.5 13.21
12/28/2021 8:45:00 AM 1.87 35.366 0.135 7.11 4.99 13.32
12/28/2021 9:00:00 AM 1.87 35.366 0.136 7.15 5.06 13.42
12/28/2021 9:15:00 AM 1.88 35.384 0.136 7.16 5.19 13.5
12/28/2021 9:30:00 AM 1.9 35.42 0.134 7.18 5.25 13.61
12/28/2021 9:45:00 AM 1.95 35.51 0.135 7.18 5.21 13.69
12/28/2021 10:00:00 AM 2.03 35.654 0.135 7.2 4.82 13.78
12/28/2021 10:15:00 AM 2.12 35.816 0.135 7.28 5.03 13.86
12/28/2021 10:30:00 AM 2.2 35.96 0.135 7.3 5.18 13.92
12/28/2021 10:45:00 AM 2.26 36.068 0.135 7.32 4.91 13.95
12/28/2021 11:00:00 AM 2.34 36.212 0.135 7.33 4.73 13.97
12/28/2021 11:15:00 AM 2.44 36.392 0.127 7.36 4.98 14
12/28/2021 11:30:00 AM 2.52 36.536 0.135 7.39 4.92 14
12/28/2021 11:45:00 AM 2.55 36.59 0.135 7.39 4.88 13.99
12/28/2021 12:00:00 PM 2.57 36.626 0.135 7.38 4.93 13.95
12/28/2021 12:15:00 PM 2.63 36.734 0.135 7.36 4.8 13.92
12/28/2021 12:30:00 PM 2.7 36.86 0.135 7.39 4.8 13.93
12/28/2021 12:45:00 PM 2.74 36.932 0.135 7.41 4.74 13.94
12/28/2021 1:00:00 PM 2.81 37.058 0.135 7.43 4.75 13.93
12/28/2021 1:15:00 PM 2.86 37.148 0.135 7.43 4.83 13.9
12/28/2021 1:30:00 PM 2.9 37.22 0.135 7.42 4.89 13.87
12/28/2021 1:45:00 PM 2.93 37.274 0.135 7.43 4.69 13.81
12/28/2021 2:00:00 PM 2.95 37.31 0.135 7.41 5.06 13.73
12/28/2021 2:15:00 PM 2.95 37.31 0.133 7.36 4.9 13.64
12/28/2021 2:30:00 PM 2.96 37.328 0.135 7.37 4.77 13.57
12/28/2021 2:45:00 PM 2.97 37.346 0.135 7.36 4.71 13.55
12/28/2021 3:00:00 PM 2.98 37.364 0.135 7.35 4.48 13.55
12/28/2021 3:15:00 PM 2.99 37.382 0.135 7.34 5.07 13.51
12/28/2021 3:30:00 PM 2.98 37.364 0.135 7.32 4.96 13.44
12/28/2021 3:45:00 PM 2.97 37.346 0.134 7.29 4.98 13.35
12/28/2021 4:00:00 PM 2.96 37.328 0.127 7.26 4.9 13.27
12/28/2021 4:15:00 PM 2.95 37.31 0.135 7.24 4.88 13.2
12/28/2021 4:30:00 PM 2.93 37.274 0.136 7.21 4.87 13.15
12/28/2021 4:45:00 PM 2.92 37.256 0.136 7.2 4.82 13.08
12/28/2021 5:00:00 PM 2.91 37.238 0.136 7.2 4.78 13.03
12/28/2021 5:15:00 PM 2.9 37.22 0.136 7.17 4.61 12.99
12/28/2021 5:30:00 PM 2.89 37.202 0.136 7.15 4.82 12.95
12/28/2021 5:45:00 PM 2.89 37.202 0.136 7.13 4.58 12.93
12/28/2021 6:00:00 PM 2.88 37.184 0.136 7.1 4.95 12.9
12/28/2021 6:15:00 PM 2.88 37.184 0.136 7.1 4.96 12.89
12/28/2021 6:30:00 PM 2.88 37.184 0.136 7.1 4.68 12.87
12/28/2021 6:45:00 PM 2.87 37.166 0.136 7.08 4.89 12.85
12/28/2021 7:00:00 PM 2.85 37.13 0.136 7.12 4.73 12.84
12/28/2021 7:15:00 PM 2.79 37.022 0.136 7.1 4.67 12.83
12/28/2021 7:30:00 PM 2.68 36.824 0.135 7.1 4.53 12.82
12/28/2021 7:45:00 PM 2.59 36.662 0.135 7.1 4.62 12.81
12/28/2021 8:00:00 PM 2.54 36.572 0.135 7.1 4.71 12.82
12/28/2021 8:15:00 PM 2.51 36.518 0.135 7.1 4.81 12.82
12/28/2021 8:30:00 PM 2.46 36.428 0.135 7.08 5.02 12.82
12/28/2021 8:45:00 PM 2.43 36.374 0.135 7.11 5.02 12.83
12/28/2021 9:00:00 PM 2.41 36.338 0.135 7.1 4.82 12.83
12/28/2021 9:15:00 PM 2.42 36.356 0.135 7.08 5.05 12.83
12/28/2021 9:30:00 PM 2.45 36.41 0.135 7.07 5.12 12.83
12/28/2021 9:45:00 PM 2.48 36.464 0.136 7.07 4.95 12.83
12/28/2021 10:00:00 PM 2.49 36.482 0.135 7.1 4.94 12.83
12/28/2021 10:15:00 PM 2.5 36.5 0.136 7.09 5.04 12.83
12/28/2021 10:30:00 PM 2.5 36.5 0.135 7.09 5 12.83
12/28/2021 10:45:00 PM 2.5 36.5 0.135 7.09 5.44 12.83
12/28/2021 11:00:00 PM 2.5 36.5 0.135 7.08 5.06 12.83
12/28/2021 11:15:00 PM 2.5 36.5 0.135 7.08 5.33 12.83
12/28/2021 11:30:00 PM 2.5 36.5 0.135 7.08 5.32 12.83
12/28/2021 11:45:00 PM 2.5 36.5 0.135 7.1 5.63 12.83
12/29/2021 12:00:00 AM 2.51 36.518 0.136 7.08 5.53 12.83
12/29/2021 12:15:00 AM 2.51 36.518 0.136 7.09 5.54 12.83
12/29/2021 12:30:00 AM 2.52 36.536 0.136 7.08 5.4 12.82
12/29/2021 12:45:00 AM 2.52 36.536 0.136 7.09 5.48 12.82
12/29/2021 1:00:00 AM 2.52 36.536 0.136 7.06 5.42 12.82
12/29/2021 1:15:00 AM 2.53 36.554 0.136 7.09 5.32 12.82
12/29/2021 1:30:00 AM 2.53 36.554 0.137 7.11 5.61 12.81
12/29/2021 1:45:00 AM 2.53 36.554 0.137 7.11 5.66 12.81
12/29/2021 2:00:00 AM 2.53 36.554 0.137 7.1 5.24 12.82
12/29/2021 2:15:00 AM 2.53 36.554 0.136 7.1 5.67 12.82
12/29/2021 2:30:00 AM 2.53 36.554 0.137 7.09 5.33 12.82
12/29/2021 2:45:00 AM 2.52 36.536 0.136 7.09 5.48 12.82
12/29/2021 3:00:00 AM 2.51 36.518 0.136 7.1 5.76 12.82
12/29/2021 3:15:00 AM 2.51 36.518 0.137 7.09 5.68 12.83
12/29/2021 3:30:00 AM 2.5 36.5 0.136 7.08 5.49 12.83
12/29/2021 3:45:00 AM 2.5 36.5 0.136 7.08 5.49 12.83
12/29/2021 4:00:00 AM 2.49 36.482 0.136 7.1 5.53 12.83
12/29/2021 4:15:00 AM 2.49 36.482 0.136 7.09 5.58 12.83
12/29/2021 4:30:00 AM 2.48 36.464 0.136 7.1 5.54 12.84
12/29/2021 4:45:00 AM 2.48 36.464 0.136 7.09 5.77 12.84
12/29/2021 5:00:00 AM 2.48 36.464 0.136 7.08 5.71 12.84
12/29/2021 5:15:00 AM 2.47 36.446 0.136 7.08 5.73 12.84
12/29/2021 5:30:00 AM 2.48 36.464 0.136 7.08 5.18 12.84
12/29/2021 5:45:00 AM 2.48 36.464 0.136 7.07 5.38 12.84
12/29/2021 6:00:00 AM 2.48 36.464 0.136 7.07 5.73 12.84
12/29/2021 6:15:00 AM 2.48 36.464 0.136 7.06 5.65 12.84
12/29/2021 6:30:00 AM 2.48 36.464 0.136 7.05 5.94 12.84
12/29/2021 6:45:00 AM 2.48 36.464 0.137 7.08 5.42 12.84
12/29/2021 7:00:00 AM 2.49 36.482 0.137 7.06 5.64 12.84
12/29/2021 7:15:00 AM 2.49 36.482 0.137 7.06 5.69 12.84
12/29/2021 7:30:00 AM 2.49 36.482 0.137 7.06 5.6 12.84
12/29/2021 7:45:00 AM 2.49 36.482 0.137 7.07 5.82 12.85
12/29/2021 8:00:00 AM 2.49 36.482 0.137 7.07 6.35 12.86
12/29/2021 8:15:00 AM 2.5 36.5 0.138 7.06 5.73 12.87
12/29/2021 8:30:00 AM 2.51 36.518 0.138 7.07 6.18 12.9
12/29/2021 8:45:00 AM 2.52 36.536 0.138 7.08 5.91 12.94
12/29/2021 9:00:00 AM 2.53 36.554 0.138 7.1 5.83 12.99
12/29/2021 9:15:00 AM 2.54 36.572 0.138 7.1 6.23 13.02
12/29/2021 9:30:00 AM 2.55 36.59 0.139 7.11 5.96 13.06
12/29/2021 9:45:00 AM 2.57 36.626 0.139 7.12 6.17 13.1
12/29/2021 10:00:00 AM 2.58 36.644 0.139 7.12 5.85 13.14
12/29/2021 10:15:00 AM 2.6 36.68 0.139 7.14 6.16 13.18
12/29/2021 10:30:00 AM 2.63 36.734 0.139 7.15 5.87 13.23
12/29/2021 10:45:00 AM 2.66 36.788 0.139 7.17 6.1 13.3
12/29/2021 11:00:00 AM 2.7 36.86 0.139 7.19 6.02 13.37
12/29/2021 11:15:00 AM 2.74 36.932 0.136 7.21 6 13.44
12/29/2021 11:30:00 AM 2.79 37.022 0.139 7.23 6.48 13.5
12/29/2021 11:45:00 AM 2.84 37.112 0.139 7.24 6.44 13.54
12/29/2021 12:00:00 PM 2.9 37.22 0.139 7.26 6.58 13.57
12/29/2021 12:15:00 PM 2.97 37.346 0.138 7.28 6.26 13.62
12/29/2021 12:30:00 PM 3.03 37.454 0.138 7.33 6.31 13.64
12/29/2021 12:45:00 PM 3.06 37.508 0.138 7.32 6.14 13.62
12/29/2021 1:00:00 PM 3.1 37.58 0.138 7.32 6.35 13.59
12/29/2021 1:15:00 PM 3.13 37.634 0.138 7.32 6.07 13.57
12/29/2021 1:30:00 PM 3.17 37.706 0.138 7.33 6.56 13.55
12/29/2021 1:45:00 PM 3.21 37.778 0.138 7.33 6.45 13.54
12/29/2021 2:00:00 PM 3.26 37.868 0.136 7.34 6.14 13.52
12/29/2021 2:15:00 PM 3.3 37.94 0.138 7.34 6.55 13.52
12/29/2021 2:30:00 PM 3.37 38.066 0.138 7.35 6.59 13.51
12/29/2021 2:45:00 PM 3.41 38.138 0.138 7.35 6.72 13.5
12/29/2021 3:00:00 PM 3.44 38.192 0.139 7.35 6.78 13.45
12/29/2021 3:15:00 PM 3.47 38.246 0.139 7.35 6.45 13.39
12/29/2021 3:30:00 PM 3.49 38.282 0.139 7.33 7.18 13.31
12/29/2021 3:45:00 PM 3.51 38.318 0.139 7.29 6.72 13.24
12/29/2021 4:00:00 PM 3.52 38.336 0.139 7.27 6.71 13.19
12/29/2021 4:15:00 PM 3.54 38.372 0.139 7.27 6.74 13.14
12/29/2021 4:30:00 PM 3.55 38.39 0.14 7.24 6.95 13.06
12/29/2021 4:45:00 PM 3.55 38.39 0.14 7.21 7.38 12.97
12/29/2021 5:00:00 PM 3.56 38.408 0.14 7.18 7.51 12.89
12/29/2021 5:15:00 PM 3.56 38.408 0.14 7.17 7.84 12.82
12/29/2021 5:30:00 PM 3.56 38.408 0.14 7.14 7.6 12.77
12/29/2021 5:45:00 PM 3.57 38.426 0.139 7.13 8.74 12.73
12/29/2021 6:00:00 PM 3.57 38.426 0.14 7.12 8.13 12.7
12/29/2021 6:15:00 PM 3.58 38.444 0.14 7.11 8.35 12.68
12/29/2021 6:30:00 PM 3.58 38.444 0.139 7.1 8.83 12.65
12/29/2021 6:45:00 PM 3.59 38.462 0.139 7.11 9.35 12.64
12/29/2021 7:00:00 PM 3.59 38.462 0.139 7.1 9.19 12.62
12/29/2021 7:15:00 PM 3.59 38.462 0.139 7.11 9.22 12.61
12/29/2021 7:30:00 PM 3.6 38.48 0.139 7.11 9.55 12.59
12/29/2021 7:45:00 PM 3.6 38.48 0.138 7.09 10.07 12.58
12/29/2021 8:00:00 PM 3.61 38.498 0.138 7.08 10.26 12.57
12/29/2021 8:15:00 PM 3.61 38.498 0.138 7.09 10.05 12.57
12/29/2021 8:30:00 PM 3.62 38.516 0.138 7.09 9.96 12.56
12/29/2021 8:45:00 PM 3.62 38.516 0.137 7.07 10.52 12.55
12/29/2021 9:00:00 PM 3.62 38.516 0.137 7.06 10.96 12.54
12/29/2021 9:15:00 PM 3.62 38.516 0.137 7.06 10.25 12.54
12/29/2021 9:30:00 PM 3.63 38.534 0.136 7.07 9.98 12.53
12/29/2021 9:45:00 PM 3.63 38.534 0.136 7.06 9.82 12.53
12/29/2021 10:00:00 PM 3.63 38.534 0.128 7.06 9.81 12.52
12/29/2021 10:15:00 PM 3.63 38.534 0.136 7.06 9.6 12.52
12/29/2021 10:30:00 PM 3.63 38.534 0.135 7.07 9.14 12.52
12/29/2021 10:45:00 PM 3.63 38.534 0.135 7.05 9.42 12.52
12/29/2021 11:00:00 PM 3.62 38.516 0.134 7.05 9.69 12.51
12/29/2021 11:15:00 PM 3.61 38.498 0.134 7.05 8.66 12.51
12/29/2021 11:30:00 PM 3.61 38.498 0.134 7.03 9.34 12.51
12/29/2021 11:45:00 PM 3.61 38.498 0.134 7.04 8.8 12.51
12/30/2021 12:00:00 AM 3.61 38.498 0.134 6.98 8.7 12.51
12/30/2021 12:15:00 AM 3.6 38.48 0.134 7.03 9.1 12.51
12/30/2021 12:30:00 AM 3.6 38.48 0.133 7.03 7.99 12.51
12/30/2021 12:45:00 AM 3.6 38.48 0.133 7.02 7.93 12.51
12/30/2021 1:00:00 AM 3.6 38.48 0.133 7.02 8.56 12.51
12/30/2021 1:15:00 AM 3.6 38.48 0.133 7.03 7.99 12.51
12/30/2021 1:30:00 AM 3.6 38.48 0.133 7.04 8.37 12.5
12/30/2021 1:45:00 AM 3.6 38.48 0.133 7.04 7.99 12.5
12/30/2021 2:00:00 AM 3.59 38.462 0.133 7.03 7.97 12.5
12/30/2021 2:15:00 AM 3.59 38.462 0.133 7.05 7.8 12.5
12/30/2021 2:30:00 AM 3.6 38.48 0.132 7.04 7.68 12.5
12/30/2021 2:45:00 AM 3.6 38.48 0.132 7.05 8.44 12.5
12/30/2021 3:00:00 AM 3.6 38.48 0.132 7.04 7.37 12.49
12/30/2021 3:15:00 AM 3.6 38.48 0.132 7.02 7.55 12.5
12/30/2021 3:30:00 AM 3.6 38.48 0.132 7.02 7.61 12.49
12/30/2021 3:45:00 AM 3.6 38.48 0.132 7.03 7.23 12.49
12/30/2021 4:00:00 AM 3.6 38.48 0.132 7.02 7.05 12.49
12/30/2021 4:15:00 AM 3.6 38.48 0.132 7.03 7.39 12.49
12/30/2021 4:30:00 AM 3.61 38.498 0.132 7.03 7.14 12.49
12/30/2021 4:45:00 AM 3.61 38.498 0.132 7.03 6.83 12.49
12/30/2021 5:00:00 AM 3.61 38.498 0.132 7.03 6.77 12.48
12/30/2021 5:15:00 AM 3.61 38.498 0.132 7.03 6.63 12.49
12/30/2021 5:30:00 AM 3.61 38.498 0.132 7.03 6.79 12.48
12/30/2021 5:45:00 AM 3.62 38.516 0.132 7.03 6.75 12.48
12/30/2021 6:00:00 AM 3.62 38.516 0.132 7.05 7.07 12.48
12/30/2021 6:15:00 AM 3.62 38.516 0.131 7.02 6.43 12.48
12/30/2021 6:30:00 AM 3.62 38.516 0.132 7.04 6.18 12.48
12/30/2021 6:45:00 AM 3.62 38.516 0.132 7.03 6.82 12.48
12/30/2021 7:00:00 AM 3.62 38.516 0.132 7.03 6.75 12.48
12/30/2021 7:15:00 AM 3.63 38.534 0.132 7.03 6.72 12.48
12/30/2021 7:30:00 AM 3.63 38.534 0.132 7.02 6.29 12.48
12/30/2021 7:45:00 AM 3.63 38.534 0.132 7.04 6.36 12.48
12/30/2021 8:00:00 AM 3.63 38.534 0.132 7.03 6.33 12.49
12/30/2021 8:15:00 AM 3.64 38.552 0.132 7.03 6.25 12.51
12/30/2021 8:30:00 AM 3.64 38.552 0.132 7.04 5.99 12.53
12/30/2021 8:45:00 AM 3.65 38.57 0.132 7.04 5.83 12.55
12/30/2021 9:00:00 AM 3.66 38.588 0.132 7.05 6.29 12.6
12/30/2021 9:15:00 AM 3.67 38.606 0.132 7.07 6.32 12.64
12/30/2021 9:30:00 AM 3.68 38.624 0.132 7.07 6.18 12.69
12/30/2021 9:45:00 AM 3.7 38.66 0.132 7.1 5.57 12.76
12/30/2021 10:00:00 AM 3.72 38.696 0.132 7.11 5.88 12.81
12/30/2021 10:15:00 AM 3.75 38.75 0.132 7.13 5.6 12.88
12/30/2021 10:30:00 AM 3.77 38.786 0.132 7.16 5.86 12.94
12/30/2021 10:45:00 AM 3.8 38.84 0.132 7.17 5.62 12.99
12/30/2021 11:00:00 AM 3.83 38.894 0.132 7.19 5.72 13.04
12/30/2021 11:15:00 AM 3.85 38.93 0.132 7.2 5.63 13.08
12/30/2021 11:30:00 AM 3.88 38.984 0.132 7.23 5.72 13.11
12/30/2021 11:45:00 AM 3.91 39.038 0.132 7.23 5.75 13.14
12/30/2021 12:00:00 PM 3.94 39.092 0.132 7.25 5.44 13.16
12/30/2021 12:15:00 PM 3.99 39.182 0.132 7.27 5.46 13.2
12/30/2021 12:30:00 PM 4.04 39.272 0.131 7.3 5.36 13.26
12/30/2021 12:45:00 PM 4.09 39.362 0.132 7.3 5.44 13.27
12/30/2021 1:00:00 PM 4.14 39.452 0.131 7.33 5.12 13.3
12/30/2021 1:15:00 PM 4.18 39.524 0.131 7.34 5.49 13.3
12/30/2021 1:30:00 PM 4.22 39.596 0.131 7.36 5.57 13.3
12/30/2021 1:45:00 PM 4.25 39.65 0.131 7.37 5.15 13.28
12/30/2021 2:00:00 PM 4.28 39.704 0.131 7.37 5.27 13.25
12/30/2021 2:15:00 PM 4.31 39.758 0.131 7.38 5.54 13.22
12/30/2021 2:30:00 PM 4.32 39.776 0.131 7.34 5.4 13.19
12/30/2021 2:45:00 PM 4.34 39.812 0.131 7.33 5.47 13.13
12/30/2021 3:00:00 PM 4.36 39.848 0.131 7.33 5.34 13.08
12/30/2021 3:15:00 PM 4.39 39.902 0.131 7.34 5.14 13.06
12/30/2021 3:30:00 PM 4.4 39.92 0.131 7.31 5.1 13.04
12/30/2021 3:45:00 PM 4.41 39.938 0.131 7.31 5.14 12.95
12/30/2021 4:00:00 PM 4.42 39.956 0.131 7.26 5.03 12.86
12/30/2021 4:15:00 PM 4.42 39.956 0.131 7.25 5.06 12.75
12/30/2021 4:30:00 PM 4.43 39.974 0.127 7.2 5.85 12.66
12/30/2021 4:45:00 PM 4.43 39.974 0.132 7.18 5.07 12.58
12/30/2021 5:00:00 PM 4.43 39.974 0.131 7.15 4.98 12.51
12/30/2021 5:15:00 PM 4.43 39.974 0.131 7.15 5.14 12.46
12/30/2021 5:30:00 PM 4.43 39.974 0.131 7.13 4.97 12.41
12/30/2021 5:45:00 PM 4.43 39.974 0.131 7.14 5.17 12.38
12/30/2021 6:00:00 PM 4.43 39.974 0.131 7.11 5.08 12.35
12/30/2021 6:15:00 PM 4.43 39.974 0.131 7.11 5.01 12.33
12/30/2021 6:30:00 PM 4.43 39.974 0.132 7.09 4.96 12.31
12/30/2021 6:45:00 PM 4.43 39.974 0.132 7.08 5.15 12.29
12/30/2021 7:00:00 PM 4.43 39.974 0.131 7.08 5.1 12.28
12/30/2021 7:15:00 PM 4.43 39.974 0.131 7.07 5.12 12.26
12/30/2021 7:30:00 PM 4.44 39.992 0.131 7.1 5.19 12.25
12/30/2021 7:45:00 PM 4.44 39.992 0.131 7.07 5.01 12.23
12/30/2021 8:00:00 PM 4.44 39.992 0.131 7.07 5.2 12.23
12/30/2021 8:15:00 PM 4.45 40.01 0.131 7.08 5.12 12.22
12/30/2021 8:30:00 PM 4.45 40.01 0.131 7.05 5.01 12.21
12/30/2021 8:45:00 PM 4.45 40.01 0.131 7.04 5.29 12.21
12/30/2021 9:00:00 PM 4.44 39.992 0.131 7.04 4.93 12.2
12/30/2021 9:15:00 PM 4.43 39.974 0.131 7.04 5.09 12.2
12/30/2021 9:30:00 PM 4.44 39.992 0.131 7.03 4.89 12.2
12/30/2021 9:45:00 PM 4.44 39.992 0.131 7.05 4.9 12.19
12/30/2021 10:00:00 PM 4.44 39.992 0.131 7.03 4.98 12.19
12/30/2021 10:15:00 PM 4.45 40.01 0.131 7.02 5.09 12.18
12/30/2021 10:30:00 PM 4.46 40.028 0.131 7.04 5.08 12.18
12/30/2021 10:45:00 PM 4.46 40.028 0.131 7.03 4.92 12.17
12/30/2021 11:00:00 PM 4.46 40.028 0.131 7.03 4.85 12.17
12/30/2021 11:15:00 PM 4.46 40.028 0.131 7.04 5.12 12.17
12/30/2021 11:30:00 PM 4.46 40.028 0.131 7.02 4.92 12.17
12/30/2021 11:45:00 PM 4.46 40.028 0.132 7.04 5.07 12.17
12/31/2021 12:00:00 AM 4.46 40.028 0.132 7.05 5.01 12.17
12/31/2021 12:15:00 AM 4.46 40.028 0.131 7.03 5.03 12.16
12/31/2021 12:30:00 AM 4.46 40.028 0.132 7.03 4.99 12.17
12/31/2021 12:45:00 AM 4.47 40.046 0.132 7.03 5.08 12.17
12/31/2021 1:00:00 AM 4.47 40.046 0.132 7.02 5.04 12.17
12/31/2021 1:15:00 AM 4.46 40.028 0.132 7.04 5.16 12.17
12/31/2021 1:30:00 AM 4.46 40.028 0.132 7.03 5.52 12.17
12/31/2021 1:45:00 AM 4.46 40.028 0.132 7.04 5.4 12.16
12/31/2021 2:00:00 AM 4.46 40.028 0.131 7.04 5.81 12.17
12/31/2021 2:15:00 AM 4.45 40.01 0.132 7.06 5.48 12.17
12/31/2021 2:30:00 AM 4.45 40.01 0.132 7.04 5.84 12.17
12/31/2021 2:45:00 AM 4.45 40.01 0.132 7.03 5.75 12.17
12/31/2021 3:00:00 AM 4.45 40.01 0.132 7.03 8.08 12.17
12/31/2021 3:15:00 AM 4.45 40.01 0.132 7.04 6.11 12.17
12/31/2021 3:30:00 AM 4.45 40.01 0.129 7.05 6.65 12.17
12/31/2021 3:45:00 AM 4.45 40.01 0.132 7.04 6.24 12.17
12/31/2021 4:00:00 AM 4.45 40.01 0.132 7.04 6.24 12.17
12/31/2021 4:15:00 AM 4.44 39.992 0.132 7.04 6.85 12.17
12/31/2021 4:30:00 AM 4.44 39.992 0.132 7.04 6.53 12.17
12/31/2021 4:45:00 AM 4.44 39.992 0.133 7.02 6.5 12.17
12/31/2021 5:00:00 AM 4.44 39.992 0.132 7.03 6.64 12.17
12/31/2021 5:15:00 AM 4.44 39.992 0.132 7.04 6.27 12.17
12/31/2021 5:30:00 AM 4.44 39.992 0.132 7.03 6.27 12.17
12/31/2021 5:45:00 AM 4.44 39.992 0.132 7.05 6 12.16
12/31/2021 6:00:00 AM 4.44 39.992 0.133 7.03 6.63 12.16
12/31/2021 6:15:00 AM 4.44 39.992 0.133 7.04 6.37 12.16
12/31/2021 6:30:00 AM 4.44 39.992 0.133 7.05 5.97 12.16
12/31/2021 6:45:00 AM 4.44 39.992 0.132 7.05 5.91 12.16
12/31/2021 7:00:00 AM 4.44 39.992 0.133 7.04 6.34 12.17
12/31/2021 7:15:00 AM 4.44 39.992 0.133 7.04 5.69 12.16
12/31/2021 7:30:00 AM 4.44 39.992 0.133 7.03 5.84 12.16
12/31/2021 7:45:00 AM 4.44 39.992 0.133 7.03 5.83 12.17
12/31/2021 8:00:00 AM 4.44 39.992 0.133 7.03 5.58 12.18
12/31/2021 8:15:00 AM 4.45 40.01 0.133 7.04 5.24 12.2
12/31/2021 8:30:00 AM 4.45 40.01 0.133 7.06 5.48 12.24
12/31/2021 8:45:00 AM 4.46 40.028 0.133 7.08 5.48 12.32
12/31/2021 9:00:00 AM 4.48 40.064 0.132 7.09 5.17 12.46
12/31/2021 9:15:00 AM 4.5 40.1 0.133 7.13 5.37 12.6
12/31/2021 9:30:00 AM 4.53 40.154 0.132 7.17 5.08 12.73
12/31/2021 9:45:00 AM 4.56 40.208 0.132 7.19 5.52 12.82
12/31/2021 10:00:00 AM 4.6 40.28 0.132 7.22 5.07 12.88
12/31/2021 10:15:00 AM 4.62 40.316 0.132 7.25 4.92 12.92
12/31/2021 10:30:00 AM 4.67 40.406 0.132 7.28 4.85 12.98
12/31/2021 10:45:00 AM 4.72 40.496 0.132 7.3 5.14 13.05
12/31/2021 11:00:00 AM 4.77 40.586 0.132 7.34 4.85 13.09
12/31/2021 11:15:00 AM 4.89 40.802 0.132 7.34 4.87 13.15
12/31/2021 11:30:00 AM 5.03 41.054 0.129 7.38 4.73 13.21
12/31/2021 11:45:00 AM 5.13 41.234 0.132 7.41 4.92 13.23
12/31/2021 12:00:00 PM 5.23 41.414 0.132 7.43 5.02 13.24
12/31/2021 12:15:00 PM 5.33 41.594 0.132 7.45 4.98 13.23
12/31/2021 12:30:00 PM 5.41 41.738 0.132 7.47 5.14 13.24
12/31/2021 12:45:00 PM 5.52 41.936 0.131 7.49 4.84 13.24
12/31/2021 1:00:00 PM 5.58 42.044 0.131 7.5 4.6 13.21
12/31/2021 1:15:00 PM 5.61 42.098 0.132 7.5 4.83 13.18
12/31/2021 1:30:00 PM 5.64 42.152 0.131 7.49 4.69 13.11
12/31/2021 1:45:00 PM 5.67 42.206 0.131 7.5 4.65 13.04
12/31/2021 2:00:00 PM 5.68 42.224 0.131 7.47 4.78 12.99
12/31/2021 2:15:00 PM 5.69 42.242 0.132 7.48 4.68 12.96
12/31/2021 2:30:00 PM 5.7 42.26 0.132 7.46 4.77 12.91
12/31/2021 2:45:00 PM 5.72 42.296 0.131 7.45 4.57 12.87
12/31/2021 3:00:00 PM 5.76 42.368 0.131 7.48 4.41 12.88
12/31/2021 3:15:00 PM 5.8 42.44 0.131 7.46 4.58 12.88
12/31/2021 3:30:00 PM 5.83 42.494 0.131 7.46 4.53 12.86
12/31/2021 3:45:00 PM 5.85 42.53 0.131 7.45 4.54 12.79
12/31/2021 4:00:00 PM 5.85 42.53 0.131 7.41 4.48 12.7
12/31/2021 4:15:00 PM 5.83 42.494 0.131 7.36 4.52 12.59
12/31/2021 4:30:00 PM 5.81 42.458 0.131 7.34 4.76 12.47
12/31/2021 4:45:00 PM 5.79 42.422 0.131 7.27 4.83 12.36
12/31/2021 5:00:00 PM 5.76 42.368 0.131 7.24 4.59 12.26
12/31/2021 5:15:00 PM 5.73 42.314 0.131 7.2 4.44 12.15
12/31/2021 5:30:00 PM 5.7 42.26 0.132 7.18 4.43 12.08
12/31/2021 5:45:00 PM 5.66 42.188 0.132 7.16 4.28 12.03
12/31/2021 6:00:00 PM 5.64 42.152 0.132 7.14 4.63 11.99
12/31/2021 6:15:00 PM 5.61 42.098 0.132 7.12 4.69 11.96
12/31/2021 6:30:00 PM 5.59 42.062 0.132 7.13 4.57 11.94
12/31/2021 6:45:00 PM 5.56 42.008 0.132 7.09 4.55 11.92
12/31/2021 7:00:00 PM 5.54 41.972 0.132 7.1 4.52 11.91
12/31/2021 7:15:00 PM 5.52 41.936 0.132 7.06 4.58 11.89
12/31/2021 7:30:00 PM 5.49 41.882 0.125 7.07 4.44 11.88
12/31/2021 7:45:00 PM 5.47 41.846 0.132 7.07 4.53 11.87
12/31/2021 8:00:00 PM 5.44 41.792 0.132 7.06 4.54 11.87
12/31/2021 8:15:00 PM 5.42 41.756 0.132 7.05 4.44 11.86
12/31/2021 8:30:00 PM 5.39 41.702 0.132 7.07 4.56 11.86
12/31/2021 8:45:00 PM 5.37 41.666 0.132 7.06 4.38 11.85
12/31/2021 9:00:00 PM 5.35 41.63 0.132 7.05 4.73 11.85
12/31/2021 9:15:00 PM 5.34 41.612 0.132 7.04 4.39 11.85
12/31/2021 9:30:00 PM 5.32 41.576 0.132 6.97 4.47 11.85
12/31/2021 9:45:00 PM 5.31 41.558 0.132 7.03 4.42 11.85
12/31/2021 10:00:00 PM 5.3 41.54 0.132 7.03 4.71 11.85
12/31/2021 10:15:00 PM 5.29 41.522 0.132 7.04 4.6 11.85
12/31/2021 10:30:00 PM 5.29 41.522 0.132 7.02 4.5 11.85
12/31/2021 10:45:00 PM 5.28 41.504 0.132 6.97 4.62 11.84
12/31/2021 11:00:00 PM 5.28 41.504 0.132 7.02 4.41 11.85
12/31/2021 11:15:00 PM 5.27 41.486 0.132 7.02 4.59 11.85
12/31/2021 11:30:00 PM 5.27 41.486 0.132 7.01 4.42 11.84
12/31/2021 11:45:00 PM 5.26 41.468 0.132 7.04 4.39 11.85
1/1/2022 12:00:00 AM 5.26 41.468 0.132 7.03 4.62 11.85
1/1/2022 12:15:00 AM 5.25 41.45 0.132 7.03 4.66 11.84
1/1/2022 12:30:00 AM 5.24 41.432 0.132 7.03 4.46 11.85
1/1/2022 12:45:00 AM 5.24 41.432 0.132 7.03 4.71 11.85
1/1/2022 1:00:00 AM 5.24 41.432 0.133 7.03 4.82 11.84
1/1/2022 1:15:00 AM 5.23 41.414 0.133 7.01 4.54 11.85
1/1/2022 1:30:00 AM 5.23 41.414 0.132 7.02 4.66 11.85
1/1/2022 1:45:00 AM 5.23 41.414 0.132 7.02 4.61 11.85
1/1/2022 2:00:00 AM 5.23 41.414 0.133 7.01 4.51 11.85
1/1/2022 2:15:00 AM 5.23 41.414 0.133 7.01 4.62 11.85
1/1/2022 2:30:00 AM 5.22 41.396 0.133 7.03 4.59 11.85
1/1/2022 2:45:00 AM 5.22 41.396 0.133 7.03 4.73 11.85
1/1/2022 3:00:00 AM 5.22 41.396 0.133 7.02 4.76 11.85
1/1/2022 3:15:00 AM 5.22 41.396 0.133 7.02 4.73 11.85
1/1/2022 3:30:00 AM 5.22 41.396 0.127 7.04 4.96 11.85
1/1/2022 3:45:00 AM 5.21 41.378 0.133 7.03 4.72 11.85
1/1/2022 4:00:00 AM 5.21 41.378 0.133 7.04 4.96 11.85
1/1/2022 4:15:00 AM 5.21 41.378 0.133 7.04 4.82 11.85
1/1/2022 4:30:00 AM 5.2 41.36 0.133 7.03 4.67 11.85
1/1/2022 4:45:00 AM 5.2 41.36 0.133 7.01 4.72 11.85
1/1/2022 5:00:00 AM 5.2 41.36 0.133 7.02 4.8 11.84
1/1/2022 5:15:00 AM 5.2 41.36 0.133 7.02 4.61 11.84
1/1/2022 5:30:00 AM 5.2 41.36 0.132 7.03 4.54 11.85
1/1/2022 5:45:00 AM 5.2 41.36 0.134 7.03 4.74 11.84
1/1/2022 6:00:00 AM 5.2 41.36 0.134 7 4.68 11.84
1/1/2022 6:15:00 AM 5.2 41.36 0.133 7.01 4.68 11.84
1/1/2022 6:30:00 AM 5.2 41.36 0.134 7 4.52 11.84
1/1/2022 6:45:00 AM 5.19 41.342 0.134 7.03 4.56 11.84
1/1/2022 7:00:00 AM 5.19 41.342 0.134 7.02 4.98 11.84
1/1/2022 7:15:00 AM 5.19 41.342 0.134 7.01 4.42 11.84
1/1/2022 7:30:00 AM 5.18 41.324 0.134 7.03 6.33 11.84
1/1/2022 7:45:00 AM 5.18 41.324 0.134 7.04 4.27 11.84
1/1/2022 8:00:00 AM 5.17 41.306 0.134 7.04 4.53 11.85
1/1/2022 8:15:00 AM 5.18 41.324 0.134 7.06 4.38 11.87
1/1/2022 8:30:00 AM 5.19 41.342 0.134 7.05 4.5 11.93
1/1/2022 8:45:00 AM 5.2 41.36 0.134 7.06 4.46 12
1/1/2022 9:00:00 AM 5.21 41.378 0.134 7.08 4.53 12.06
1/1/2022 9:15:00 AM 5.22 41.396 0.134 7.1 4.3 12.1
1/1/2022 9:30:00 AM 5.24 41.432 0.134 7.12 4.55 12.14
1/1/2022 9:45:00 AM 5.26 41.468 0.134 7.13 4.56 12.23
1/1/2022 10:00:00 AM 5.28 41.504 0.134 7.14 4.38 12.34
1/1/2022 10:15:00 AM 5.31 41.558 0.134 7.17 4.56 12.42
1/1/2022 10:30:00 AM 5.34 41.612 0.133 7.17 4.07 12.46
1/1/2022 10:45:00 AM 5.37 41.666 0.134 7.19 4.21 12.49
1/1/2022 11:00:00 AM 5.4 41.72 0.132 7.24 4.31 12.53
1/1/2022 11:15:00 AM 5.43 41.774 0.134 7.23 4.19 12.54
1/1/2022 11:30:00 AM 5.46 41.828 0.134 7.21 4.28 12.53
1/1/2022 11:45:00 AM 5.49 41.882 0.134 7.23 4.29 12.54
1/1/2022 12:00:00 PM 5.54 41.972 0.134 7.26 4.15 12.58
1/1/2022 12:15:00 PM 5.57 42.026 0.134 7.26 4.15 12.57
1/1/2022 12:30:00 PM 5.6 42.08 0.134 7.28 4.16 12.58
1/1/2022 12:45:00 PM 5.63 42.134 0.134 7.28 4.12 12.59
1/1/2022 1:00:00 PM 5.67 42.206 0.134 7.29 4.15 12.62
1/1/2022 1:15:00 PM 5.7 42.26 0.134 7.3 4.12 12.64
1/1/2022 1:30:00 PM 5.74 42.332 0.134 7.32 4.26 12.63
1/1/2022 1:45:00 PM 5.76 42.368 0.134 7.32 4.29 12.62
1/1/2022 2:00:00 PM 5.78 42.404 0.134 7.33 4.32 12.62
1/1/2022 2:15:00 PM 5.81 42.458 0.133 7.34 4.03 12.62
1/1/2022 2:30:00 PM 5.83 42.494 0.134 7.33 4.28 12.62
1/1/2022 2:45:00 PM 5.84 42.512 0.134 7.35 4.23 12.59
1/1/2022 3:00:00 PM 5.86 42.548 0.133 7.32 4.35 12.56
1/1/2022 3:15:00 PM 5.87 42.566 0.133 7.3 4.26 12.51
1/1/2022 3:30:00 PM 5.89 42.602 0.133 7.31 4.38 12.44
1/1/2022 3:45:00 PM 5.9 42.62 0.133 7.29 4.51 12.39
1/1/2022 4:00:00 PM 5.9 42.62 0.133 7.26 4.35 12.26
1/1/2022 4:15:00 PM 5.91 42.638 0.133 7.24 4.14 12.21
1/1/2022 4:30:00 PM 5.91 42.638 0.133 7.2 4.41 12.12
1/1/2022 4:45:00 PM 5.91 42.638 0.133 7.17 4.42 12.03
1/1/2022 5:00:00 PM 5.92 42.656 0.133 7.13 4.44 11.96
1/1/2022 5:15:00 PM 5.92 42.656 0.133 7.12 4.36 11.89
1/1/2022 5:30:00 PM 5.92 42.656 0.133 7.09 4.56 11.83
1/1/2022 5:45:00 PM 5.93 42.674 0.132 7.1 4.39 11.8
1/1/2022 6:00:00 PM 5.93 42.674 0.132 7.07 4.42 11.76
1/1/2022 6:15:00 PM 5.93 42.674 0.132 7.07 4.66 11.74
1/1/2022 6:30:00 PM 5.93 42.674 0.132 7.06 4.61 11.72
1/1/2022 6:45:00 PM 5.93 42.674 0.132 7.03 4.4 11.7
1/1/2022 7:00:00 PM 5.93 42.674 0.132 7.08 4.59 11.68
1/1/2022 7:15:00 PM 5.93 42.674 0.132 7.06 4.67 11.67
1/1/2022 7:30:00 PM 5.93 42.674 0.131 7.04 4.47 11.66
1/1/2022 7:45:00 PM 5.94 42.692 0.132 7.03 4.54 11.64
1/1/2022 8:00:00 PM 5.94 42.692 0.131 7.02 4.53 11.64
1/1/2022 8:15:00 PM 5.94 42.692 0.131 7.04 4.42 11.63
1/1/2022 8:30:00 PM 5.95 42.71 0.131 7.04 4.66 11.62
1/1/2022 8:45:00 PM 5.94 42.692 0.131 7.05 4.81 11.61
1/1/2022 9:00:00 PM 5.94 42.692 0.131 7.03 4.66 11.61
1/1/2022 9:15:00 PM 5.94 42.692 0.131 7.04 5.01 11.61
1/1/2022 9:30:00 PM 5.93 42.674 0.131 7.02 4.84 11.61
1/1/2022 9:45:00 PM 5.92 42.656 0.131 7.07 4.71 11.6
1/1/2022 10:00:00 PM 5.91 42.638 0.131 7.03 4.8 11.6
1/1/2022 10:15:00 PM 5.9 42.62 0.131 7.03 4.6 11.6
1/1/2022 10:30:00 PM 5.89 42.602 0.131 7.05 4.48 11.6
1/1/2022 10:45:00 PM 5.87 42.566 0.118 7.05 4.68 11.59
1/1/2022 11:00:00 PM 5.85 42.53 0.131 7.05 4.75 11.6
1/1/2022 11:15:00 PM 5.83 42.494 0.131 7.02 4.87 11.6
1/1/2022 11:30:00 PM 5.81 42.458 0.131 7.03 4.7 11.6
1/1/2022 11:45:00 PM 5.79 42.422 0.131 7.04 4.88 11.61
1/2/2022 12:00:00 AM 5.76 42.368 0.131 7.01 4.68 11.61
1/2/2022 12:15:00 AM 5.73 42.314 0.131 7.04 4.87 11.62
1/2/2022 12:30:00 AM 5.7 42.26 0.131 6.94 5.03 11.63
1/2/2022 12:45:00 AM 5.67 42.206 0.131 7.03 4.77 11.64
1/2/2022 1:00:00 AM 5.64 42.152 0.131 7.04 4.86 11.65
1/2/2022 1:15:00 AM 5.62 42.116 0.131 7.05 5.03 11.66
1/2/2022 1:30:00 AM 5.59 42.062 0.131 7.06 4.92 11.67
1/2/2022 1:45:00 AM 5.56 42.008 0.132 7.04 5.29 11.67
1/2/2022 2:00:00 AM 5.54 41.972 0.132 7.05 5.17 11.68
1/2/2022 2:15:00 AM 5.51 41.918 0.133 7.04 5.41 11.69
1/2/2022 2:30:00 AM 5.49 41.882 0.125 7.04 7.5 11.7
1/2/2022 2:45:00 AM 5.47 41.846 0.133 7.06 5.88 11.71
1/2/2022 3:00:00 AM 5.44 41.792 0.133 7.03 5.96 11.72
1/2/2022 3:15:00 AM 5.41 41.738 0.133 7.04 5.59 11.73
1/2/2022 3:30:00 AM 5.38 41.684 0.133 7.05 5.42 11.74
1/2/2022 3:45:00 AM 5.34 41.612 0.134 7.05 5.92 11.75
1/2/2022 4:00:00 AM 5.3 41.54 0.134 7.06 6.02 11.76
1/2/2022 4:15:00 AM 5.27 41.486 0.134 7.06 5.91 11.77
1/2/2022 4:30:00 AM 5.24 41.432 0.134 7.06 6.37 11.78
1/2/2022 4:45:00 AM 5.2 41.36 0.135 7.05 6.58 11.8
1/2/2022 5:00:00 AM 5.17 41.306 0.135 7.05 6.92 11.81
1/2/2022 5:15:00 AM 5.14 41.252 0.135 7.06 7.24 11.82
1/2/2022 5:30:00 AM 5.1 41.18 0.135 7.04 7.79 11.83
1/2/2022 5:45:00 AM 5.06 41.108 0.136 7.06 8.16 11.85
1/2/2022 6:00:00 AM 5.03 41.054 0.136 7.06 8.74 11.86
1/2/2022 6:15:00 AM 4.99 40.982 0.136 7.05 8.47 11.87
1/2/2022 6:30:00 AM 4.96 40.928 0.132 7.06 9.19 11.88
1/2/2022 6:45:00 AM 4.93 40.874 0.136 7.07 9.11 11.89
1/2/2022 7:00:00 AM 4.9 40.82 0.136 7.05 9.6 11.91
1/2/2022 7:15:00 AM 4.86 40.748 0.136 7.05 9.57 11.92
1/2/2022 7:30:00 AM 4.83 40.694 0.136 7.09 10.08 11.93
1/2/2022 7:45:00 AM 4.79 40.622 0.136 7.08 9.9 11.95
1/2/2022 8:00:00 AM 4.75 40.55 0.136 7.09 10.36 11.97
1/2/2022 8:15:00 AM 4.72 40.496 0.135 7.08 10.21 12
1/2/2022 8:30:00 AM 4.69 40.442 0.135 7.09 9.54 12.03
1/2/2022 8:45:00 AM 4.66 40.388 0.135 7.09 9.9 12.07
1/2/2022 9:00:00 AM 4.63 40.334 0.135 7.09 9.14 12.12
1/2/2022 9:15:00 AM 4.6 40.28 0.135 7.1 10.32 12.19
1/2/2022 9:30:00 AM 4.57 40.226 0.135 7.12 9.69 12.23
1/2/2022 9:45:00 AM 4.54 40.172 0.135 7.12 9.08 12.27
1/2/2022 10:00:00 AM 4.51 40.118 0.135 7.12 9.68 12.3
1/2/2022 10:15:00 AM 4.48 40.064 0.134 7.13 9.19 12.34
1/2/2022 10:30:00 AM 4.46 40.028 0.134 7.13 8.84 12.41
1/2/2022 10:45:00 AM 4.43 39.974 0.134 7.15 8.94 12.47
1/2/2022 11:00:00 AM 4.39 39.902 0.133 7.16 8.66 12.53
1/2/2022 11:15:00 AM 4.37 39.866 0.133 7.17 8.95 12.57
1/2/2022 11:30:00 AM 4.36 39.848 0.133 7.21 8.93 12.68
1/2/2022 11:45:00 AM 4.34 39.812 0.133 7.19 8.97 12.73
1/2/2022 12:00:00 PM 4.32 39.776 0.128 7.24 8.64 12.78
1/2/2022 12:15:00 PM 4.33 39.794 0.132 7.24 8.96 12.84
1/2/2022 12:30:00 PM 4.32 39.776 0.132 7.26 8.77 12.87
1/2/2022 12:45:00 PM 4.31 39.758 0.132 7.26 8.96 12.89
1/2/2022 1:00:00 PM 4.29 39.722 0.132 7.27 8.46 12.89
1/2/2022 1:15:00 PM 4.27 39.686 0.132 7.27 8.12 12.89
1/2/2022 1:30:00 PM 4.25 39.65 0.132 7.27 7.91 12.9
1/2/2022 1:45:00 PM 4.23 39.614 0.131 7.25 7.85 12.9
1/2/2022 2:00:00 PM 4.21 39.578 0.131 7.27 8.03 12.9
1/2/2022 2:15:00 PM 4.2 39.56 0.131 7.28 7.92 12.92
1/2/2022 2:30:00 PM 4.19 39.542 0.131 7.27 7.47 12.92
1/2/2022 2:45:00 PM 4.16 39.488 0.131 7.28 7.73 12.91
1/2/2022 3:00:00 PM 4.11 39.398 0.131 7.24 7.87 12.88
1/2/2022 3:15:00 PM 4.07 39.326 0.131 7.24 7.32 12.83
1/2/2022 3:30:00 PM 4.02 39.236 0.131 7.23 8.05 12.78
1/2/2022 3:45:00 PM 3.97 39.146 0.131 7.19 7.17 12.72
1/2/2022 4:00:00 PM 3.92 39.056 0.13 7.19 7.18 12.69
1/2/2022 4:15:00 PM 3.87 38.966 0.131 7.19 7.09 12.67
1/2/2022 4:30:00 PM 3.83 38.894 0.131 7.15 6.99 12.65
1/2/2022 4:45:00 PM 3.8 38.84 0.131 7.13 7.48 12.62
1/2/2022 5:00:00 PM 3.76 38.768 0.131 7.14 6.93 12.6
1/2/2022 5:15:00 PM 3.72 38.696 0.131 7.11 6.82 12.59
1/2/2022 5:30:00 PM 3.69 38.642 0.13 7.1 7.15 12.58
1/2/2022 5:45:00 PM 3.66 38.588 0.131 7.11 6.84 12.57
1/2/2022 6:00:00 PM 3.63 38.534 0.131 7.11 6.97 12.57
1/2/2022 6:15:00 PM 3.6 38.48 0.131 7.12 6.94 12.57
1/2/2022 6:30:00 PM 3.56 38.408 0.131 7.07 6.51 12.57
1/2/2022 6:45:00 PM 3.53 38.354 0.124 7.09 6.17 12.58
1/2/2022 7:00:00 PM 3.49 38.282 0.131 7.08 6.3 12.59
1/2/2022 7:15:00 PM 3.46 38.228 0.131 7.08 6.03 12.59
1/2/2022 7:30:00 PM 3.43 38.174 0.131 7.08 6.53 12.6
1/2/2022 7:45:00 PM 3.4 38.12 0.131 7.07 6.05 12.61
1/2/2022 8:00:00 PM 3.36 38.048 0.12 7.11 5.91 12.62
1/2/2022 8:15:00 PM 3.33 37.994 0.122 7.1 6.32 12.63
1/2/2022 8:30:00 PM 3.3 37.94 0.131 7.08 7.42 12.64
1/2/2022 8:45:00 PM 3.26 37.868 0.131 7.08 5.88 12.65
1/2/2022 9:00:00 PM 3.23 37.814 0.131 7.08 6.06 12.66
1/2/2022 9:15:00 PM 3.2 37.76 0.131 7.08 6.05 12.67
1/2/2022 9:30:00 PM 3.16 37.688 0.131 7.08 6.11 12.68
1/2/2022 9:45:00 PM 3.13 37.634 0.131 7.09 5.92 12.69
1/2/2022 10:00:00 PM 3.09 37.562 0.131 7.08 5.9 12.7
1/2/2022 10:15:00 PM 3.05 37.49 0.131 7.08 5.83 12.72
1/2/2022 10:30:00 PM 3.02 37.436 0.131 7.07 5.75 12.73
1/2/2022 10:45:00 PM 2.98 37.364 0.131 7.07 5.78 12.74
1/2/2022 11:00:00 PM 2.93 37.274 0.132 7.07 6.06 12.76
1/2/2022 11:15:00 PM 2.89 37.202 0.132 7.06 5.72 12.77
1/2/2022 11:30:00 PM 2.84 37.112 0.131 7.08 5.85 12.79
1/2/2022 11:45:00 PM 2.8 37.04 0.131 7.08 5.82 12.8
1/3/2022 12:00:00 AM 2.75 36.95 0.132 7.07 5.57 12.82
1/3/2022 12:15:00 AM 2.71 36.878 0.124 7.08 5.91 12.83
1/3/2022 12:30:00 AM 2.66 36.788 0.124 7.06 6.25 12.85
1/3/2022 12:45:00 AM 2.61 36.698 0.132 7.07 5.47 12.87
1/3/2022 1:00:00 AM 2.55 36.59 0.132 7.05 5.43 12.89
1/3/2022 1:15:00 AM 2.49 36.482 0.123 7.05 5.44 12.91
1/3/2022 1:30:00 AM 2.43 36.374 0.132 7.08 5.67 12.93
1/3/2022 1:45:00 AM 2.38 36.284 0.132 7.08 5.29 12.95
1/3/2022 2:00:00 AM 2.33 36.194 0.132 7.07 5.49 12.97
1/3/2022 2:15:00 AM 2.29 36.122 0.133 7.07 5.42 12.99
1/3/2022 2:30:00 AM 2.26 36.068 0.132 7.06 5.4 13.01
1/3/2022 2:45:00 AM 2.23 36.014 0.124 7.07 5.13 13.02
1/3/2022 3:00:00 AM 2.19 35.942 0.124 7.09 5.43 13.04
1/3/2022 3:15:00 AM 2.14 35.852 0.132 7.09 5.22 13.06
1/3/2022 3:30:00 AM 2.1 35.78 0.132 7.09 5.05 13.08
1/3/2022 3:45:00 AM 2.05 35.69 0.132 7.08 5.22 13.1
1/3/2022 4:00:00 AM 2 35.6 0.124 7.1 5.27 13.12
1/3/2022 4:15:00 AM 1.95 35.51 0.132 7.08 5.17 13.14
1/3/2022 4:30:00 AM 1.9 35.42 0.126 7.08 5.33 13.16
1/3/2022 4:45:00 AM 1.85 35.33 0.133 7.08 5.14 13.18
1/3/2022 5:00:00 AM 1.78 35.204 0.132 7.08 5.14 13.2
1/3/2022 5:15:00 AM 1.73 35.114 0.133 7.06 5.38 13.22
1/3/2022 5:30:00 AM 1.69 35.042 0.124 7.07 5.42 13.24
1/3/2022 5:45:00 AM 1.65 34.97 0.133 7.07 5.18 13.25
1/3/2022 6:00:00 AM 1.61 34.898 0.124 7.07 5.18 13.27
1/3/2022 6:15:00 AM 1.57 34.826 0.124 7.07 5.09 13.29
1/3/2022 6:30:00 AM 1.54 34.772 0.132 7.06 5.06 13.3
1/3/2022 6:45:00 AM 1.5 34.7 0.124 7.06 4.83 13.32
1/3/2022 7:00:00 AM 1.47 34.646 0.124 7.07 4.85 13.33
1/3/2022 7:15:00 AM 1.44 34.592 0.125 7.06 5.22 13.35
1/3/2022 7:30:00 AM 1.39 34.502 0.124 7.07 4.9 13.37
1/3/2022 7:45:00 AM 1.35 34.43 0.125 7.08 4.81 13.38
1/3/2022 8:00:00 AM 1.32 34.376 0.125 7.07 4.95 13.41
1/3/2022 8:15:00 AM 1.28 34.304 0.125 7.07 4.81 13.45
1/3/2022 8:30:00 AM 1.26 34.268 0.124 7.07 5.43 13.51
1/3/2022 8:45:00 AM 1.23 34.214 0.124 7.11 5.02 13.6
1/3/2022 9:00:00 AM 1.21 34.178 0.125 7.14 5.01 13.68
1/3/2022 9:15:00 AM 1.2 34.16 0.125 7.14 5.02 13.78
1/3/2022 9:30:00 AM 1.2 34.16 0.124 7.14 5.15 13.89
1/3/2022 9:45:00 AM 1.19 34.142 0.124 7.19 4.94 13.98
1/3/2022 10:00:00 AM 1.19 34.142 0.124 7.19 4.84 14.07
1/3/2022 10:15:00 AM 1.19 34.142 0.124 7.2 5.02 14.14
1/3/2022 10:30:00 AM 1.19 34.142 0.124 7.22 4.73 14.19
1/3/2022 10:45:00 AM 1.2 34.16 0.124 7.26 4.61 14.24
1/3/2022 11:00:00 AM 1.21 34.178 0.125 7.26 4.6 14.29
1/3/2022 11:15:00 AM 1.23 34.214 0.124 7.27 4.58 14.33
1/3/2022 11:30:00 AM 1.25 34.25 0.123 7.29 4.61 14.38
1/3/2022 11:45:00 AM 1.27 34.286 0.124 7.3 4.74 14.41
1/3/2022 12:00:00 PM 1.29 34.322 0.124 7.33 4.71 14.44
1/3/2022 12:15:00 PM 1.3 34.34 0.125 7.34 5.24 14.45
1/3/2022 12:30:00 PM 1.31 34.358 0.133 7.34 4.39 14.46
1/3/2022 12:45:00 PM 1.32 34.376 0.123 7.35 4.72 14.48
1/3/2022 1:00:00 PM 1.33 34.394 0.125 7.35 4.51 14.49
1/3/2022 1:15:00 PM 1.33 34.394 0.124 7.36 4.68 14.49
1/3/2022 1:30:00 PM 1.32 34.376 0.123 7.35 4.5 14.5
1/3/2022 1:45:00 PM 1.32 34.376 0.125 7.35 4.31 14.5
1/3/2022 2:00:00 PM 1.3 34.34 0.124 7.38 4.64 14.51
1/3/2022 2:15:00 PM 1.29 34.322 0.123 7.35 4.67 14.5
1/3/2022 2:30:00 PM 1.27 34.286 0.125 7.37 4.48 14.49
1/3/2022 2:45:00 PM 1.25 34.25 0.124 7.38 4.43 14.49
1/3/2022 3:00:00 PM 1.22 34.196 0.124 7.37 4.53 14.48
1/3/2022 3:15:00 PM 1.16 34.088 0.124 7.36 4.64 14.44
1/3/2022 3:30:00 PM 1.1 33.98 0.124 7.34 4.48 14.41
1/3/2022 3:45:00 PM 1.04 33.872 0.124 7.32 4.54 14.39
1/3/2022 4:00:00 PM 1 33.8 0.124 7.29 4.67 14.37
1/3/2022 4:15:00 PM 0.96 33.728 0.124 7.31 4.46 14.36
1/3/2022 4:30:00 PM 0.93 33.674 0.125 7.3 4.46 14.31
1/3/2022 4:45:00 PM 0.88 33.584 0.125 7.27 4.41 14.24
1/3/2022 5:00:00 PM 0.84 33.512 0.125 7.18 4.19 14.16
1/3/2022 5:15:00 PM 0.8 33.44 0.125 7.24 4.7 14.08
1/3/2022 5:30:00 PM 0.77 33.386 0.124 7.19 4.42 14.01
1/3/2022 5:45:00 PM 0.76 33.368 0.125 7.18 4.31 13.95
1/3/2022 6:00:00 PM 0.74 33.332 0.125 7.17 4.46 13.91
1/3/2022 6:15:00 PM 0.71 33.278 0.125 7.16 4.42 13.89
1/3/2022 6:30:00 PM 0.67 33.206 0.125 7.14 4.45 13.87
1/3/2022 6:45:00 PM 0.63 33.134 0.125 7.13 4.3 13.86
1/3/2022 7:00:00 PM 0.59 33.062 0.125 7.12 4.33 13.86
1/3/2022 7:15:00 PM 0.55 32.99 0.126 7.15 4.41 13.86
1/3/2022 7:30:00 PM 0.51 32.918 0.125 7.12 4.37 13.87
1/3/2022 7:45:00 PM 0.45 32.81 0.126 7.11 4.4 13.87
1/3/2022 8:00:00 PM 0.4 32.72 0.126 7.1 4.51 13.88
1/3/2022 8:15:00 PM 0.35 32.63 0.126 7.1 4.46 13.89
1/3/2022 8:30:00 PM 0.31 32.558 0.126 7.09 4.36 13.9
1/3/2022 8:45:00 PM 0.26 32.468 0.126 7.08 4.72 13.91
1/3/2022 9:00:00 PM 0.21 32.378 0.126 7.08 4.82 13.92
1/3/2022 9:15:00 PM 0.16 32.288 0.126 7.08 4.66 13.93
1/3/2022 9:30:00 PM 0.12 32.216 0.126 7.07 4.6 13.95
1/3/2022 9:45:00 PM 0.08 32.144 0.126 7.07 4.54 13.96
1/3/2022 10:00:00 PM 0.03 32.054 0.126 7.07 4.43 13.98
1/3/2022 10:15:00 PM 0 32 0.126 7.05 4.57 13.98
1/3/2022 10:30:00 PM -0.04 31.928 0.126 7.07 4.33 14
1/3/2022 10:45:00 PM -0.08 31.856 0.126 7.06 4.53 14.02
1/3/2022 11:00:00 PM -0.11 31.802 0.127 7.07 4.59 14.03
1/3/2022 11:15:00 PM -0.12 31.784 0.127 7.06 4.5 14.04
1/3/2022 11:30:00 PM -0.12 31.784 0.127 7.09 4.6 14.06
1/3/2022 11:45:00 PM -0.11 31.802 0.127 7.07 4.71 14.07
1/4/2022 12:00:00 AM -0.11 31.802 0.127 7.08 4.86 14.09
1/4/2022 12:15:00 AM -0.11 31.802 0.127 7.07 4.97 14.09
1/4/2022 12:30:00 AM -0.11 31.802 0.127 7.07 4.88 14.1
1/4/2022 12:45:00 AM -0.11 31.802 0.128 7.06 4.98 14.1
1/4/2022 1:00:00 AM -0.11 31.802 0.128 7.08 4.83 14.1
1/4/2022 1:15:00 AM -0.11 31.802 0.128 7.08 4.85 14.1
1/4/2022 1:30:00 AM -0.11 31.802 0.128 7.07 4.62 14.1
1/4/2022 1:45:00 AM -0.11 31.802 0.129 7.07 4.86 14.11
1/4/2022 2:00:00 AM -0.11 31.802 0.129 7.07 4.89 14.11
1/4/2022 2:15:00 AM -0.11 31.802 0.128 7.06 4.91 14.11
1/4/2022 2:30:00 AM -0.11 31.802 0.13 7.06 4.51 14.12
1/4/2022 2:45:00 AM -0.1 31.82 0.129 7.09 4.26 14.11
1/4/2022 3:00:00 AM -0.11 31.802 0.13 7.06 4.18 14.12
1/4/2022 3:15:00 AM -0.1 31.82 0.13 7.06 4.32 14.12
1/4/2022 3:30:00 AM -0.1 31.82 0.139 7.05 4.39 14.12
1/4/2022 3:45:00 AM -0.1 31.82 0.132 7.05 4.39 14.11
1/4/2022 4:00:00 AM -0.1 31.82 0.132 7.04 4.3 14.1
1/4/2022 4:15:00 AM -0.1 31.82 0.132 7.04 4.58 14.1
1/4/2022 4:30:00 AM -0.1 31.82 0.141 7.05 4.52 14.09
1/4/2022 4:45:00 AM -0.1 31.82 0.141 7.05 4.57 14.09
1/4/2022 5:00:00 AM -0.09 31.838 0.141 7.06 4.29 14.08
1/4/2022 5:15:00 AM -0.09 31.838 0.133 7.05 4.22 14.08
1/4/2022 5:30:00 AM -0.09 31.838 0.142 7.06 4.4 14.07
1/4/2022 5:45:00 AM -0.09 31.838 0.142 7.04 4.39 14.07
1/4/2022 6:00:00 AM -0.09 31.838 0.133 7.05 4.31 14.06
1/4/2022 6:15:00 AM -0.1 31.82 0.133 7.04 4.4 14.06
1/4/2022 6:30:00 AM -0.1 31.82 0.134 7.05 4.19 14.06
1/4/2022 6:45:00 AM -0.1 31.82 0.142 7.05 4.4 14.06
1/4/2022 7:00:00 AM -0.1 31.82 0.142 7.07 4.44 14.07
1/4/2022 7:15:00 AM -0.1 31.82 0.133 7.08 4.59 14.07
1/4/2022 7:30:00 AM -0.1 31.82 0.143 7.07 4.32 14.07
1/4/2022 7:45:00 AM -0.1 31.82 0.143 7.07 4.38 14.08
1/4/2022 8:00:00 AM -0.1 31.82 0.142 7.05 4.45 14.1
1/4/2022 8:15:00 AM -0.09 31.838 0.133 7.06 4.44 14.14
1/4/2022 8:30:00 AM -0.09 31.838 0.133 7.07 4.39 14.21
1/4/2022 8:45:00 AM -0.09 31.838 0.143 7.11 4.22 14.28
1/4/2022 9:00:00 AM -0.08 31.856 0.143 7.12 4.09 14.37
1/4/2022 9:15:00 AM -0.08 31.856